Provisional Data: Grays Run near Gray, PA


Please select a monitoring station.
Please select start date.
Please select start date.

Toggle Unit: C/F Toggle Unit: C/F
Sample Time Temperature (C) Temperature (F) Specific Conductivity (mS/cm) pH   Turbidity (NTU+) DO (mg/L)
12/4/2020 12:00:00 AM 5.54 41.972 0.032 6.33 26.7 12.34
12/4/2020 12:15:00 AM 5.54 41.972 0.034 6.33 30.09 12.47
12/4/2020 12:30:00 AM 5.54 41.972 0.032 6.3 23.75 12.31
12/4/2020 12:45:00 AM 5.55 41.99 0.034 6.34 23.09 12.48
12/4/2020 1:00:00 AM 5.45 41.81 0.034 6.35 22.09 12.42
12/4/2020 1:15:00 AM 5.58 42.044 0.035 6.35 27.3 12.53
12/4/2020 1:30:00 AM 5.51 41.918 0.032 6.25 26.3 12.33
12/4/2020 1:45:00 AM 5.4 41.72 0.034 6.34 26.47 12.5
12/4/2020 2:00:00 AM 5.49 41.882 0.034 6.34 25.52 12.42
12/4/2020 2:15:00 AM 5.54 41.972 0.034 6.33 19.27 12.42
12/4/2020 2:30:00 AM 5.47 41.846 0.032 6.3 27.16 12.35
12/4/2020 2:45:00 AM 5.5 41.9 0.034 6.32 25.57 12.47
12/4/2020 3:00:00 AM 5.5 41.9 0.032 6.26 24.87 12.31
12/4/2020 3:15:00 AM 5.49 41.882 0.032 6.32 24.04 12.38
12/4/2020 3:30:00 AM 5.39 41.702 0.034 6.3 29.54 12.45
12/4/2020 3:45:00 AM 5.5 41.9 0.032 6.28 23.18 12.31
12/4/2020 4:00:00 AM 5.46 41.828 0.034 6.32 28.33 12.49
12/4/2020 4:15:00 AM 5.58 42.044 0.035 6.25 22.79 12.45
12/4/2020 4:30:00 AM 5.47 41.846 0.034 6.27 24.47 12.47
12/4/2020 4:45:00 AM 5.42 41.756 0.034 6.32 24.01 12.51
12/4/2020 5:00:00 AM 5.57 42.026 0.034 6.33 27.85 12.41
12/4/2020 5:15:00 AM 5.51 41.918 0.032 6.24 26.89 12.31
12/4/2020 5:30:00 AM 5.4 41.72 0.034 6.35 25.34 12.54
12/4/2020 5:45:00 AM 5.43 41.774 0.034 6.34 28.63 12.4
12/4/2020 6:00:00 AM 5.51 41.918 0.032 6.25 26.25 12.37
12/4/2020 6:15:00 AM 5.43 41.774 0.034 6.35 31.67 12.5
12/4/2020 6:30:00 AM 5.47 41.846 0.034 6.36 25.56 12.44
12/4/2020 6:45:00 AM 5.46 41.828 0.034 6.35 26.46 12.46
12/4/2020 7:00:00 AM 5.47 41.846 0.032 6.25 25.32 12.34
12/4/2020 7:15:00 AM 5.36 41.648 0.034 6.4 28.46 12.52
12/4/2020 7:30:00 AM 5.38 41.684 0.034 6.38 27.44 12.54
12/4/2020 7:45:00 AM 5.38 41.684 0.034 6.39 29.87 12.44
12/4/2020 8:00:00 AM 5.36 41.648 0.032 6.3 27.58 12.49
12/4/2020 8:15:00 AM 5.41 41.738 0.032 6.29 22.16 12.45
12/4/2020 8:30:00 AM 5.42 41.756 0.032 6.29 12.01 12.48
12/4/2020 8:45:00 AM 5.42 41.756 0.032 6.29 7.49 12.43
12/4/2020 9:00:00 AM 5.28 41.504 0.034 6.38 23.37 12.55
12/4/2020 9:15:00 AM 5.26 41.468 0.034 6.4 25.36 12.57
12/4/2020 9:30:00 AM 5.26 41.468 0.034 6.39 23.17 12.63
12/4/2020 9:45:00 AM 5.27 41.486 0.034 6.37 25.66 12.63
12/4/2020 10:00:00 AM 5.4 41.72 0.032 6.32 25.78 12.54
12/4/2020 10:15:00 AM 5.37 41.666 0.034 6.44 23.56 12.62
12/4/2020 10:30:00 AM 5.47 41.846 0.034 6.43 23.89 12.64
12/4/2020 10:45:00 AM 5.52 41.936 0.034 6.38 30.54 12.58
12/4/2020 11:00:00 AM 5.69 42.242 0.032 6.29 24.71 12.43
12/4/2020 11:15:00 AM 5.69 42.242 0.034 6.41 29 12.52
12/4/2020 11:30:00 AM 5.81 42.458 0.032 6.28 23.27 12.44
12/4/2020 11:45:00 AM 5.83 42.494 0.034 6.43 30.72 12.52
12/4/2020 12:00:00 PM 5.96 42.728 0.034 6.45 27.97 12.43
12/4/2020 12:15:00 PM 6.03 42.854 0.033 6.43 22.69 12.41
12/4/2020 12:30:00 PM 6.23 43.214 0.034 6.28 26.78 12.38
12/4/2020 12:45:00 PM 6.28 43.304 0.034 6.37 23.53 12.31
12/4/2020 1:00:00 PM 6.37 43.466 0.032 6.29 25.1 12.13
12/4/2020 1:15:00 PM 6.39 43.502 0.034 6.38 24.29 12.26
12/4/2020 1:30:00 PM 6.4 43.52 0.034 6.4 25.82 12.41
12/4/2020 1:45:00 PM 6.52 43.736 0.032 6.33 24.08 12.2
12/4/2020 2:00:00 PM 6.54 43.772 0.032 6.36 13.85 12.23
12/4/2020 2:15:00 PM 6.63 43.934 0.032 6.34 18.61 12.14
12/4/2020 2:30:00 PM 6.58 43.844 0.034 6.44 28 12.2
12/4/2020 2:45:00 PM 6.7 44.06 0.032 6.32 26.96 12.12
12/4/2020 3:00:00 PM 6.68 44.024 0.034 6.39 25.32 12.16
12/4/2020 3:15:00 PM 6.63 43.934 0.034 6.39 26.44 12.16
12/4/2020 3:30:00 PM 6.71 44.078 0.034 6.32 26.43 12.07
12/4/2020 3:45:00 PM 6.72 44.096 0.034 6.34 24.16 12.07
12/4/2020 4:00:00 PM 6.75 44.15 0.032 6.29 29.5 11.98
12/4/2020 4:15:00 PM 6.78 44.204 0.034 6.4 26.11 12.01
12/4/2020 4:30:00 PM 6.69 44.042 0.034 6.34 23.49 11.95
12/4/2020 4:45:00 PM 6.73 44.114 0.032 6.26 24.41 11.87
12/4/2020 5:00:00 PM 6.74 44.132 0.034 6.28 23.36 11.96
12/4/2020 5:15:00 PM 6.72 44.096 0.032 6.25 27.13 11.77
12/4/2020 5:30:00 PM 6.63 43.934 0.034 6.27 30.16 11.92
12/4/2020 5:45:00 PM 6.6 43.88 0.035 6.24 28.41 12.04
12/4/2020 6:00:00 PM 6.79 44.222 0.035 6.28 27.05 11.86
12/4/2020 6:15:00 PM 6.69 44.042 0.034 6.29 27.13 11.81
12/4/2020 6:30:00 PM 6.57 43.826 0.032 6.24 30.35 11.83
12/4/2020 6:45:00 PM 6.5 43.7 0.034 6.2 29.94 12.11
12/4/2020 7:00:00 PM 6.39 43.502 0.034 6.28 29.16 12.06
12/4/2020 7:15:00 PM 6.45 43.61 0.032 6.27 23.07 11.85
12/4/2020 7:30:00 PM 6.35 43.43 0.034 6.29 22.15 12.12
12/4/2020 7:45:00 PM 6.62 43.916 0.035 6.33 26.61 12.05
12/4/2020 8:00:00 PM 6.27 43.286 0.034 6.26 23.44 12.13
12/4/2020 8:15:00 PM 6.28 43.304 0.032 6.28 21.91 12.07
12/4/2020 8:30:00 PM 6.27 43.286 0.035 6.34 26.84 12.12
12/4/2020 8:45:00 PM 6.28 43.304 0.032 6.28 22.39 12.02
12/4/2020 9:00:00 PM 6.31 43.358 0.032 6.3 24.2 12.05
12/4/2020 9:15:00 PM 6.15 43.07 0.034 6.35 28.7 12.26
12/4/2020 9:30:00 PM 6.24 43.232 0.035 6.32 24.66 12.18
12/4/2020 9:45:00 PM 6.22 43.196 0.034 6.34 25.53 12.21
12/4/2020 10:00:00 PM 6.15 43.07 0.034 6.34 31.32 12.2
12/4/2020 10:15:00 PM 6.28 43.304 0.035 6.32 27.94 12.18
12/4/2020 10:30:00 PM 6.17 43.106 0.035 6.32 30.57 12.19
12/4/2020 10:45:00 PM 6.13 43.034 0.034 6.31 27.38 12.15
12/4/2020 11:00:00 PM 6.21 43.178 0.032 6.25 30.67 12.04
12/4/2020 11:15:00 PM 6.15 43.07 0.034 6.33 31.36 12.13
12/4/2020 11:30:00 PM 6.26 43.268 0.032 6.24 24.17 11.98
12/4/2020 11:45:00 PM 6.21 43.178 0.035 6.29 25.05 12.13
12/5/2020 12:00:00 AM 6.18 43.124 0.034 6.3 24.5 12.19
12/5/2020 12:15:00 AM 6.2 43.16 0.034 6.28 24.16 12.16
12/5/2020 12:30:00 AM 6.26 43.268 0.032 6.29 25.6 12.01
12/5/2020 12:45:00 AM 6.11 42.998 0.034 6.31 26.04 12.17
12/5/2020 1:00:00 AM 6.2 43.16 0.034 6.32 24.2 12.12
12/5/2020 1:15:00 AM 6.15 43.07 0.034 6.3 24.08 12.11
12/5/2020 1:30:00 AM 6.23 43.214 0.034 6.27 27.32 12.14
12/5/2020 1:45:00 AM 6.21 43.178 0.032 6.28 28.66 12.03
12/5/2020 2:00:00 AM 6.16 43.088 0.035 6.33 27.63 12.18
12/5/2020 2:15:00 AM 6.1 42.98 0.034 6.3 26.88 12.14
12/5/2020 2:30:00 AM 6.19 43.142 0.032 6.25 29.83 12.01
12/5/2020 2:45:00 AM 6.18 43.124 0.035 6.28 27.04 12.2
12/5/2020 3:00:00 AM 6.16 43.088 0.032 6.28 29.09 12.04
12/5/2020 3:15:00 AM 6.13 43.034 0.034 6.3 31.57 12.21
12/5/2020 3:30:00 AM 6.2 43.16 0.034 6.31 26.46 12.14
12/5/2020 3:45:00 AM 6.12 43.016 0.032 6.25 25.7 12.05
12/5/2020 4:00:00 AM 6.12 43.016 0.035 6.28 26.52 12.17
12/5/2020 4:15:00 AM 6.03 42.854 0.034 6.28 27.34 12.11
12/5/2020 4:30:00 AM 6.03 42.854 0.034 6.29 24.61 12.2
12/5/2020 4:45:00 AM 6.12 43.016 0.032 6.29 27.25 12.05
12/5/2020 5:00:00 AM 6.18 43.124 0.032 6.27 30.74 12.07
12/5/2020 5:15:00 AM 6.05 42.89 0.034 6.32 27.21 12.22
12/5/2020 5:30:00 AM 6.05 42.89 0.034 6.32 22.53 12.21
12/5/2020 5:45:00 AM 6.03 42.854 0.034 6.3 25.13 12.22
12/5/2020 6:00:00 AM 6.18 43.124 0.032 6.26 29.17 12.07
12/5/2020 6:15:00 AM 6.08 42.944 0.034 6.32 29.24 12.19
12/5/2020 6:30:00 AM 6.08 42.944 0.034 6.33 32.68 12.22
12/5/2020 6:45:00 AM 6.09 42.962 0.034 6.31 27.55 12.16
12/5/2020 7:00:00 AM 6.11 42.998 0.034 6.32 25.57 12.23
12/5/2020 7:15:00 AM 6.19 43.142 0.032 6.25 26.54 12.07
12/5/2020 7:30:00 AM 6.27 43.286 0.032 6.28 2.38 12.11
12/5/2020 7:45:00 AM 6.09 42.962 0.034 6.31 22.23 12.19
12/5/2020 8:00:00 AM 6.21 43.178 0.032 6.28 26.16 12.09
12/5/2020 8:15:00 AM 6.12 43.016 0.034 6.29 25.2 12.24
12/5/2020 8:30:00 AM 6.15 43.07 0.034 6.28 28.2 12.22
12/5/2020 8:45:00 AM 6.13 43.034 0.034 6.3 27.65 12.2
12/5/2020 9:00:00 AM 6.26 43.268 0.032 6.3 27.45 12.17
12/5/2020 9:15:00 AM 6.17 43.106 0.034 6.26 24.91 12.22
12/5/2020 9:30:00 AM 6.14 43.052 0.034 6.35 27.3 12.23
12/5/2020 9:45:00 AM 6.26 43.268 0.032 6.28 25.97 12.15
12/5/2020 10:00:00 AM 6.32 43.376 0.032 6.29 27.23 12.12
12/5/2020 10:15:00 AM 6.38 43.484 0.032 6.26 24.09 12.06
12/5/2020 10:30:00 AM 6.27 43.286 0.034 6.19 24.18 12.12
12/5/2020 10:45:00 AM 6.36 43.448 0.032 6.24 26.68 12.03
12/5/2020 11:00:00 AM 6.27 43.286 0.033 6.25 22.43 12.17
12/5/2020 11:15:00 AM 6.38 43.484 0.032 6.27 24.41 12.03
12/5/2020 11:30:00 AM 6.26 43.268 0.033 6.29 24.47 12.16
12/5/2020 11:45:00 AM 6.35 43.43 0.034 6.32 25.69 12.19
12/5/2020 12:00:00 PM 6.29 43.322 0.033 6.28 25.19 12.25
12/5/2020 12:15:00 PM 6.35 43.43 0.032 6.26 28.75 12.16
12/5/2020 12:30:00 PM 6.36 43.448 0.034 6.3 25.89 12.25
12/5/2020 12:45:00 PM 6.28 43.304 0.033 6.29 25.4 12.22
12/5/2020 1:00:00 PM 6.35 43.43 0.033 6.3 25.32 12.25
12/5/2020 1:15:00 PM 6.34 43.412 0.033 6.3 22.29 12.28
12/5/2020 1:30:00 PM 6.32 43.376 0.033 6.29 25.82 12.29
12/5/2020 1:45:00 PM 6.4 43.52 0.032 6.25 23.73 12.15
12/5/2020 2:00:00 PM 6.32 43.376 0.033 6.26 25.91 12.2
12/5/2020 2:15:00 PM 6.36 43.448 0.034 6.27 33.18 12.17
12/5/2020 2:30:00 PM 6.32 43.376 0.033 6.26 25.4 12.16
12/5/2020 2:45:00 PM 6.47 43.646 0.034 6.28 26.3 12.06
12/5/2020 3:00:00 PM 6.33 43.394 0.033 6.24 24.58 12.07
12/5/2020 3:15:00 PM 6.48 43.664 0.034 6.28 25.5 12.02
12/5/2020 3:30:00 PM 6.46 43.628 0.034 6.3 25.84 12.01
12/5/2020 3:45:00 PM 6.44 43.592 0.034 6.3 22.83 12.04
12/5/2020 4:00:00 PM 6.41 43.538 0.032 6.29 25.44 11.87
12/5/2020 4:15:00 PM 6.28 43.304 0.034 6.32 25.41 11.99
12/5/2020 4:30:00 PM 6.38 43.484 0.032 6.23 24.77 11.85
12/5/2020 4:45:00 PM 6.38 43.484 0.032 6.23 25.62 11.86
12/5/2020 5:00:00 PM 6.39 43.502 0.032 6.19 15.3 11.88
12/5/2020 5:15:00 PM 6.17 43.106 0.034 6.33 29.58 12.19
12/5/2020 5:30:00 PM 6.25 43.25 0.032 6.25 23.65 12.04
12/5/2020 5:45:00 PM 6.18 43.124 0.034 6.32 26.9 12.08
12/5/2020 6:00:00 PM 6.27 43.286 0.032 6.22 25.19 11.91
12/5/2020 6:15:00 PM 6.12 43.016 0.034 6.3 27.43 12.15
12/5/2020 6:30:00 PM 6.1 42.98 0.034 6.26 27.34 12.18
12/5/2020 6:45:00 PM 6.09 42.962 0.034 6.28 23.97 12.14
12/5/2020 7:00:00 PM 6.06 42.908 0.034 6.27 25.76 12.11
12/5/2020 7:15:00 PM 6.1 42.98 0.032 6.27 22.07 12
12/5/2020 7:30:00 PM 6.01 42.818 0.034 6.29 25.92 12.2
12/5/2020 7:45:00 PM 6.08 42.944 0.035 6.25 25.54 12.15
12/5/2020 8:00:00 PM 6.04 42.872 0.034 6.24 26.43 12.18
12/5/2020 8:15:00 PM 6.07 42.926 0.032 6.29 25.44 12.1
12/5/2020 8:30:00 PM 6.08 42.944 0.032 6.28 30.09 12.09
12/5/2020 8:45:00 PM 5.99 42.782 0.034 6.25 28.92 12.23
12/5/2020 9:00:00 PM 6.06 42.908 0.032 6.28 24.09 11.98
12/5/2020 9:15:00 PM 6.09 42.962 0.035 6.33 23.7 12.14
12/5/2020 9:30:00 PM 5.97 42.746 0.034 6.21 27.7 12.14
12/5/2020 9:45:00 PM 5.93 42.674 0.034 6.3 28.31 12.12
12/5/2020 10:00:00 PM 5.98 42.764 0.032 6.27 28.3 12
12/5/2020 10:15:00 PM 5.99 42.782 0.032 6.32 26.66 12.08
12/5/2020 10:30:00 PM 5.85 42.53 0.034 6.34 28.79 12.19
12/5/2020 10:45:00 PM 5.92 42.656 0.034 6.25 24.64 12.15
12/5/2020 11:00:00 PM 5.91 42.638 0.032 6.3 26.7 12.07
12/5/2020 11:15:00 PM 5.84 42.512 0.034 6.3 24.43 12.08
12/5/2020 11:30:00 PM 5.93 42.674 0.032 6.25 28.98 12.02
12/5/2020 11:45:00 PM 5.78 42.404 0.034 6.35 25.92 12.16
12/6/2020 12:00:00 AM 5.77 42.386 0.034 6.34 25.3 12.29
12/6/2020 12:15:00 AM 5.84 42.512 0.032 6.29 24.39 12.15
12/6/2020 12:30:00 AM 5.73 42.314 0.034 6.33 27.65 12.31
12/6/2020 12:45:00 AM 5.86 42.548 0.032 6.3 22.56 12.12
12/6/2020 1:00:00 AM 5.73 42.314 0.034 6.35 26.24 12.19
12/6/2020 1:15:00 AM 5.7 42.26 0.034 6.37 27.27 12.21
12/6/2020 1:30:00 AM 5.8 42.44 0.032 6.27 23.69 12.12
12/6/2020 1:45:00 AM 5.8 42.44 0.032 6.31 28.63 12.2
12/6/2020 2:00:00 AM 5.65 42.17 0.034 6.36 28.06 12.27
12/6/2020 2:15:00 AM 5.74 42.332 0.032 6.31 25.77 12.23
12/6/2020 2:30:00 AM 5.67 42.206 0.034 6.35 24.47 12.27
12/6/2020 2:45:00 AM 5.61 42.098 0.034 6.37 25.91 12.22
12/6/2020 3:00:00 AM 5.67 42.206 0.032 6.28 28 12.1
12/6/2020 3:15:00 AM 5.73 42.314 0.032 6.29 2.12 12.04
12/6/2020 3:30:00 AM 5.6 42.08 0.034 6.36 28.73 12.23
12/6/2020 3:45:00 AM 5.62 42.116 0.034 6.36 28.13 12.23
12/6/2020 4:00:00 AM 5.53 41.954 0.034 6.35 26.02 12.26
12/6/2020 4:15:00 AM 5.55 41.99 0.034 6.31 22.7 12.26
12/6/2020 4:30:00 AM 5.52 41.936 0.035 6.36 30.02 12.26
12/6/2020 4:45:00 AM 5.46 41.828 0.034 6.32 24.62 12.36
12/6/2020 5:00:00 AM 5.48 41.864 0.034 6.34 23.86 12.26
12/6/2020 5:15:00 AM 5.4 41.72 0.034 6.31 27.26 12.35
12/6/2020 5:30:00 AM 5.35 41.63 0.034 6.37 22.82 12.42
12/6/2020 5:45:00 AM 5.37 41.666 0.032 6.28 24.78 12.31
12/6/2020 6:00:00 AM 5.38 41.684 0.034 6.36 22.18 12.34
12/6/2020 6:15:00 AM 5.34 41.612 0.034 6.37 25.57 12.42
12/6/2020 6:30:00 AM 5.37 41.666 0.032 6.28 24.41 12.24
12/6/2020 6:45:00 AM 5.41 41.738 0.035 6.29 25.67 12.22
12/6/2020 7:00:00 AM 5.39 41.702 0.032 6.26 26 12.17
12/6/2020 7:15:00 AM 5.4 41.72 0.035 6.38 26.79 12.3
12/6/2020 7:30:00 AM 5.37 41.666 0.035 6.31 21.37 12.3
12/6/2020 7:45:00 AM 5.29 41.522 0.034 6.23 22.78 12.26
12/6/2020 8:00:00 AM 5.21 41.378 0.034 6.3 22.3 12.39
12/6/2020 8:15:00 AM 5.25 41.45 0.032 6.28 26.72 12.32
12/6/2020 8:30:00 AM 5.33 41.594 0.035 6.32 21.87 12.48
12/6/2020 8:45:00 AM 5.21 41.378 0.032 6.26 26.93 12.36
12/6/2020 9:00:00 AM 5.21 41.378 0.035 6.31 28.29 12.69
12/6/2020 9:15:00 AM 5.25 41.45 0.034 6.28 28.75 12.73
12/6/2020 9:30:00 AM 5.19 41.342 0.032 6.31 24.08 12.63
12/6/2020 9:45:00 AM 5.23 41.414 0.034 6.36 28.5 12.7
12/6/2020 10:00:00 AM 5.2 41.36 0.034 6.3 26.74 12.7
12/6/2020 10:15:00 AM 5.25 41.45 0.032 6.33 23.26 12.53
12/6/2020 10:30:00 AM 5.32 41.576 0.032 6.31 4.43 12.61
12/6/2020 10:45:00 AM 5.19 41.342 0.034 6.24 25.89 12.61
12/6/2020 11:00:00 AM 5.22 41.396 0.034 6.29 27.07 12.6
12/6/2020 11:15:00 AM 5.44 41.792 0.034 6.3 28.36 12.75
12/6/2020 11:30:00 AM 5.33 41.594 0.034 6.24 24.37 12.68
12/6/2020 11:45:00 AM 5.31 41.558 0.034 6.25 23.37 12.7
12/6/2020 12:00:00 PM 5.37 41.666 0.033 6.31 24.96 12.75
12/6/2020 12:15:00 PM 5.36 41.648 0.033 6.19 24.02 12.83
12/6/2020 12:30:00 PM 5.42 41.756 0.033 6.29 24.08 12.71
12/6/2020 12:45:00 PM 5.32 41.576 0.033 6.3 27.41 12.64
12/6/2020 1:00:00 PM 5.47 41.846 0.032 6.2 27.14 12.49
12/6/2020 1:15:00 PM 5.35 41.63 0.033 6.26 28.21 12.64
12/6/2020 1:30:00 PM 5.46 41.828 0.031 6.25 25.66 12.42
12/6/2020 1:45:00 PM 5.38 41.684 0.033 6.26 27.08 12.65
12/6/2020 2:00:00 PM 5.43 41.774 0.033 6.29 23.47 12.62
12/6/2020 2:15:00 PM 5.47 41.846 0.033 6.24 29.09 12.55
12/6/2020 2:30:00 PM 5.37 41.666 0.033 6.25 25.17 12.63
12/6/2020 2:45:00 PM 5.55 41.99 0.034 6.1 32.16 12.5
12/6/2020 3:00:00 PM 5.32 41.576 0.033 6.17 30.14 12.64
12/6/2020 3:15:00 PM 5.41 41.738 0.032 6.27 27.94 12.4
12/6/2020 3:30:00 PM 5.4 41.72 0.032 6.26 27.1 12.42
12/6/2020 3:45:00 PM 5.44 41.792 0.032 6.27 4.42 12.29
12/6/2020 4:00:00 PM 5.46 41.828 0.032 6.25 17.74 12.14
12/6/2020 4:15:00 PM 5.34 41.612 0.034 6.25 25.02 12.37
12/6/2020 4:30:00 PM 5.41 41.738 0.032 6.26 28.08 12.09
12/6/2020 4:45:00 PM 5.67 42.206 0.035 6.22 30.34 12.31
12/6/2020 5:00:00 PM 5.37 41.666 0.032 6.25 28.75 12.19
12/6/2020 5:15:00 PM 5.21 41.378 0.034 6.24 29.31 12.4
12/6/2020 5:30:00 PM 5.12 41.216 0.034 6.26 25.01 12.34
12/6/2020 5:45:00 PM 5.24 41.432 0.032 6.24 27 12.29
12/6/2020 6:00:00 PM 5.25 41.45 0.032 6.24 7.12 12.28
12/6/2020 6:15:00 PM 5.31 41.558 0.034 6.25 26.56 12.48
12/6/2020 6:30:00 PM 5.1 41.18 0.035 6.18 26.86 12.58
12/6/2020 6:45:00 PM 4.94 40.892 0.034 6.18 24.62 12.51
12/6/2020 7:00:00 PM 5.03 41.054 0.034 6.23 27.04 12.52
12/6/2020 7:15:00 PM 5.09 41.162 0.032 6.27 28.64 12.21
12/6/2020 7:30:00 PM 5.19 41.342 0.035 6.24 24.42 12.47
12/6/2020 7:45:00 PM 5.08 41.144 0.035 6.23 24.59 12.38
12/6/2020 8:00:00 PM 5.1 41.18 0.034 6.23 23.99 12.46
12/6/2020 8:15:00 PM 5.04 41.072 0.032 6.21 21.52 12.28
12/6/2020 8:30:00 PM 4.96 40.928 0.034 6.27 22.7 12.29
12/6/2020 8:45:00 PM 4.99 40.982 0.035 6.16 22.1 12.44
12/6/2020 9:00:00 PM 4.94 40.892 0.034 6.18 28.52 12.53
12/6/2020 9:15:00 PM 5.12 41.216 0.034 6.25 30.58 12.51
12/6/2020 9:30:00 PM 4.84 40.712 0.034 6.22 28.08 12.26
12/6/2020 9:45:00 PM 5.37 41.666 0.035 6.08 25.73 12.36
12/6/2020 10:00:00 PM 4.94 40.892 0.032 6.21 24.76 12.18
12/6/2020 10:15:00 PM 4.77 40.586 0.034 6.24 30.82 12.59
12/6/2020 10:30:00 PM 4.87 40.766 0.032 6.24 25.53 12.34
12/6/2020 10:45:00 PM 4.67 40.406 0.034 6.28 29.28 12.41
12/6/2020 11:00:00 PM 4.87 40.766 0.032 6.26 26.89 12.35
12/6/2020 11:15:00 PM 4.7 40.46 0.034 6.32 29.16 12.42
12/6/2020 11:30:00 PM 4.84 40.712 0.032 6.25 26.78 12.29
12/6/2020 11:45:00 PM 5.04 41.072 0.034 6.29 27.7 12.44
12/7/2020 12:00:00 AM 4.92 40.856 0.035 6.29 24.9 12.52
12/7/2020 12:15:00 AM 4.88 40.784 0.034 6.27 24.7 12.51
12/7/2020 12:30:00 AM 4.85 40.73 0.034 6.28 25.2 12.39
12/7/2020 12:45:00 AM 4.69 40.442 0.034 6.24 28.31 12.48
12/7/2020 1:00:00 AM 4.78 40.604 0.034 6.27 24.88 12.28
12/7/2020 1:15:00 AM 4.87 40.766 0.032 6.25 26.21 12.3
12/7/2020 1:30:00 AM 4.96 40.928 0.035 6.27 26.23 12.35
12/7/2020 1:45:00 AM 4.92 40.856 0.035 6.26 22.77 12.47
12/7/2020 2:00:00 AM 4.79 40.622 0.032 6.23 29.49 12.3
12/7/2020 2:15:00 AM 4.87 40.766 0.035 6.29 29.35 12.52
12/7/2020 2:30:00 AM 4.83 40.694 0.034 6.27 24.93 12.58
12/7/2020 2:45:00 AM 4.76 40.568 0.032 6.24 26.77 12.25
12/7/2020 3:00:00 AM 5.04 41.072 0.034 6.27 25.83 12.32
12/7/2020 3:15:00 AM 4.85 40.73 0.034 6.24 25.01 12.42
12/7/2020 3:30:00 AM 5.14 41.252 0.035 6.18 24.06 12.24
12/7/2020 3:45:00 AM 4.87 40.766 0.035 6.14 27.97 12.35
12/7/2020 4:00:00 AM 5 41 0.034 6.21 28.55 12.5
12/7/2020 4:15:00 AM 5.08 41.144 0.036 6.24 27.93 12.37
12/7/2020 4:30:00 AM 5.02 41.036 0.035 6.23 24.21 12.37
12/7/2020 4:45:00 AM 4.74 40.532 0.032 6.2 26.45 12.25
12/7/2020 5:00:00 AM 4.63 40.334 0.034 6.21 22.84 12.3
12/7/2020 5:15:00 AM 4.83 40.694 0.032 6.17 26.85 12.24
12/7/2020 5:30:00 AM 4.68 40.424 0.034 6.19 23.56 12.28
12/7/2020 5:45:00 AM 4.71 40.478 0.032 6.2 28.14 12.38
12/7/2020 6:00:00 AM 4.8 40.64 0.034 6.23 26.11 12.43
12/7/2020 6:15:00 AM 4.56 40.208 0.034 6.26 25.22 12.45
12/7/2020 6:30:00 AM 4.63 40.334 0.032 6.24 33.55 12.34
12/7/2020 6:45:00 AM 4.9 40.82 0.034 6.24 30.4 12.57
12/7/2020 7:00:00 AM 4.63 40.334 0.034 6.23 26.52 12.51
12/7/2020 7:15:00 AM 4.67 40.406 0.032 6.24 29.47 12.36
12/7/2020 7:30:00 AM 4.65 40.37 0.032 6.24 2.69 12.4
12/7/2020 7:45:00 AM 4.68 40.424 0.032 6.27 9.89 12.3
12/7/2020 8:00:00 AM 5 41 0.035 6.25 26.98 12.42
12/7/2020 8:15:00 AM 4.51 40.118 0.034 6.26 26.18 12.69
12/7/2020 8:30:00 AM 4.53 40.154 0.034 6.28 25.98 12.79
12/7/2020 8:45:00 AM 4.67 40.406 0.032 6.23 29.38 12.37
12/7/2020 9:00:00 AM 4.41 39.938 0.033 6.33 25.07 12.89
12/7/2020 9:15:00 AM 4.42 39.956 0.033 6.35 24.8 12.83
12/7/2020 9:30:00 AM 4.47 40.046 0.033 6.37 22.62 12.69
12/7/2020 9:45:00 AM 4.5 40.1 0.034 6.4 25.37 12.68
12/7/2020 10:00:00 AM 4.5 40.1 0.034 6.38 23.62 12.65
12/7/2020 10:15:00 AM 4.49 40.082 0.034 6.38 29.36 12.71
12/7/2020 10:30:00 AM 4.56 40.208 0.033 6.39 25.69 12.77
12/7/2020 10:45:00 AM 4.64 40.352 0.033 6.36 26.11 12.62
12/7/2020 11:00:00 AM 4.62 40.316 0.033 6.33 27.4 12.53
12/7/2020 11:15:00 AM 4.64 40.352 0.033 6.37 25.82 12.81
12/7/2020 11:30:00 AM 4.67 40.406 0.033 6.4 26.45 12.82
12/7/2020 11:45:00 AM 4.71 40.478 0.033 6.41 24.79 12.85
12/7/2020 12:00:00 PM 4.72 40.496 0.033 6.44 27.64 12.89
12/7/2020 12:15:00 PM 4.75 40.55 0.033 6.4 27.31 12.88
12/7/2020 12:30:00 PM 4.76 40.568 0.033 6.43 22.79 12.93
12/7/2020 12:45:00 PM 4.78 40.604 0.033 6.45 21.39 12.87
12/7/2020 1:00:00 PM 5.06 41.108 0.031 6.32 25.15 12.71
12/7/2020 1:15:00 PM 4.99 40.982 0.033 6.45 23.74 12.83
12/7/2020 1:30:00 PM 5.09 41.162 0.031 6.29 25.64 12.44
12/7/2020 1:45:00 PM 4.98 40.964 0.033 6.39 25.44 12.68
12/7/2020 2:00:00 PM 4.98 40.964 0.033 6.32 29.53 12.67
12/7/2020 2:15:00 PM 5.08 41.144 0.031 6.3 22.33 12.47
12/7/2020 2:30:00 PM 5.11 41.198 0.033 6.33 27.6 12.47
12/7/2020 2:45:00 PM 5.09 41.162 0.034 6.36 25.63 12.47
12/7/2020 3:00:00 PM 5.07 41.126 0.031 6.26 29.54 12.32
12/7/2020 3:15:00 PM 5.15 41.27 0.032 6.27 25.3 12.27
12/7/2020 3:30:00 PM 5.01 41.018 0.034 6.35 23.56 12.33
12/7/2020 3:45:00 PM 4.97 40.946 0.033 6.34 25.04 12.39
12/7/2020 4:00:00 PM 5.04 41.072 0.032 6.26 21.81 12.34
12/7/2020 4:15:00 PM 4.93 40.874 0.033 6.36 27.73 12.57
12/7/2020 4:30:00 PM 4.95 40.91 0.032 6.28 25.99 12.39
12/7/2020 4:45:00 PM 5 41 0.034 6.35 28.46 12.42
12/7/2020 5:00:00 PM 5.01 41.018 0.032 6.26 28.55 12.28
12/7/2020 5:15:00 PM 4.83 40.694 0.034 6.33 26.97 12.44
12/7/2020 5:30:00 PM 4.96 40.928 0.032 6.25 26.45 12.29
12/7/2020 5:45:00 PM 4.83 40.694 0.034 6.36 22.5 12.48
12/7/2020 6:00:00 PM 4.87 40.766 0.034 6.32 24.88 12.49
12/7/2020 6:15:00 PM 4.88 40.784 0.032 6.24 27.1 12.28
12/7/2020 6:30:00 PM 4.82 40.676 0.032 6.26 27.03 12.42
12/7/2020 6:45:00 PM 4.79 40.622 0.034 6.36 23.03 12.45
12/7/2020 7:00:00 PM 4.75 40.55 0.034 6.36 28.59 12.54
12/7/2020 7:15:00 PM 4.74 40.532 0.034 6.31 28.81 12.46
12/7/2020 7:30:00 PM 4.73 40.514 0.034 6.3 26.69 12.52
12/7/2020 7:45:00 PM 4.81 40.658 0.032 6.27 26.3 12.35
12/7/2020 8:00:00 PM 4.65 40.37 0.034 6.34 25.92 12.53
12/7/2020 8:15:00 PM 4.69 40.442 0.034 6.22 27.41 12.51
12/7/2020 8:30:00 PM 4.61 40.298 0.034 6.29 27.84 12.52
12/7/2020 8:45:00 PM 4.58 40.244 0.034 6.34 28.18 12.44
12/7/2020 9:00:00 PM 4.55 40.19 0.034 6.31 31.16 12.42
12/7/2020 9:15:00 PM 4.52 40.136 0.034 6.32 28.16 12.54
12/7/2020 9:30:00 PM 4.48 40.064 0.034 6.35 25.86 12.48
12/7/2020 9:45:00 PM 4.43 39.974 0.034 6.36 25.85 12.7
12/7/2020 10:00:00 PM 4.47 40.046 0.034 6.34 30.76 12.63
12/7/2020 10:15:00 PM 4.5 40.1 0.032 6.28 29.13 12.46
12/7/2020 10:30:00 PM 4.37 39.866 0.034 6.33 25.63 12.64
12/7/2020 10:45:00 PM 4.34 39.812 0.034 6.34 21.86 12.64
12/7/2020 11:00:00 PM 4.48 40.064 0.032 6.23 22.97 12.38
12/7/2020 11:15:00 PM 4.34 39.812 0.034 6.25 24.99 12.53
12/7/2020 11:30:00 PM 4.57 40.226 0.032 6.25 30.67 12.29
12/7/2020 11:45:00 PM 4.58 40.244 0.032 6.22 2.83 12.38
12/8/2020 12:00:00 AM 4.53 40.154 0.032 6.21 6.61 12.38
12/8/2020 12:15:00 AM 4.53 40.154 0.032 6.2 5.12 12.37
12/8/2020 12:30:00 AM 4.53 40.154 0.032 6.22 3.81 12.46
12/8/2020 12:45:00 AM 4.24 39.632 0.034 6.31 24.16 12.6
12/8/2020 1:00:00 AM 4.47 40.046 0.032 6.27 28.23 12.45
12/8/2020 1:15:00 AM 4.54 40.172 0.032 6.28 27.26 12.34
12/8/2020 1:30:00 AM 4.55 40.19 0.032 6.28 25.65 12.4
12/8/2020 1:45:00 AM 4.5 40.1 0.032 6.21 26.31 12.44
12/8/2020 2:00:00 AM 4.3 39.74 0.034 6.32 27.08 12.49
12/8/2020 2:15:00 AM 4.31 39.758 0.034 6.23 23.76 12.6
12/8/2020 2:30:00 AM 4.26 39.668 0.034 6.33 23.9 12.59
12/8/2020 2:45:00 AM 4.27 39.686 0.034 6.33 25.3 12.57
12/8/2020 3:00:00 AM 4.24 39.632 0.034 6.26 23.69 12.61
12/8/2020 3:15:00 AM 4.27 39.686 0.034 6.33 24.12 12.61
12/8/2020 3:30:00 AM 4.18 39.524 0.034 6.34 27.3 12.58
12/8/2020 3:45:00 AM 4.42 39.956 0.032 6.22 24.72 12.41
12/8/2020 4:00:00 AM 4.44 39.992 0.032 6.25 4.04 12.43
12/8/2020 4:15:00 AM 4.22 39.596 0.033 6.3 27.86 12.69
12/8/2020 4:30:00 AM 4.15 39.47 0.034 6.22 24.7 12.63
12/8/2020 4:45:00 AM 4.2 39.56 0.034 6.33 25.06 12.72
12/8/2020 5:00:00 AM 4.09 39.362 0.033 6.32 24.11 12.67
12/8/2020 5:15:00 AM 4.1 39.38 0.033 6.29 23.1 12.64
12/8/2020 5:30:00 AM 4.03 39.254 0.034 6.36 21.84 12.73
12/8/2020 5:45:00 AM 4.03 39.254 0.034 6.29 24.86 12.74
12/8/2020 6:00:00 AM 3.96 39.128 0.033 6.31 24.34 12.69
12/8/2020 6:15:00 AM 3.97 39.146 0.034 6.33 26.46 12.59
12/8/2020 6:30:00 AM 3.95 39.11 0.034 6.34 26.08 12.7
12/8/2020 6:45:00 AM 3.95 39.11 0.034 6.24 26.5 12.66
12/8/2020 7:00:00 AM 3.97 39.146 0.034 6.31 27.38 12.51
12/8/2020 7:15:00 AM 4.06 39.308 0.032 6.23 27.89 12.52
12/8/2020 7:30:00 AM 3.94 39.092 0.034 6.31 26.23 12.69
12/8/2020 7:45:00 AM 4.04 39.272 0.032 6.2 25.5 12.58
12/8/2020 8:00:00 AM 4.04 39.272 0.032 6.21 25.14 12.5
12/8/2020 8:15:00 AM 4.12 39.416 0.032 6.18 2.05 12.52
12/8/2020 8:30:00 AM 3.81 38.858 0.033 6.28 27.91 12.8
12/8/2020 8:45:00 AM 4.01 39.218 0.032 6.2 23.42 12.68
12/8/2020 9:00:00 AM 3.9 39.02 0.034 6.2 27.57 12.88
12/8/2020 9:15:00 AM 3.78 38.804 0.033 6.28 26.01 12.9
12/8/2020 9:30:00 AM 4 39.2 0.034 6.32 26.41 12.82
12/8/2020 9:45:00 AM 3.94 39.092 0.034 6.32 27.89 12.88
12/8/2020 10:00:00 AM 4.14 39.452 0.032 6.18 26.54 12.7
12/8/2020 10:15:00 AM 4.19 39.542 0.032 6.21 27.75 12.66
12/8/2020 10:30:00 AM 4.06 39.308 0.034 6.31 26.54 12.75
12/8/2020 10:45:00 AM 4.08 39.344 0.034 6.3 25.06 12.69
12/8/2020 11:00:00 AM 4.17 39.506 0.033 6.23 22.96 12.7
12/8/2020 11:15:00 AM 4.26 39.668 0.033 6.18 26.23 12.54
12/8/2020 11:30:00 AM 4.22 39.596 0.033 6.3 26.73 12.76
12/8/2020 11:45:00 AM 4.24 39.632 0.033 6.34 30.11 12.63
12/8/2020 12:00:00 PM 4.57 40.226 0.032 6.15 29.74 12.4
12/8/2020 12:15:00 PM 4.65 40.37 0.032 6.18 25.24 12.41
12/8/2020 12:30:00 PM 4.73 40.514 0.032 6.19 31.47 12.27
12/8/2020 12:45:00 PM 4.53 40.154 0.033 6.29 27.66 12.47
12/8/2020 1:00:00 PM 4.61 40.298 0.033 6.25 32.7 12.41
12/8/2020 1:15:00 PM 4.77 40.586 0.031 6.17 23.32 12.28
12/8/2020 1:30:00 PM 4.58 40.244 0.033 6.27 29.83 12.55
12/8/2020 1:45:00 PM 4.67 40.406 0.033 6.19 31.62 12.42
12/8/2020 2:00:00 PM 4.7 40.46 0.033 6.3 27.61 12.42
12/8/2020 2:15:00 PM 4.77 40.586 0.033 6.29 27.51 12.31
12/8/2020 2:30:00 PM 4.69 40.442 0.033 6.26 25.52 12.46
12/8/2020 2:45:00 PM 4.87 40.766 0.032 6.17 26.23 12.18
12/8/2020 3:00:00 PM 4.76 40.568 0.033 6.23 25.98 12.32
12/8/2020 3:15:00 PM 4.73 40.514 0.034 6.24 23.97 12.35
12/8/2020 3:30:00 PM 4.73 40.514 0.033 6.28 22.7 12.39
12/8/2020 3:45:00 PM 4.75 40.55 0.033 6.29 20.39 12.26
12/8/2020 4:00:00 PM 4.7 40.46 0.034 6.31 24.86 12.32
12/8/2020 4:15:00 PM 4.63 40.334 0.034 6.21 23.03 12.43
12/8/2020 4:30:00 PM 4.61 40.298 0.034 6.31 27.34 12.53
12/8/2020 4:45:00 PM 4.57 40.226 0.034 6.31 26.31 12.56
12/8/2020 5:00:00 PM 4.56 40.208 0.034 6.3 23.56 12.36
12/8/2020 5:15:00 PM 4.73 40.514 0.032 6.16 24.08 12.26
12/8/2020 5:30:00 PM 4.72 40.496 0.032 6.18 8.58 12.22
12/8/2020 5:45:00 PM 4.52 40.136 0.034 6.15 28.46 12.4
12/8/2020 6:00:00 PM 4.66 40.388 0.032 6.17 22.18 12.25
12/8/2020 6:15:00 PM 4.73 40.514 0.032 6.17 21.88 12.22
12/8/2020 6:30:00 PM 4.64 40.352 0.032 6.19 16.15 12.26
12/8/2020 6:45:00 PM 4.44 39.992 0.034 6.22 28.32 12.5
12/8/2020 7:00:00 PM 4.4 39.92 0.034 6.31 26.08 12.57
12/8/2020 7:15:00 PM 4.47 40.046 0.032 6.19 25.37 12.41
12/8/2020 7:30:00 PM 4.5 40.1 0.032 6.18 33.51 12.34
12/8/2020 7:45:00 PM 4.39 39.902 0.034 6.27 24.02 12.53
12/8/2020 8:00:00 PM 4.32 39.776 0.034 6.24 22.22 12.58
12/8/2020 8:15:00 PM 4.29 39.722 0.034 6.25 23.32 12.54
12/8/2020 8:30:00 PM 4.33 39.794 0.034 6.26 24.67 12.48
12/8/2020 8:45:00 PM 4.2 39.56 0.034 6.28 22.05 12.6
12/8/2020 9:00:00 PM 4.28 39.704 0.034 6.25 30.46 12.46
12/8/2020 9:15:00 PM 4.16 39.488 0.034 6.19 23.96 12.57
12/8/2020 9:30:00 PM 4.11 39.398 0.034 6.29 26.9 12.67
12/8/2020 9:45:00 PM 4.11 39.398 0.034 6.27 29.15 12.61
12/8/2020 10:00:00 PM 4.19 39.542 0.034 6.21 26.64 12.59
12/8/2020 10:15:00 PM 4.18 39.524 0.034 6.25 22.27 12.65
12/8/2020 10:30:00 PM 4.21 39.578 0.034 6.2 23.97 12.57
12/8/2020 10:45:00 PM 4.22 39.596 0.033 6.24 23.33 12.49
12/8/2020 11:00:00 PM 4.26 39.668 0.034 6.25 27.73 12.62
12/8/2020 11:15:00 PM 4.12 39.416 0.034 6.21 25.77 12.59
12/8/2020 11:30:00 PM 4.09 39.362 0.034 6.21 28.38 12.64
12/8/2020 11:45:00 PM 4.14 39.452 0.034 6.21 24.49 12.64
12/9/2020 12:00:00 AM 4.13 39.434 0.034 6.21 24.2 12.58
12/9/2020 12:15:00 AM 4.11 39.398 0.034 6.24 23.54 12.59
12/9/2020 12:30:00 AM 4.07 39.326 0.034 6.27 23.4 12.6
12/9/2020 12:45:00 AM 4.05 39.29 0.034 6.24 21.42 12.66
12/9/2020 1:00:00 AM 4.12 39.416 0.034 6.26 21.17 12.58
12/9/2020 1:15:00 AM 4.12 39.416 0.034 6.29 26.33 12.56
12/9/2020 1:30:00 AM 4.3 39.74 0.032 6.21 29.65 12.39
12/9/2020 1:45:00 AM 4.1 39.38 0.034 6.24 25.01 12.54
12/9/2020 2:00:00 AM 4.14 39.452 0.034 6.14 24.75 12.49
12/9/2020 2:15:00 AM 4.15 39.47 0.034 6.18 27.96 12.54
12/9/2020 2:30:00 AM 4.13 39.434 0.034 6.24 25.92 12.54
12/9/2020 2:45:00 AM 4.25 39.65 0.034 6.21 25.82 12.53
12/9/2020 3:00:00 AM 4.14 39.452 0.034 6.19 30.04 12.52
12/9/2020 3:15:00 AM 4.1 39.38 0.034 6.21 29.65 12.67
12/9/2020 3:30:00 AM 4.16 39.488 0.034 6.22 24.54 12.56
12/9/2020 3:45:00 AM 4.16 39.488 0.034 6.21 25.1 12.51
12/9/2020 4:00:00 AM 4.2 39.56 0.034 6.19 24.85 12.52
12/9/2020 4:15:00 AM 4.25 39.65 0.034 6.2 25.65 12.39
12/9/2020 4:30:00 AM 4.29 39.722 0.034 6.2 25.93 12.41
12/9/2020 4:45:00 AM 4.23 39.614 0.034 6.21 25.18 12.52
12/9/2020 5:00:00 AM 4.37 39.866 0.034 6.16 22.73 12.37
12/9/2020 5:15:00 AM 4.18 39.524 0.034 6.21 27.67 12.52
12/9/2020 5:30:00 AM 4.24 39.632 0.034 6.17 23.33 12.49
12/9/2020 5:45:00 AM 4.25 39.65 0.034 6.27 22.48 12.56
12/9/2020 6:00:00 AM 4.31 39.758 0.034 6.25 25.68 12.41
12/9/2020 6:15:00 AM 4.28 39.704 0.034 6.21 27.34 12.4
12/9/2020 6:30:00 AM 4.38 39.884 0.034 6.28 27.46 12.38
12/9/2020 6:45:00 AM 4.31 39.758 0.034 6.24 24.44 12.35
12/9/2020 7:00:00 AM 4.41 39.938 0.034 6.16 22.08 12.33
12/9/2020 7:15:00 AM 4.34 39.812 0.034 6.2 23.17 12.42
12/9/2020 7:30:00 AM 4.4 39.92 0.034 6.26 23.82 12.26
12/9/2020 7:45:00 AM 4.38 39.884 0.034 6.26 31.99 12.34
12/9/2020 8:00:00 AM 4.35 39.83 0.034 6.27 31.12 12.36
12/9/2020 8:15:00 AM 4.43 39.974 0.034 6.23 25.97 12.34
12/9/2020 8:30:00 AM 4.38 39.884 0.034 6.19 29.94 12.35
12/9/2020 8:45:00 AM 4.54 40.172 0.032 6.16 26.9 12.27
12/9/2020 9:00:00 AM 4.63 40.334 0.032 6.13 25.22 12.22
12/9/2020 9:15:00 AM 4.39 39.902 0.034 6.21 27.93 12.35
12/9/2020 9:30:00 AM 4.36 39.848 0.034 6.27 25.68 12.51
12/9/2020 9:45:00 AM 4.48 40.064 0.032 6.16 25.98 12.4
12/9/2020 10:00:00 AM 4.31 39.758 0.034 6.24 23.38 12.51
12/9/2020 10:15:00 AM 4.38 39.884 0.034 6.17 26.94 12.52
12/9/2020 10:30:00 AM 4.33 39.794 0.033 6.31 21.05 12.51
12/9/2020 10:45:00 AM 4.44 39.992 0.033 6.19 28.94 12.45
12/9/2020 11:00:00 AM 4.37 39.866 0.033 6.27 23.34 12.57
12/9/2020 11:15:00 AM 4.38 39.884 0.033 6.29 24.27 12.6
12/9/2020 11:30:00 AM 4.39 39.902 0.033 6.28 23.89 12.63
12/9/2020 11:45:00 AM 4.43 39.974 0.033 6.28 25.35 12.6
12/9/2020 12:00:00 PM 4.43 39.974 0.033 6.28 26.28 12.53
12/9/2020 12:15:00 PM 4.39 39.902 0.033 6.25 26.94 12.58
12/9/2020 12:30:00 PM 4.69 40.442 0.032 6.19 30.32 12.35
12/9/2020 12:45:00 PM 4.55 40.19 0.033 6.3 27.62 12.46
12/9/2020 1:00:00 PM 4.6 40.28 0.033 6.28 31.42 12.49
12/9/2020 1:15:00 PM 4.59 40.262 0.034 6.27 29.42 12.44
12/9/2020 1:30:00 PM 4.73 40.514 0.031 6.16 25.51 12.32
12/9/2020 1:45:00 PM 4.81 40.658 0.032 6.19 25.94 12.3
12/9/2020 2:00:00 PM 4.59 40.262 0.033 6.3 24.67 12.43
12/9/2020 2:15:00 PM 4.64 40.352 0.033 6.1 26.58 12.43
12/9/2020 2:30:00 PM 4.63 40.334 0.033 6.2 23.92 12.39
12/9/2020 2:45:00 PM 4.66 40.388 0.033 6.28 24.74 12.41
12/9/2020 3:00:00 PM 4.63 40.334 0.033 6.27 29.65 12.38
12/9/2020 3:15:00 PM 4.81 40.658 0.032 6.21 8.95 12.33
12/9/2020 3:30:00 PM 4.9 40.82 0.032 6.16 2.92 12.25
12/9/2020 3:45:00 PM 4.64 40.352 0.033 6.23 26.22 12.48
12/9/2020 4:00:00 PM 4.69 40.442 0.034 6.21 25.4 12.43
12/9/2020 4:15:00 PM 4.71 40.478 0.034 6.2 25.79 12.41
12/9/2020 4:30:00 PM 4.83 40.694 0.032 6.13 23.12 12.3
12/9/2020 4:45:00 PM 4.74 40.532 0.034 6.25 27.22 12.32
12/9/2020 5:00:00 PM 4.75 40.55 0.034 6.27 33.21 12.37
12/9/2020 5:15:00 PM 4.78 40.604 0.034 6.25 25.14 12.24
12/9/2020 5:30:00 PM 4.81 40.658 0.034 6.16 29.1 12.28
12/9/2020 5:45:00 PM 4.79 40.622 0.034 6.16 27.48 12.27
12/9/2020 6:00:00 PM 4.77 40.586 0.034 6.23 27.01 12.28
12/9/2020 6:15:00 PM 4.8 40.64 0.034 6.19 22.28 12.3
12/9/2020 6:30:00 PM 4.98 40.964 0.032 6.13 25.03 12.21
12/9/2020 6:45:00 PM 4.74 40.532 0.033 6.23 25.75 12.25
12/9/2020 7:00:00 PM 4.95 40.91 0.032 6.13 25.46 12.24
12/9/2020 7:15:00 PM 4.71 40.478 0.033 6.28 28.78 12.36
12/9/2020 7:30:00 PM 4.75 40.55 0.033 6.16 27.94 12.3
12/9/2020 7:45:00 PM 4.78 40.604 0.033 6.25 27.09 12.32
12/9/2020 8:00:00 PM 4.74 40.532 0.033 6.24 30.21 12.34
12/9/2020 8:15:00 PM 4.75 40.55 0.033 6.26 25.58 12.33
12/9/2020 8:30:00 PM 4.74 40.532 0.033 6.19 28.21 12.34
12/9/2020 8:45:00 PM 4.81 40.658 0.033 6.21 27.24 12.3
12/9/2020 9:00:00 PM 4.77 40.586 0.033 6.2 23.78 12.36
12/9/2020 9:15:00 PM 5.02 41.036 0.032 6.19 3.54 12.19
12/9/2020 9:30:00 PM 4.8 40.64 0.033 6.21 24.67 12.32
12/9/2020 9:45:00 PM 4.94 40.892 0.032 6.17 24.58 12.32
12/9/2020 10:00:00 PM 4.74 40.532 0.033 6.25 27.76 12.35
12/9/2020 10:15:00 PM 4.92 40.856 0.032 6.16 27.05 12.37
12/9/2020 10:30:00 PM 4.81 40.658 0.033 6.15 25.48 12.3
12/9/2020 10:45:00 PM 4.75 40.55 0.033 6.2 27.36 12.36
12/9/2020 11:00:00 PM 4.84 40.712 0.033 6.19 28.35 12.3
12/9/2020 11:15:00 PM 4.74 40.532 0.033 6.15 26.96 12.36
12/9/2020 11:30:00 PM 4.83 40.694 0.033 6.28 28.91 12.28
12/9/2020 11:45:00 PM 4.8 40.64 0.034 6.29 30.75 12.38
12/10/2020 12:00:00 AM 4.79 40.622 0.033 6.24 29.57 12.33
12/10/2020 12:15:00 AM 4.81 40.658 0.033 6.21 28.6 12.31
12/10/2020 12:30:00 AM 4.8 40.64 0.033 6.2 23.01 12.35
12/10/2020 12:45:00 AM 4.8 40.64 0.033 6.16 24.41 12.36
12/10/2020 1:00:00 AM 4.75 40.55 0.033 6.22 28.2 12.35
12/10/2020 1:15:00 AM 4.77 40.586 0.033 6.2 28.64 12.35
12/10/2020 1:30:00 AM 4.98 40.964 0.032 6.18 25.22 12.26
12/10/2020 1:45:00 AM 4.76 40.568 0.033 6.21 25.32 12.32
12/10/2020 2:00:00 AM 4.96 40.928 0.032 6.16 25.84 12.3
12/10/2020 2:15:00 AM 5.02 41.036 0.032 6.15 27.87 12.14
12/10/2020 2:30:00 AM 4.77 40.586 0.033 6.26 30.57 12.34
12/10/2020 2:45:00 AM 4.96 40.928 0.032 6.15 27.06 12.23
12/10/2020 3:00:00 AM 4.87 40.766 0.033 6.13 22.34 12.15
12/10/2020 3:15:00 AM 4.75 40.55 0.033 6.19 23.07 12.27
12/10/2020 3:30:00 AM 4.82 40.676 0.033 6.19 23.25 12.25
12/10/2020 3:45:00 AM 4.88 40.784 0.032 6.13 23.9 12.28
12/10/2020 4:00:00 AM 4.96 40.928 0.032 6.13 23.66 12.21
12/10/2020 4:15:00 AM 4.84 40.712 0.033 6.1 27.53 12.17
12/10/2020 4:30:00 AM 4.8 40.64 0.033 6.12 25.98 12.24
12/10/2020 4:45:00 AM 4.77 40.586 0.033 6.05 24.89 12.22
12/10/2020 5:00:00 AM 4.83 40.694 0.033 6.12 25.86 12.15
12/10/2020 5:15:00 AM 4.79 40.622 0.033 6.25 28.04 12.31
12/10/2020 5:30:00 AM 4.91 40.838 0.032 6.12 24.2 12.28
12/10/2020 5:45:00 AM 4.74 40.532 0.033 6.21 25.12 12.33
12/10/2020 6:00:00 AM 4.74 40.532 0.033 6.22 26.76 12.3
12/10/2020 6:15:00 AM 4.77 40.586 0.033 6.17 23.8 12.32
12/10/2020 6:30:00 AM 4.77 40.586 0.033 6.25 25.15 12.31
12/10/2020 6:45:00 AM 4.95 40.91 0.032 6.18 28.56 12.18
12/10/2020 7:00:00 AM 4.84 40.712 0.033 6.17 23.99 12.25
12/10/2020 7:15:00 AM 4.79 40.622 0.033 6.21 24.66 12.22
12/10/2020 7:30:00 AM 4.83 40.694 0.033 6.2 24.44 12.17
12/10/2020 7:45:00 AM 4.81 40.658 0.033 6.22 28.91 12.22
12/10/2020 8:00:00 AM 4.81 40.658 0.033 6.12 27.56 12.24
12/10/2020 8:15:00 AM 5.01 41.018 0.032 6.09 25.35 12.23
12/10/2020 8:30:00 AM 4.94 40.892 0.034 6.21 25.36 12.14
12/10/2020 8:45:00 AM 4.96 40.928 0.033 6.12 27.93 12.09
12/10/2020 9:00:00 AM 4.91 40.838 0.033 6.2 32.54 12.25
12/10/2020 9:15:00 AM 4.92 40.856 0.033 6.28 25.81 12.37
12/10/2020 9:30:00 AM 5.06 41.108 0.032 6.17 30.96 12.33
12/10/2020 9:45:00 AM 5.18 41.324 0.032 6.18 7.53 12.29
12/10/2020 10:00:00 AM 5.12 41.216 0.033 6.21 30.8 12.24
12/10/2020 10:15:00 AM 5.13 41.234 0.033 6.19 28.82 12.32
12/10/2020 10:30:00 AM 5.33 41.594 0.032 6.14 29.74 12.25
12/10/2020 10:45:00 AM 5.36 41.648 0.032 6.16 25.53 12.24
12/10/2020 11:00:00 AM 5.22 41.396 0.033 6.31 31.51 12.39
12/10/2020 11:15:00 AM 5.29 41.522 0.033 6.25 26.42 12.35
12/10/2020 11:30:00 AM 5.35 41.63 0.033 6.37 32 12.41
12/10/2020 11:45:00 AM 5.63 42.134 0.032 6.17 27.21 12.18
12/10/2020 12:00:00 PM 5.5 41.9 0.033 6.2 23.57 12.18
12/10/2020 12:15:00 PM 5.57 42.026 0.033 6.16 30.93 12.23
12/10/2020 12:30:00 PM 5.69 42.242 0.033 6.15 25 11.93
12/10/2020 12:45:00 PM 5.78 42.404 0.032 6.18 25.51 11.96
12/10/2020 1:00:00 PM 5.69 42.242 0.033 6.18 26.61 12.06
12/10/2020 1:15:00 PM 5.9 42.62 0.031 6.16 25.67 11.87
12/10/2020 1:30:00 PM 5.78 42.404 0.033 6.25 25.48 12.09
12/10/2020 1:45:00 PM 5.92 42.656 0.032 6.18 23.97 11.98
12/10/2020 2:00:00 PM 5.88 42.584 0.031 6.13 24.12 11.92
12/10/2020 2:15:00 PM 5.83 42.494 0.033 6.18 24.82 12.12
12/10/2020 2:30:00 PM 5.83 42.494 0.033 6.1 29.05 12.03
12/10/2020 2:45:00 PM 5.92 42.656 0.032 6.15 26.57 11.87
12/10/2020 3:00:00 PM 6.03 42.854 0.032 6.12 27.4 12
12/10/2020 3:15:00 PM 5.85 42.53 0.033 6.15 31.6 12.05
12/10/2020 3:30:00 PM 5.95 42.71 0.032 6.1 23.57 11.84
12/10/2020 3:45:00 PM 5.83 42.494 0.034 6.09 25.47 12
12/10/2020 4:00:00 PM 5.72 42.296 0.033 6.19 25.33 12.06
12/10/2020 4:15:00 PM 5.76 42.368 0.034 6.18 21.74 11.99
12/10/2020 4:30:00 PM 5.82 42.476 0.034 6.17 25.42 11.9
12/10/2020 4:45:00 PM 5.85 42.53 0.032 6.1 24.31 11.88
12/10/2020 5:00:00 PM 5.91 42.638 0.032 6.12 23.7 11.78
12/10/2020 5:15:00 PM 5.67 42.206 0.034 6.17 22.87 12
12/10/2020 5:30:00 PM 5.74 42.332 0.032 6.15 23.19 11.95
12/10/2020 5:45:00 PM 5.59 42.062 0.034 6.14 22.6 11.98
12/10/2020 6:00:00 PM 5.64 42.152 0.032 6.11 25.76 11.92
12/10/2020 6:15:00 PM 5.53 41.954 0.034 6.09 27.94 12.04
12/10/2020 6:30:00 PM 5.52 41.936 0.034 6.13 25.73 12.03
12/10/2020 6:45:00 PM 5.37 41.666 0.034 6.14 25.7 12.06
12/10/2020 7:00:00 PM 5.55 41.99 0.032 6.11 24.36 11.89
12/10/2020 7:15:00 PM 5.57 42.026 0.032 6.15 14.52 11.84
12/10/2020 7:30:00 PM 5.31 41.558 0.034 6.15 23.52 12.09
12/10/2020 7:45:00 PM 5.26 41.468 0.034 6.15 28.82 12.14
12/10/2020 8:00:00 PM 5.26 41.468 0.034 6.14 22.09 12.06
12/10/2020 8:15:00 PM 5.28 41.504 0.032 6.14 25.34 12.07
12/10/2020 8:30:00 PM 5.14 41.252 0.034 6.15 26.73 12.1
12/10/2020 8:45:00 PM 5.15 41.27 0.034 6.09 24.99 12.19
12/10/2020 9:00:00 PM 5.27 41.486 0.032 6.17 26.02 12.03
12/10/2020 9:15:00 PM 5.04 41.072 0.034 6.16 24.91 12.18
12/10/2020 9:30:00 PM 5.19 41.342 0.032 6.13 27.52 12.06
12/10/2020 9:45:00 PM 5.05 41.09 0.034 6.02 27.48 12.16
12/10/2020 10:00:00 PM 5 41 0.034 6.17 26.38 12.23
12/10/2020 10:15:00 PM 5 41 0.032 6.14 23.69 12.18
12/10/2020 10:30:00 PM 4.92 40.856 0.034 6.2 27.27 12.16
12/10/2020 10:45:00 PM 4.92 40.856 0.034 6.15 26.88 12.23
12/10/2020 11:00:00 PM 4.86 40.748 0.034 6.17 24.74 12.27
12/10/2020 11:15:00 PM 4.8 40.64 0.034 6.21 29.03 12.32
12/10/2020 11:30:00 PM 4.84 40.712 0.034 6.23 30.36 12.17
12/10/2020 11:45:00 PM 4.8 40.64 0.034 6.19 33.38 12.29
12/11/2020 12:00:00 AM 4.93 40.874 0.032 6.14 25.53 12.16
12/11/2020 12:15:00 AM 5.01 41.018 0.032 6.12 26.84 12.07
12/11/2020 12:30:00 AM 5.01 41.018 0.032 6.15 25.6 12.13
12/11/2020 12:45:00 AM 4.65 40.37 0.034 6.18 24.11 12.33
12/11/2020 1:00:00 AM 4.71 40.478 0.034 6.14 24.9 12.27
12/11/2020 1:15:00 AM 4.86 40.748 0.032 6.16 26.77 12.16
12/11/2020 1:30:00 AM 4.79 40.622 0.032 6.14 8.09 12.25
12/11/2020 1:45:00 AM 4.9 40.82 0.032 6.11 12.22 12.16
12/11/2020 2:00:00 AM 4.82 40.676 0.032 6.12 8.46 12.21
12/11/2020 2:15:00 AM 4.85 40.73 0.032 6.13 12.97 12.15
12/11/2020 2:30:00 AM 4.84 40.712 0.032 6.12 19.17 12.14
12/11/2020 2:45:00 AM 4.67 40.406 0.032 6.12 28.86 12.24
12/11/2020 3:00:00 AM 4.6 40.28 0.032 6.21 10.82 12.34
12/11/2020 3:15:00 AM 4.55 40.19 0.034 6.24 29.36 12.35
12/11/2020 3:30:00 AM 4.52 40.136 0.034 6.26 27.96 12.43
12/11/2020 3:45:00 AM 4.54 40.172 0.032 6.17 22 12.38
12/11/2020 4:00:00 AM 4.53 40.154 0.034 6.23 26.7 12.44
12/11/2020 4:15:00 AM 4.47 40.046 0.032 6.15 22.7 12.41
12/11/2020 4:30:00 AM 4.52 40.136 0.034 6.16 22.64 12.31
12/11/2020 4:45:00 AM 4.44 39.992 0.034 6 26.59 12.35
12/11/2020 5:00:00 AM 4.45 40.01 0.034 6.17 25.52 12.4
12/11/2020 5:15:00 AM 4.44 39.992 0.034 6.19 26.25 12.38
12/11/2020 5:30:00 AM 4.4 39.92 0.034 6.15 25.74 12.35
12/11/2020 5:45:00 AM 4.46 40.028 0.034 6.08 21.76 12.32
12/11/2020 6:00:00 AM 4.54 40.172 0.034 5.98 23.98 12.25
12/11/2020 6:15:00 AM 4.54 40.172 0.034 6.05 24.73 12.28
12/11/2020 6:30:00 AM 4.43 39.974 0.034 6.11 24.91 12.38
12/11/2020 6:45:00 AM 4.37 39.866 0.034 5.96 30.57 12.32
12/11/2020 7:00:00 AM 4.38 39.884 0.034 6 24.88 12.32
12/11/2020 7:15:00 AM 4.55 40.19 0.034 6.09 29.37 12.23
12/11/2020 7:30:00 AM 4.46 40.028 0.034 6.06 28.53 12.28
12/11/2020 7:45:00 AM 4.43 39.974 0.034 5.9 25.01 12.35
12/11/2020 8:00:00 AM 4.38 39.884 0.034 5.95 22.94 12.34
12/11/2020 8:15:00 AM 4.38 39.884 0.034 6.06 32.95 12.44
12/11/2020 8:30:00 AM 4.47 40.046 0.034 6.06 24.47 12.4
12/11/2020 8:45:00 AM 4.36 39.848 0.034 6.02 24.09 12.49
12/11/2020 9:00:00 AM 4.4 39.92 0.034 6.12 24.79 12.49
12/11/2020 9:15:00 AM 4.42 39.956 0.034 6 27.4 12.49
12/11/2020 9:30:00 AM 4.5 40.1 0.034 6.02 25.19 12.44
12/11/2020 9:45:00 AM 4.52 40.136 0.034 6.13 24.23 12.49
12/11/2020 10:00:00 AM 4.6 40.28 0.034 6.12 25.57 12.51
12/11/2020 10:15:00 AM 4.78 40.604 0.032 6.09 23.41 12.3
12/11/2020 10:30:00 AM 4.83 40.694 0.034 5.91 26.55 12.42
12/11/2020 10:45:00 AM 4.92 40.856 0.034 5.91 26.53 12.37
12/11/2020 11:00:00 AM 4.98 40.964 0.034 6.1 21.82 12.4
12/11/2020 11:15:00 AM 5.02 41.036 0.034 5.94 32.84 12.47
12/11/2020 11:30:00 AM 5.22 41.396 0.032 6.05 27.14 12.31
12/11/2020 11:45:00 AM 5.07 41.126 0.033 6.08 22.54 12.45
12/11/2020 12:00:00 PM 5.21 41.378 0.034 5.92 24.31 12.39
12/11/2020 12:15:00 PM 5.22 41.396 0.033 6.11 20.24 12.42
12/11/2020 12:30:00 PM 5.39 41.702 0.033 5.99 26.81 12.4
12/11/2020 12:45:00 PM 5.47 41.846 0.033 6.12 24.57 12.25
12/11/2020 1:00:00 PM 5.63 42.134 0.034 6.13 26.06 12.17
12/11/2020 1:15:00 PM 5.63 42.134 0.034 5.98 24.4 12.12
12/11/2020 1:30:00 PM 5.64 42.152 0.033 5.95 25.02 12.12
12/11/2020 1:45:00 PM 5.78 42.404 0.034 6.04 28.87 12.1
12/11/2020 2:00:00 PM 5.81 42.458 0.034 5.91 26.3 12.06
12/11/2020 2:15:00 PM 5.97 42.746 0.032 6.09 34.9 11.99
12/11/2020 2:30:00 PM 5.94 42.692 0.032 6.05 27.29 11.95
12/11/2020 2:45:00 PM 5.93 42.674 0.034 6.12 25.82 12
12/11/2020 3:00:00 PM 6 42.8 0.034 6.16 26.22 11.97
12/11/2020 3:15:00 PM 6.01 42.818 0.034 6.16 22.43 11.91
12/11/2020 3:30:00 PM 5.95 42.71 0.034 6.15 29.25 11.97
12/11/2020 3:45:00 PM 5.99 42.782 0.034 6.13 25.73 11.89
12/11/2020 4:00:00 PM 6.03 42.854 0.032 6.12 25.3 11.94
12/11/2020 4:15:00 PM 5.91 42.638 0.034 6.19 26.2 11.95
12/11/2020 4:30:00 PM 5.97 42.746 0.032 6.13 33 11.9
12/11/2020 4:45:00 PM 6.03 42.854 0.032 6.09 15.61 11.75
12/11/2020 5:00:00 PM 6 42.8 0.032 6.12 25.17 11.84
12/11/2020 5:15:00 PM 5.96 42.728 0.032 6.1 20.12 11.79
12/11/2020 5:30:00 PM 5.93 42.674 0.032 6.14 11.06 11.86
12/11/2020 5:45:00 PM 5.96 42.728 0.034 6.11 30.94 11.87
12/11/2020 6:00:00 PM 5.82 42.476 0.034 6.11 29.16 11.97
12/11/2020 6:15:00 PM 5.86 42.548 0.034 6.14 25.8 11.83
12/11/2020 6:30:00 PM 5.91 42.638 0.032 6.07 25.14 11.74
12/11/2020 6:45:00 PM 5.8 42.44 0.034 6.1 23.13 11.84
12/11/2020 7:00:00 PM 5.74 42.332 0.034 6.19 24.3 11.99
12/11/2020 7:15:00 PM 5.74 42.332 0.034 6.21 28.46 11.95
12/11/2020 7:30:00 PM 5.71 42.278 0.034 6.23 35.62 11.95
12/11/2020 7:45:00 PM 5.56 42.008 0.034 6.23 28.04 12.1
12/11/2020 8:00:00 PM 5.61 42.098 0.032 6.16 27.4 12.03
12/11/2020 8:15:00 PM 5.62 42.116 0.034 6.2 25.37 12.01
12/11/2020 8:30:00 PM 5.65 42.17 0.032 6.15 26.28 11.95
12/11/2020 8:45:00 PM 5.64 42.152 0.032 6.18 4.5 11.97
12/11/2020 9:00:00 PM 5.53 41.954 0.034 6.2 28.88 12.01
12/11/2020 9:15:00 PM 5.49 41.882 0.034 6.2 28.44 12.07
12/11/2020 9:30:00 PM 5.53 41.954 0.032 6.15 3.76 12.04
12/11/2020 9:45:00 PM 5.47 41.846 0.034 6.14 28.19 12.08
12/11/2020 10:00:00 PM 5.38 41.684 0.034 6.13 22.06 12.11
12/11/2020 10:15:00 PM 5.49 41.882 0.035 6.21 24.13 12.06
12/11/2020 10:30:00 PM 5.32 41.576 0.034 6.11 26.41 12.12
12/11/2020 10:45:00 PM 5.38 41.684 0.032 6.13 3 12.12
12/11/2020 11:00:00 PM 5.37 41.666 0.034 6.14 28.64 12.12
12/11/2020 11:15:00 PM 5.35 41.63 0.034 6.14 25.41 12.13
12/11/2020 11:30:00 PM 5.32 41.576 0.034 6.13 25.56 12.09
12/11/2020 11:45:00 PM 5.32 41.576 0.034 6.19 30 12.12
12/12/2020 12:00:00 AM 5.39 41.702 0.032 6.1 29.83 12.02
12/12/2020 12:15:00 AM 5.38 41.684 0.034 6.13 31.57 12.07
12/12/2020 12:30:00 AM 5.39 41.702 0.032 6.12 24.66 12.06
12/12/2020 12:45:00 AM 5.35 41.63 0.034 6.16 24.97 12.03
12/12/2020 1:00:00 AM 5.34 41.612 0.032 6.12 26.19 12.09
12/12/2020 1:15:00 AM 5.23 41.414 0.034 6.18 26.78 12.08
12/12/2020 1:30:00 AM 5.21 41.378 0.034 6.23 24.61 12.18
12/12/2020 1:45:00 AM 5.2 41.36 0.034 6.22 32.5 12.13
12/12/2020 2:00:00 AM 5.2 41.36 0.034 6.23 29.04 12.08
12/12/2020 2:15:00 AM 5.23 41.414 0.032 6.15 25.67 12.09
12/12/2020 2:30:00 AM 5.24 41.432 0.034 6.2 24.44 12.02
12/12/2020 2:45:00 AM 5.21 41.378 0.032 6.12 27.87 12.05
12/12/2020 3:00:00 AM 5.27 41.486 0.032 6.13 6.77 12.03
12/12/2020 3:15:00 AM 5.17 41.306 0.034 6.24 29.83 12.07
12/12/2020 3:30:00 AM 5.24 41.432 0.032 6.14 30.99 12.02
12/12/2020 3:45:00 AM 5.1 41.18 0.034 6.24 28.14 12.15
12/12/2020 4:00:00 AM 5.15 41.27 0.034 6.21 25.05 12.11
12/12/2020 4:15:00 AM 5.13 41.234 0.034 6.22 24.83 12.09
12/12/2020 4:30:00 AM 5.21 41.378 0.032 6.15 26.12 12.09
12/12/2020 4:45:00 AM 5.17 41.306 0.034 6.2 26.99 12.05
12/12/2020 5:00:00 AM 5.15 41.27 0.034 6.18 29.2 11.94
12/12/2020 5:15:00 AM 5.08 41.144 0.034 6.24 27.71 12.1
12/12/2020 5:30:00 AM 5.13 41.234 0.034 6.21 27.84 11.97
12/12/2020 5:45:00 AM 5.06 41.108 0.034 6.22 29.96 12.1
12/12/2020 6:00:00 AM 5.08 41.144 0.034 6.21 25.25 12.02
12/12/2020 6:15:00 AM 5.16 41.288 0.034 6.18 25.19 12.03
12/12/2020 6:30:00 AM 5.18 41.324 0.032 6.18 25.5 12.1
12/12/2020 6:45:00 AM 5.18 41.324 0.034 6.23 26.11 12
12/12/2020 7:00:00 AM 5.06 41.108 0.034 6.21 30.11 12.15
12/12/2020 7:15:00 AM 5.26 41.468 0.033 6.11 26.44 12.07
12/12/2020 7:30:00 AM 5.15 41.27 0.034 6.16 22.3 12.1
12/12/2020 7:45:00 AM 5.15 41.27 0.034 6.22 23.17 12.14
12/12/2020 8:00:00 AM 5.15 41.27 0.034 6.23 25.86 12.13
12/12/2020 8:15:00 AM 5.26 41.468 0.033 6.14 23.38 12.07
12/12/2020 8:30:00 AM 5.32 41.576 0.032 6.14 25.11 12.03
12/12/2020 8:45:00 AM 5.2 41.36 0.034 6.23 28.07 12.2
12/12/2020 9:00:00 AM 5.32 41.576 0.032 6.14 24.25 12.09
12/12/2020 9:15:00 AM 5.26 41.468 0.034 6.21 22.51 12.1
12/12/2020 9:30:00 AM 5.37 41.666 0.034 6.21 33.06 12.08
12/12/2020 9:45:00 AM 5.48 41.864 0.032 6.15 22.71 12.04
12/12/2020 10:00:00 AM 5.3 41.54 0.033 6.2 24.88 12.05
12/12/2020 10:15:00 AM 5.23 41.414 0.033 6.17 26.28 12.28
12/12/2020 10:30:00 AM 5.16 41.288 0.033 6.22 21.89 12.3
12/12/2020 10:45:00 AM 5.2 41.36 0.033 6.21 25.83 12.42
12/12/2020 11:00:00 AM 5.26 41.468 0.033 6.17 21.88 12.3
12/12/2020 11:15:00 AM 5.68 42.224 0.032 6.13 14.33 12.21
12/12/2020 11:30:00 AM 5.81 42.458 0.032 6.14 3.19 12.06
12/12/2020 11:45:00 AM 5.9 42.62 0.032 6.11 12.7 12.06
12/12/2020 12:00:00 PM 5.96 42.728 0.032 6.14 10.68 12.15
12/12/2020 12:15:00 PM 5.9 42.62 0.033 6.1 31.26 12.09
12/12/2020 12:30:00 PM 6.21 43.178 0.034 6.22 32.72 12.05
12/12/2020 12:45:00 PM 6.3 43.34 0.032 6.11 23.42 11.76
12/12/2020 1:00:00 PM 6.3 43.34 0.034 6.2 23.89 11.78
12/12/2020 1:15:00 PM 6.25 43.25 0.033 6.16 23.71 11.8
12/12/2020 1:30:00 PM 6.38 43.484 0.034 6.18 27.53 11.68
12/12/2020 1:45:00 PM 6.49 43.682 0.032 6.11 24.08 11.71
12/12/2020 2:00:00 PM 6.55 43.79 0.034 6.13 25.84 11.56
12/12/2020 2:15:00 PM 6.57 43.826 0.032 6.11 25.46 11.68
12/12/2020 2:30:00 PM 6.52 43.736 0.034 6.21 26.1 11.67
12/12/2020 2:45:00 PM 6.58 43.844 0.034 6.2 26.79 11.64
12/12/2020 3:00:00 PM 6.66 43.988 0.032 6.11 30.59 11.54
12/12/2020 3:15:00 PM 6.67 44.006 0.032 6.11 3.08 11.54
12/12/2020 3:30:00 PM 6.64 43.952 0.034 6.12 26.66 11.52
12/12/2020 3:45:00 PM 6.58 43.844 0.033 6.18 25.97 11.61
12/12/2020 4:00:00 PM 6.74 44.132 0.032 6.09 24.99 11.5
12/12/2020 4:15:00 PM 6.63 43.934 0.034 6.19 25.83 11.55
12/12/2020 4:30:00 PM 6.67 44.006 0.034 6.17 23.65 11.51
12/12/2020 4:45:00 PM 6.71 44.078 0.032 6.13 22.8 11.46
12/12/2020 5:00:00 PM 6.75 44.15 0.032 6.11 26.68 11.44
12/12/2020 5:15:00 PM 6.67 44.006 0.034 6.18 23.79 11.55
12/12/2020 5:30:00 PM 6.72 44.096 0.034 6.21 25.18 11.56
12/12/2020 5:45:00 PM 6.74 44.132 0.032 6.19 30.82 11.6
12/12/2020 6:00:00 PM 6.73 44.114 0.032 6.17 29.62 11.62
12/12/2020 6:15:00 PM 6.67 44.006 0.034 6.17 27.37 11.62
12/12/2020 6:30:00 PM 6.74 44.132 0.033 6.18 28.28 11.61
12/12/2020 6:45:00 PM 6.67 44.006 0.034 6.22 21.98 11.7
12/12/2020 7:00:00 PM 6.67 44.006 0.034 6.21 30.63 11.61
12/12/2020 7:15:00 PM 6.74 44.132 0.032 6.16 28.89 11.61
12/12/2020 7:30:00 PM 6.67 44.006 0.032 6.14 31.74 11.64
12/12/2020 7:45:00 PM 6.7 44.06 0.032 6.18 23.14 11.61
12/12/2020 8:00:00 PM 6.72 44.096 0.032 6.1 18.64 11.59
12/12/2020 8:15:00 PM 6.71 44.078 0.032 6.1 16.75 11.45
12/12/2020 8:30:00 PM 6.58 43.844 0.034 6.17 25.52 11.57
12/12/2020 8:45:00 PM 6.7 44.06 0.032 6.14 28.73 11.51
12/12/2020 9:00:00 PM 6.67 44.006 0.033 6.13 27.04 11.51
12/12/2020 9:15:00 PM 6.6 43.88 0.034 6.21 26.37 11.57
12/12/2020 9:30:00 PM 6.67 44.006 0.032 6.13 28.9 11.54
12/12/2020 9:45:00 PM 6.6 43.88 0.034 6.18 24.86 11.6
12/12/2020 10:00:00 PM 6.67 44.006 0.032 6.14 23.63 11.53
12/12/2020 10:15:00 PM 6.64 43.952 0.032 6.14 32.75 11.6
12/12/2020 10:30:00 PM 6.62 43.916 0.032 6.13 21.3 11.64
12/12/2020 10:45:00 PM 6.52 43.736 0.034 6.14 32.48 11.69
12/12/2020 11:00:00 PM 6.57 43.826 0.032 6.16 26.25 11.65
12/12/2020 11:15:00 PM 6.59 43.862 0.032 6.14 27.99 11.62
12/12/2020 11:30:00 PM 6.6 43.88 0.034 6.15 23.96 11.55
12/12/2020 11:45:00 PM 6.55 43.79 0.034 6.21 27.38 11.6
12/13/2020 12:00:00 AM 6.49 43.682 0.034 6.17 27.68 11.68
12/13/2020 12:15:00 AM 6.48 43.664 0.034 6.19 27.85 11.62
12/13/2020 12:30:00 AM 6.5 43.7 0.034 6.21 24.99 11.7
12/13/2020 12:45:00 AM 6.57 43.826 0.034 6.21 27.34 11.63
12/13/2020 1:00:00 AM 6.62 43.916 0.032 6.1 29.49 11.51
12/13/2020 1:15:00 AM 6.61 43.898 0.032 6.13 29.58 11.56
12/13/2020 1:30:00 AM 6.57 43.826 0.034 6.19 31.28 11.59
12/13/2020 1:45:00 AM 6.5 43.7 0.034 6.17 33.58 11.67
12/13/2020 2:00:00 AM 6.54 43.772 0.032 6.13 30.33 11.59
12/13/2020 2:15:00 AM 6.52 43.736 0.034 6.13 27.34 11.49
12/13/2020 2:30:00 AM 6.55 43.79 0.032 6.11 26.29 11.48
12/13/2020 2:45:00 AM 6.57 43.826 0.032 6.12 31.97 11.51
12/13/2020 3:00:00 AM 6.53 43.754 0.034 6.2 27.96 11.53
12/13/2020 3:15:00 AM 6.54 43.772 0.032 6.12 30.46 11.55
12/13/2020 3:30:00 AM 6.49 43.682 0.034 6.2 25.99 11.55
12/13/2020 3:45:00 AM 6.48 43.664 0.034 6.16 28.04 11.66
12/13/2020 4:00:00 AM 6.44 43.592 0.034 6.17 22.89 11.52
12/13/2020 4:15:00 AM 6.54 43.772 0.032 6.1 32.59 11.51
12/13/2020 4:30:00 AM 6.37 43.466 0.034 6.18 25.59 11.73
12/13/2020 4:45:00 AM 6.49 43.682 0.032 6.1 28.84 11.57
12/13/2020 5:00:00 AM 6.44 43.592 0.034 6.21 21.39 11.59
12/13/2020 5:15:00 AM 6.49 43.682 0.032 6.11 28.74 11.58
12/13/2020 5:30:00 AM 6.44 43.592 0.034 6.19 20.57 11.59
12/13/2020 5:45:00 AM 6.39 43.502 0.034 6.18 24.01 11.6
12/13/2020 6:00:00 AM 6.37 43.466 0.034 6.17 25.54 11.65
12/13/2020 6:15:00 AM 6.36 43.448 0.034 6.18 25.8 11.71
12/13/2020 6:30:00 AM 6.41 43.538 0.032 6.14 25.75 11.57
12/13/2020 6:45:00 AM 6.36 43.448 0.034 6.18 29.24 11.51
12/13/2020 7:00:00 AM 6.33 43.394 0.034 6.18 26.66 11.65
12/13/2020 7:15:00 AM 6.25 43.25 0.034 6.2 28.69 11.71
12/13/2020 7:30:00 AM 6.38 43.484 0.032 6.11 26.86 11.61
12/13/2020 7:45:00 AM 6.3 43.34 0.034 6.2 26.28 11.8
12/13/2020 8:00:00 AM 6.21 43.178 0.033 6.24 21.17 11.84
12/13/2020 8:15:00 AM 6.2 43.16 0.033 6.14 26.56 11.92
12/13/2020 8:30:00 AM 6.3 43.34 0.034 6.25 32.22 11.86
12/13/2020 8:45:00 AM 6.28 43.304 0.033 6.27 25.79 12.04
12/13/2020 9:00:00 AM 6.42 43.556 0.032 6.17 26.76 11.91
12/13/2020 9:15:00 AM 6.41 43.538 0.034 6.23 26.67 11.8
12/13/2020 9:30:00 AM 6.5 43.7 0.032 6.15 17.89 11.82
12/13/2020 9:45:00 AM 6.6 43.88 0.034 6.2 22.23 11.65
12/13/2020 10:00:00 AM 6.53 43.754 0.034 6.19 28.43 11.66
12/13/2020 10:15:00 AM 6.61 43.898 0.034 6.24 25.78 11.7
12/13/2020 10:30:00 AM 6.65 43.97 0.032 6.12 28.62 11.72
12/13/2020 10:45:00 AM 6.67 44.006 0.034 6.21 26.11 11.85
12/13/2020 11:00:00 AM 6.68 44.024 0.034 6.18 25.82 11.92
12/13/2020 11:15:00 AM 6.76 44.168 0.032 6.16 29.16 11.84
12/13/2020 11:30:00 AM 6.81 44.258 0.034 6.19 28.53 11.87
12/13/2020 11:45:00 AM 6.79 44.222 0.032 6.15 29.67 11.92
12/13/2020 12:00:00 PM 6.86 44.348 0.034 6.21 26.24 11.85
12/13/2020 12:15:00 PM 6.93 44.474 0.032 6.13 25.89 11.75
12/13/2020 12:30:00 PM 7 44.6 0.032 6.17 26 11.85
12/13/2020 12:45:00 PM 7.02 44.636 0.032 6.15 21.4 11.76
12/13/2020 1:00:00 PM 7.03 44.654 0.033 6.13 27.85 11.78
12/13/2020 1:15:00 PM 7.05 44.69 0.033 6.21 28.6 11.74
12/13/2020 1:30:00 PM 7.1 44.78 0.032 6.16 28.76 11.68
12/13/2020 1:45:00 PM 7.12 44.816 0.032 6.14 24.53 11.66
12/13/2020 2:00:00 PM 7.12 44.816 0.034 6.17 26.72 11.66
12/13/2020 2:15:00 PM 7.12 44.816 0.034 6.21 28.4 11.71
12/13/2020 2:30:00 PM 7.14 44.852 0.033 6.19 25.78 11.6
12/13/2020 2:45:00 PM 7.13 44.834 0.032 6.13 25.28 11.59
12/13/2020 3:00:00 PM 7.14 44.852 0.032 6.1 27.04 11.59
12/13/2020 3:15:00 PM 7.1 44.78 0.034 6.15 25.11 11.64
12/13/2020 3:30:00 PM 7.13 44.834 0.032 6.12 24.21 11.57
12/13/2020 3:45:00 PM 7.06 44.708 0.034 6.23 22.32 11.74
12/13/2020 4:00:00 PM 7.08 44.744 0.032 6.16 25.79 11.62
12/13/2020 4:15:00 PM 7.05 44.69 0.034 6.25 25.25 11.61
12/13/2020 4:30:00 PM 7.04 44.672 0.032 6.15 26.39 11.59
12/13/2020 4:45:00 PM 7.02 44.636 0.034 6.19 26.94 11.59
12/13/2020 5:00:00 PM 7.01 44.618 0.034 6.17 26.82 11.53
12/13/2020 5:15:00 PM 7.04 44.672 0.032 6.16 22.45 11.48
12/13/2020 5:30:00 PM 6.99 44.582 0.034 6.17 26.05 11.49
12/13/2020 5:45:00 PM 6.97 44.546 0.034 6.1 32.34 11.46
12/13/2020 6:00:00 PM 6.97 44.546 0.034 6.18 29.19 11.47
12/13/2020 6:15:00 PM 6.94 44.492 0.034 6.18 22.6 11.52
12/13/2020 6:30:00 PM 6.92 44.456 0.032 6.13 30.76 11.53
12/13/2020 6:45:00 PM 6.91 44.438 0.034 6.14 27.25 11.5
12/13/2020 7:00:00 PM 6.84 44.312 0.034 6.17 28.74 11.56
12/13/2020 7:15:00 PM 6.85 44.33 0.034 6.16 27.91 11.53
12/13/2020 7:30:00 PM 6.88 44.384 0.034 6.17 25.37 11.5
12/13/2020 7:45:00 PM 6.87 44.366 0.034 6.14 24.07 11.51
12/13/2020 8:00:00 PM 6.85 44.33 0.034 6.15 28.58 11.5
12/13/2020 8:15:00 PM 6.83 44.294 0.034 6.1 26.23 11.49
12/13/2020 8:30:00 PM 6.82 44.276 0.034 6.17 31.01 11.46
12/13/2020 8:45:00 PM 6.79 44.222 0.034 6.09 24.67 11.51
12/13/2020 9:00:00 PM 6.8 44.24 0.032 6.11 17.01 11.51
12/13/2020 9:15:00 PM 6.74 44.132 0.034 6.13 27.54 11.55
12/13/2020 9:30:00 PM 6.72 44.096 0.034 6.14 27.7 11.56
12/13/2020 9:45:00 PM 6.76 44.168 0.034 6.18 27.65 11.47
12/13/2020 10:00:00 PM 6.66 43.988 0.034 6.15 27.46 11.59
12/13/2020 10:15:00 PM 6.63 43.934 0.034 6.14 26.18 11.59
12/13/2020 10:30:00 PM 6.67 44.006 0.032 6.13 27.04 11.57
12/13/2020 10:45:00 PM 6.7 44.06 0.032 6.13 29.39 11.54
12/13/2020 11:00:00 PM 6.62 43.916 0.032 6.14 31.97 11.58
12/13/2020 11:15:00 PM 6.58 43.844 0.034 6.17 24.74 11.63
12/13/2020 11:30:00 PM 6.56 43.808 0.032 6.15 25.65 11.69
12/13/2020 11:45:00 PM 6.5 43.7 0.034 6.25 23.49 11.68
12/14/2020 12:00:00 AM 6.52 43.736 0.034 6.2 26.08 11.66
12/14/2020 12:15:00 AM 6.53 43.754 0.034 6.13 23.88 11.61
12/14/2020 12:30:00 AM 6.53 43.754 0.032 6.16 29.23 11.62
12/14/2020 12:45:00 AM 6.54 43.772 0.032 6.15 29.03 11.65
12/14/2020 1:00:00 AM 6.52 43.736 0.034 6.17 26.2 11.64
12/14/2020 1:15:00 AM 6.49 43.682 0.032 6.13 25.83 11.63
12/14/2020 1:30:00 AM 6.46 43.628 0.034 6.14 26.57 11.68
12/14/2020 1:45:00 AM 6.46 43.628 0.034 6.18 25.65 11.62
12/14/2020 2:00:00 AM 6.44 43.592 0.032 6.13 21.63 11.68
12/14/2020 2:15:00 AM 6.4 43.52 0.034 6.18 22.59 11.67
12/14/2020 2:30:00 AM 6.46 43.628 0.034 6.18 26.4 11.66
12/14/2020 2:45:00 AM 6.37 43.466 0.034 6.2 25.92 11.69
12/14/2020 3:00:00 AM 6.37 43.466 0.034 6.21 27.54 11.75
12/14/2020 3:15:00 AM 6.36 43.448 0.034 6.13 24.96 11.66
12/14/2020 3:30:00 AM 6.38 43.484 0.034 6.18 23.08 11.58
12/14/2020 3:45:00 AM 6.32 43.376 0.034 6.16 25.43 11.8
12/14/2020 4:00:00 AM 6.32 43.376 0.034 6.19 23.52 11.68
12/14/2020 4:15:00 AM 6.36 43.448 0.034 6.16 23.99 11.71
12/14/2020 4:30:00 AM 6.37 43.466 0.034 6.19 26.99 11.61
12/14/2020 4:45:00 AM 6.35 43.43 0.032 6.11 26.72 11.63
12/14/2020 5:00:00 AM 6.35 43.43 0.032 6.11 24.62 11.65
12/14/2020 5:15:00 AM 6.35 43.43 0.034 6.16 23.1 11.69
12/14/2020 5:30:00 AM 6.28 43.304 0.032 6.12 24.43 11.66
12/14/2020 5:45:00 AM 6.31 43.358 0.034 6.15 25.86 11.55
12/14/2020 6:00:00 AM 6.28 43.304 0.034 6.12 26.34 11.63
12/14/2020 6:15:00 AM 6.27 43.286 0.032 6.14 27.32 11.65
12/14/2020 6:30:00 AM 6.27 43.286 0.034 6.14 25.36 11.61
12/14/2020 6:45:00 AM 6.18 43.124 0.034 6.19 26.18 11.7
12/14/2020 7:00:00 AM 6.12 43.016 0.034 6.2 28.28 11.7
12/14/2020 7:15:00 AM 6.17 43.106 0.034 6.12 22.21 11.61
12/14/2020 7:30:00 AM 6.07 42.926 0.034 6.21 27.23 11.7
12/14/2020 7:45:00 AM 6.08 42.944 0.032 6.14 25.66 11.68
12/14/2020 8:00:00 AM 6.03 42.854 0.034 6.14 28.75 11.75
12/14/2020 8:15:00 AM 6.04 42.872 0.034 6.18 22.99 11.74
12/14/2020 8:30:00 AM 5.95 42.71 0.034 6.19 28.82 11.78
12/14/2020 8:45:00 AM 5.99 42.782 0.032 6.14 26.21 11.8
12/14/2020 9:00:00 AM 5.98 42.764 0.034 6.17 26.27 11.85
12/14/2020 9:15:00 AM 5.88 42.584 0.034 6.19 23.89 11.85
12/14/2020 9:30:00 AM 5.94 42.692 0.034 6.23 27.79 11.92
12/14/2020 9:45:00 AM 5.94 42.692 0.034 6.18 24.78 11.9
12/14/2020 10:00:00 AM 5.97 42.746 0.034 6.05 22.97 11.83
12/14/2020 10:15:00 AM 5.95 42.71 0.034 6.23 29.04 11.91
12/14/2020 10:30:00 AM 5.94 42.692 0.034 6.21 27.77 11.9
12/14/2020 10:45:00 AM 5.93 42.674 0.034 6.15 29.08 11.95
12/14/2020 11:00:00 AM 5.95 42.71 0.032 6.13 30.57 11.99
12/14/2020 11:15:00 AM 5.98 42.764 0.034 6.17 29.39 11.95
12/14/2020 11:30:00 AM 6.03 42.854 0.032 6.13 26.46 11.92
12/14/2020 11:45:00 AM 6.04 42.872 0.034 6.17 24.03 11.95
12/14/2020 12:00:00 PM 6.07 42.926 0.032 6.12 27.59 11.93
12/14/2020 12:15:00 PM 6.09 42.962 0.032 6.14 23.56 11.95
12/14/2020 12:30:00 PM 6.06 42.908 0.034 6.2 23.64 11.91
12/14/2020 12:45:00 PM 6.06 42.908 0.034 6.13 26.75 11.92
12/14/2020 1:00:00 PM 6.14 43.052 0.034 6.15 28.58 11.87
12/14/2020 1:15:00 PM 6.21 43.178 0.034 6.1 23.8 11.89
12/14/2020 1:30:00 PM 6.19 43.142 0.034 6.15 28.13 11.9
12/14/2020 1:45:00 PM 6.26 43.268 0.032 6.15 27.01 11.85
12/14/2020 2:00:00 PM 6.26 43.268 0.034 6.12 25.09 11.86
12/14/2020 2:15:00 PM 6.26 43.268 0.032 6.15 25.81 11.91
12/14/2020 2:30:00 PM 6.28 43.304 0.034 6.17 23.89 11.85
12/14/2020 2:45:00 PM 6.27 43.286 0.033 6.16 25.29 11.84
12/14/2020 3:00:00 PM 6.31 43.358 0.032 6.12 25.28 11.82
12/14/2020 3:15:00 PM 6.27 43.286 0.034 6.17 23.59 11.82
12/14/2020 3:30:00 PM 6.29 43.322 0.032 6.13 25.07 11.79
12/14/2020 3:45:00 PM 6.27 43.286 0.034 6.17 27.98 11.8
12/14/2020 4:00:00 PM 6.24 43.232 0.034 6.12 28.83 11.81
12/14/2020 4:15:00 PM 6.24 43.232 0.032 6.14 28.05 11.75
12/14/2020 4:30:00 PM 6.21 43.178 0.034 6.11 24.21 11.82
12/14/2020 4:45:00 PM 6.28 43.304 0.034 6.14 27.19 11.76
12/14/2020 5:00:00 PM 6.23 43.214 0.034 6.19 29.45 11.71
12/14/2020 5:15:00 PM 6.2 43.16 0.034 6.13 27.36 11.76
12/14/2020 5:30:00 PM 6.16 43.088 0.034 6.09 28.24 11.73
12/14/2020 5:45:00 PM 6.24 43.232 0.032 6.12 12.51 11.68
12/14/2020 6:00:00 PM 6.24 43.232 0.032 6.11 6.32 11.67
12/14/2020 6:15:00 PM 6.22 43.196 0.032 6.08 25.63 11.67
12/14/2020 6:30:00 PM 6.11 42.998 0.034 6.17 25.63 11.7
12/14/2020 6:45:00 PM 6.13 43.034 0.032 6.1 24.67 11.66
12/14/2020 7:00:00 PM 6.08 42.944 0.034 6.12 32.47 11.68
12/14/2020 7:15:00 PM 6.03 42.854 0.032 6.09 31.57 11.75
12/14/2020 7:30:00 PM 6 42.8 0.032 6.14 17.36 11.75
12/14/2020 7:45:00 PM 5.95 42.71 0.034 6.17 29.11 11.65
12/14/2020 8:00:00 PM 5.92 42.656 0.034 6.15 23.33 11.76
12/14/2020 8:15:00 PM 5.89 42.602 0.034 6.13 26.16 11.75
12/14/2020 8:30:00 PM 5.86 42.548 0.032 6.11 30.46 11.77
12/14/2020 8:45:00 PM 5.81 42.458 0.034 6.14 25.83 11.81
12/14/2020 9:00:00 PM 5.85 42.53 0.032 6.08 27.19 11.82
12/14/2020 9:15:00 PM 5.8 42.44 0.034 6.1 30 11.8
12/14/2020 9:30:00 PM 5.73 42.314 0.034 6.12 28.9 11.84
12/14/2020 9:45:00 PM 5.71 42.278 0.034 6.06 26.68 11.85
12/14/2020 10:00:00 PM 5.76 42.368 0.034 6.14 29.92 11.78
12/14/2020 10:15:00 PM 5.7 42.26 0.034 6.18 26.84 11.84
12/14/2020 10:30:00 PM 5.69 42.242 0.034 6.08 27.64 11.83
12/14/2020 10:45:00 PM 5.66 42.188 0.034 6.18 20.98 11.83
12/14/2020 11:00:00 PM 5.61 42.098 0.032 6.13 28.49 11.89
12/14/2020 11:15:00 PM 5.53 41.954 0.034 6.15 31.37 11.89
12/14/2020 11:30:00 PM 5.48 41.864 0.034 6.17 25.74 11.95
12/14/2020 11:45:00 PM 5.44 41.792 0.034 6.17 24.72 11.9
12/15/2020 12:00:00 AM 5.48 41.864 0.034 6.14 26.31 11.87
12/15/2020 12:15:00 AM 5.48 41.864 0.032 6.12 24.86 11.9
12/15/2020 12:30:00 AM 5.41 41.738 0.034 6.14 22.26 11.89
12/15/2020 12:45:00 AM 5.39 41.702 0.032 6.09 27.05 11.97
12/15/2020 1:00:00 AM 5.41 41.738 0.034 6.09 22.55 11.87
12/15/2020 1:15:00 AM 5.35 41.63 0.034 6.1 22.87 11.89
12/15/2020 1:30:00 AM 5.37 41.666 0.033 6.09 24.7 11.99
12/15/2020 1:45:00 AM 5.36 41.648 0.032 6.12 2.62 11.98
12/15/2020 2:00:00 AM 5.35 41.63 0.034 6.11 26.82 11.92
12/15/2020 2:15:00 AM 5.34 41.612 0.032 6.05 23.85 11.95
12/15/2020 2:30:00 AM 5.31 41.558 0.032 6.11 7.05 12
12/15/2020 2:45:00 AM 5.33 41.594 0.034 6.09 21.97 11.91
12/15/2020 3:00:00 AM 5.33 41.594 0.032 6.05 24.33 11.89
12/15/2020 3:15:00 AM 5.25 41.45 0.034 6.08 28 11.96
12/15/2020 3:30:00 AM 5.24 41.432 0.034 6.08 28.8 11.98
12/15/2020 3:45:00 AM 5.32 41.576 0.034 6.05 24.64 11.88
12/15/2020 4:00:00 AM 5.23 41.414 0.034 6.1 31.25 11.98
12/15/2020 4:15:00 AM 5.21 41.378 0.034 6.09 29.94 12.04
12/15/2020 4:30:00 AM 5.3 41.54 0.033 6.05 24.68 11.96
12/15/2020 4:45:00 AM 5.21 41.378 0.034 6.06 27.68 11.96
12/15/2020 5:00:00 AM 5.16 41.288 0.034 6.1 25.17 11.97
12/15/2020 5:15:00 AM 5.19 41.342 0.034 6.08 20.4 12.01
12/15/2020 5:30:00 AM 5.22 41.396 0.032 6.06 24.51 12.04
12/15/2020 5:45:00 AM 5.22 41.396 0.032 6.02 7.48 11.94
12/15/2020 6:00:00 AM 5.2 41.36 0.034 6 23.58 11.97
12/15/2020 6:15:00 AM 5.16 41.288 0.034 6.1 28.91 11.95
12/15/2020 6:30:00 AM 5.1 41.18 0.034 6.07 27.58 11.97
12/15/2020 6:45:00 AM 5.09 41.162 0.034 6.07 26.19 11.97
12/15/2020 7:00:00 AM 5.1 41.18 0.034 5.95 28.73 11.99
12/15/2020 7:15:00 AM 5.14 41.252 0.033 6.07 26.79 11.89
12/15/2020 7:30:00 AM 5.1 41.18 0.034 6.05 26.64 11.98
12/15/2020 7:45:00 AM 5.06 41.108 0.032 6.04 26.09 12.02
12/15/2020 8:00:00 AM 5.03 41.054 0.034 6.09 23.49 11.99
12/15/2020 8:15:00 AM 5.02 41.036 0.034 6.04 28.2 12.06
12/15/2020 8:30:00 AM 5.09 41.162 0.032 6.03 23.04 12.08
12/15/2020 8:45:00 AM 5.09 41.162 0.034 6.1 26.57 12.04
12/15/2020 9:00:00 AM 5.13 41.234 0.034 6.1 24.41 12.12
12/15/2020 9:15:00 AM 5.18 41.324 0.034 6.09 23.19 12.1
12/15/2020 9:30:00 AM 5.09 41.162 0.034 6 25.03 12.19
12/15/2020 9:45:00 AM 5.15 41.27 0.032 6.09 27.42 12.17
12/15/2020 10:00:00 AM 5.13 41.234 0.034 6.11 27.4 12.22
12/15/2020 10:15:00 AM 5.14 41.252 0.034 6.12 26.75 12.12
12/15/2020 10:30:00 AM 5.14 41.252 0.034 6.1 21.28 12.17
12/15/2020 10:45:00 AM 5.23 41.414 0.032 6.05 25.03 12.22
12/15/2020 11:00:00 AM 5.2 41.36 0.034 6.13 28.36 12.2
12/15/2020 11:15:00 AM 5.19 41.342 0.034 6.1 29.53 12.21
12/15/2020 11:30:00 AM 5.29 41.522 0.034 6.13 27.55 12.17
12/15/2020 11:45:00 AM 5.34 41.612 0.032 6.09 32 12.2
12/15/2020 12:00:00 PM 5.36 41.648 0.032 6.11 7.86 12.3
12/15/2020 12:15:00 PM 5.43 41.774 0.032 6.11 8.51 12.25
12/15/2020 12:30:00 PM 5.42 41.756 0.034 6.06 22.79 12.24
12/15/2020 12:45:00 PM 5.52 41.936 0.032 6.08 25.18 12.15
12/15/2020 1:00:00 PM 5.51 41.918 0.034 6.1 27.69 12.21
12/15/2020 1:15:00 PM 5.52 41.936 0.032 6.09 25.85 12.18
12/15/2020 1:30:00 PM 5.46 41.828 0.034 6.12 27.01 12.15
12/15/2020 1:45:00 PM 5.46 41.828 0.034 6.02 23.11 12.09
12/15/2020 2:00:00 PM 5.47 41.846 0.032 6.07 27.06 12.09
12/15/2020 2:15:00 PM 5.45 41.81 0.034 6.06 22.84 12.03
12/15/2020 2:30:00 PM 5.46 41.828 0.032 6.06 31.93 12.07
12/15/2020 2:45:00 PM 5.42 41.756 0.034 6.11 26.08 12.1
12/15/2020 3:00:00 PM 5.4 41.72 0.034 6.07 26.69 12.07
12/15/2020 3:15:00 PM 5.38 41.684 0.032 6.03 29.09 12.07
12/15/2020 3:30:00 PM 5.39 41.702 0.034 6.08 26.68 11.98
12/15/2020 3:45:00 PM 5.43 41.774 0.032 6.05 23.65 12.03
12/15/2020 4:00:00 PM 5.33 41.594 0.034 6.09 24.58 11.99
12/15/2020 4:15:00 PM 5.31 41.558 0.034 6.08 24.76 12.05
12/15/2020 4:30:00 PM 5.31 41.558 0.034 6.07 27.94 11.95
12/15/2020 4:45:00 PM 5.31 41.558 0.034 6.08 23.31 11.94
12/15/2020 5:00:00 PM 5.3 41.54 0.034 6.07 24.83 11.91
12/15/2020 5:15:00 PM 5.29 41.522 0.034 6.07 21.4 11.83
12/15/2020 5:30:00 PM 5.23 41.414 0.034 6.06 22.68 11.86
12/15/2020 5:45:00 PM 5.2 41.36 0.034 6.06 23.88 11.96
12/15/2020 6:00:00 PM 5.12 41.216 0.034 6.08 27.79 11.96
12/15/2020 6:15:00 PM 5.1 41.18 0.034 6.04 23.69 11.96
12/15/2020 6:30:00 PM 5.11 41.198 0.034 6.08 30.05 11.91
12/15/2020 6:45:00 PM 5.11 41.198 0.032 6.1 27.4 11.95
12/15/2020 7:00:00 PM 5.07 41.126 0.034 6.09 21.43 11.99
12/15/2020 7:15:00 PM 5.08 41.144 0.035 6.09 24.21 11.93
12/15/2020 7:30:00 PM 4.98 40.964 0.034 6.08 25.01 12.05
12/15/2020 7:45:00 PM 4.98 40.964 0.032 6.07 28.86 12.03
12/15/2020 8:00:00 PM 4.95 40.91 0.035 6.08 28.49 11.99
12/15/2020 8:15:00 PM 4.87 40.766 0.034 6.09 28.2 12.11
12/15/2020 8:30:00 PM 4.9 40.82 0.035 6.08 31.03 12.1
12/15/2020 8:45:00 PM 4.88 40.784 0.033 6.06 30.79 12.15
12/15/2020 9:00:00 PM 4.88 40.784 0.034 6.07 28.6 12.11
12/15/2020 9:15:00 PM 4.85 40.73 0.033 6.07 26.8 12.13
12/15/2020 9:30:00 PM 4.9 40.82 0.033 6.06 13.46 12.05
12/15/2020 9:45:00 PM 4.81 40.658 0.033 6.06 13.96 12.18
12/15/2020 10:00:00 PM 4.8 40.64 0.033 6.06 2.67 12.19
12/15/2020 10:15:00 PM 4.79 40.622 0.033 6.05 2.8 11.89
12/15/2020 10:30:00 PM 4.79 40.622 0.033 6.04 8.8 12.06
12/15/2020 10:45:00 PM 4.7 40.46 0.034 6.09 28.35 11.96
12/15/2020 11:00:00 PM 4.71 40.478 0.034 6.03 27.36 12.17
12/15/2020 11:15:00 PM 4.68 40.424 0.034 6.09 24.23 12.15
12/15/2020 11:30:00 PM 4.6 40.28 0.034 6.08 23.6 12.23
12/15/2020 11:45:00 PM 4.57 40.226 0.034 6.07 28.37 12.23
12/16/2020 12:00:00 AM 4.63 40.334 0.034 6.07 26.59 12.11
12/16/2020 12:15:00 AM 4.58 40.244 0.034 6.07 28.32 12.11
12/16/2020 12:30:00 AM 4.53 40.154 0.034 6.1 27.88 12.14
12/16/2020 12:45:00 AM 4.66 40.388 0.035 6.06 29.84 12.07
12/16/2020 1:00:00 AM 4.58 40.244 0.034 6.07 29.04 12.11
12/16/2020 1:15:00 AM 4.46 40.028 0.034 6.06 27.47 12.2
12/16/2020 1:30:00 AM 4.63 40.334 0.035 6.01 31.03 12.1
12/16/2020 1:45:00 AM 4.54 40.172 0.035 6 28.81 12.11
12/16/2020 2:00:00 AM 4.46 40.028 0.034 6.06 27.01 12.22
12/16/2020 2:15:00 AM 4.48 40.064 0.034 6.08 33.13 12.21
12/16/2020 2:30:00 AM 4.42 39.956 0.035 6 33.09 12.25
12/16/2020 2:45:00 AM 4.45 40.01 0.035 6.04 32.72 12.19
12/16/2020 3:00:00 AM 4.42 39.956 0.034 6.09 26.63 12.21
12/16/2020 3:15:00 AM 4.43 39.974 0.032 6.03 27.57 12.2
12/16/2020 3:30:00 AM 4.46 40.028 0.033 6.03 2.9 12.17
12/16/2020 3:45:00 AM 4.44 39.992 0.032 6.02 4.83 12.21
12/16/2020 4:00:00 AM 4.41 39.938 0.033 6.05 26.36 12.23
12/16/2020 4:15:00 AM 4.37 39.866 0.034 6.06 29.52 12.2
12/16/2020 4:30:00 AM 4.38 39.884 0.035 6.05 29.6 12.17
12/16/2020 4:45:00 AM 4.34 39.812 0.034 5.97 26.86 12.19
12/16/2020 5:00:00 AM 4.31 39.758 0.033 6.07 34.59 12.37
12/16/2020 5:15:00 AM 4.28 39.704 0.034 5.99 25.56 12.27
12/16/2020 5:30:00 AM 4.25 39.65 0.034 6.05 32.78 12.25
12/16/2020 5:45:00 AM 4.36 39.848 0.033 6.04 34.97 12.25
12/16/2020 6:00:00 AM 4.27 39.686 0.034 6.08 23.11 12.18
12/16/2020 6:15:00 AM 4.29 39.722 0.034 6.03 26.43 12.18
12/16/2020 6:30:00 AM 4.24 39.632 0.034 6.06 28.9 12.34
12/16/2020 6:45:00 AM 4.33 39.794 0.035 6.04 24.98 12.3
12/16/2020 7:00:00 AM 4.32 39.776 0.034 6.03 33.43 12.23
12/16/2020 7:15:00 AM 4.23 39.614 0.034 6.03 27.2 12.26
12/16/2020 7:30:00 AM 4.22 39.596 0.034 6.05 30.61 12.29
12/16/2020 7:45:00 AM 4.3 39.74 0.033 6.01 27.52 12.3
12/16/2020 8:00:00 AM 4.33 39.794 0.035 6.05 26.85 12.25
12/16/2020 8:15:00 AM 4.3 39.74 0.034 6.06 23.22 12.24
12/16/2020 8:30:00 AM 4.25 39.65 0.035 6.05 28.26 12.28
12/16/2020 8:45:00 AM 4.28 39.704 0.033 6.03 24.52 12.27
12/16/2020 9:00:00 AM 4.25 39.65 0.034 6.04 30.75 12.44
12/16/2020 9:15:00 AM 4.25 39.65 0.034 6.06 23.91 12.35
12/16/2020 9:30:00 AM 4.28 39.704 0.033 6.02 24.51 12.37
12/16/2020 9:45:00 AM 4.3 39.74 0.034 6.05 29.01 12.2
12/16/2020 10:00:00 AM 4.39 39.902 0.032 6.02 27.2 12.3
12/16/2020 10:15:00 AM 4.36 39.848 0.032 6.03 7.25 12.36
12/16/2020 10:30:00 AM 4.22 39.596 0.034 6.04 30.17 12.38
12/16/2020 10:45:00 AM 4.28 39.704 0.034 6.02 24.62 12.35
12/16/2020 11:00:00 AM 4.4 39.92 0.033 6 27.71 12.31
12/16/2020 11:15:00 AM 4.42 39.956 0.032 6 4.09 12.33
12/16/2020 11:30:00 AM 4.43 39.974 0.034 6.04 27.35 12.29
12/16/2020 11:45:00 AM 4.28 39.704 0.034 5.99 25.68 12.29
12/16/2020 12:00:00 PM 4.46 40.028 0.032 6.03 22.68 12.28
12/16/2020 12:15:00 PM 4.48 40.064 0.032 5.98 22 12.26
12/16/2020 12:30:00 PM 4.36 39.848 0.034 6.05 20.99 12.24
12/16/2020 12:45:00 PM 4.31 39.758 0.032 6.01 26.64 12.3
12/16/2020 1:00:00 PM 4.45 40.01 0.034 6.01 22.51 12.07
12/16/2020 1:15:00 PM 4.31 39.758 0.034 6 22.35 12.28
12/16/2020 1:30:00 PM 4.07 39.326 0.034 6.04 23.42 12.23
12/16/2020 1:45:00 PM 4.13 39.434 0.034 5.97 23.18 12.24
12/16/2020 2:00:00 PM 4.19 39.542 0.034 6.04 27.07 12.24
12/16/2020 2:15:00 PM 4.04 39.272 0.032 6.02 21.2 12.32
12/16/2020 2:30:00 PM 3.89 39.002 0.034 5.92 24.41 12.4
12/16/2020 2:45:00 PM 3.83 38.894 0.032 5.99 30.02 12.37
12/16/2020 3:00:00 PM 3.85 38.93 0.032 6 24.1 12.36
12/16/2020 3:15:00 PM 3.69 38.642 0.034 5.97 24.86 12.43
12/16/2020 3:30:00 PM 3.62 38.516 0.034 6.03 28.78 12.38
12/16/2020 3:45:00 PM 3.39 38.102 0.034 5.97 24.19 12.47
12/16/2020 4:00:00 PM 3.29 37.922 0.034 6.03 28.23 12.54
12/16/2020 4:15:00 PM 3.2 37.76 0.032 6 24.73 12.52
12/16/2020 4:30:00 PM 2.99 37.382 0.034 6.04 22.96 12.73
12/16/2020 4:45:00 PM 2.8 37.04 0.033 6.03 23.33 12.68
12/16/2020 5:00:00 PM 2.82 37.076 0.032 6.01 23.14 12.81
12/16/2020 5:15:00 PM 2.64 36.752 0.034 6.06 26.77 12.87
12/16/2020 5:30:00 PM 2.35 36.23 0.033 6.07 24.22 12.96
12/16/2020 5:45:00 PM 2.38 36.284 0.033 6.05 21.76 12.62
12/16/2020 6:00:00 PM 2.2 35.96 0.033 6.12 22.05 12.86
12/16/2020 6:15:00 PM 2.07 35.726 0.033 6.02 28.91 13.12
12/16/2020 6:30:00 PM 1.94 35.492 0.033 6.07 23.95 13.13
12/16/2020 6:45:00 PM 1.39 34.502 0.033 6.08 23.96 13.46
12/16/2020 7:00:00 PM 1.57 34.826 0.033 6.06 26.12 13.19
12/16/2020 7:15:00 PM 1.38 34.484 0.033 6.12 25.09 13.36
12/16/2020 7:30:00 PM 1.33 34.394 0.033 6.47 22.89 13.57
12/16/2020 7:45:00 PM 1.39 34.502 0.033 6.53 22.08 13.39
12/16/2020 8:00:00 PM 1.51 34.718 0.033 6.21 26.63 13.35
12/16/2020 8:15:00 PM 1.61 34.898 0.033 6.19 22.94 13.29
12/16/2020 8:30:00 PM 1.41 34.538 0.033 6.66 23.57 13.51
12/16/2020 8:45:00 PM 1.41 34.538 0.033 7.35 24.82 13.33
12/16/2020 9:00:00 PM 1.5 34.7 0.033 8.73 25.72 13.32
12/16/2020 9:15:00 PM 1.99 35.582 0.033 8.13 25.39 13.06
12/16/2020 9:30:00 PM 2.08 35.744 0.033 7.88 22.05 12.73
12/16/2020 9:45:00 PM 1.95 35.51 0.033 7.97 25.99 12.99
12/16/2020 10:00:00 PM 2.28 36.104 0.033 8.11 23.54 12.55
12/16/2020 10:15:00 PM 0.01 32.018 0.032 8.65 24.95 14.34
12/16/2020 10:30:00 PM 0.32 32.576 0.032 9.09 24.66 14.26
12/16/2020 10:45:00 PM 1.65 34.97 0.033 9.2 26.21 12.95
12/16/2020 11:00:00 PM 2.21 35.978 0.034 9.07 26.02 12.4
12/16/2020 11:15:00 PM 2.76 36.968 0.034 8.92 27.57 11.86
12/16/2020 11:30:00 PM 2.74 36.932 0.033 8.9 25.34 11.87
12/16/2020 11:45:00 PM 2.48 36.464 0.034 8.85 24.11 12.13
12/17/2020 12:00:00 AM 3.15 37.67 0.034 8.79 27.02 11.72
12/17/2020 12:15:00 AM 3.25 37.85 0.034 8.73 30 11.9
12/17/2020 12:30:00 AM 2.37 36.266 0.034 8.8 27.55 12.54
12/17/2020 12:45:00 AM 1.91 35.438 0.033 8.88 24.72 12.71
12/17/2020 1:00:00 AM 1.61 34.898 0.033 8.76 29.18 12.7
12/17/2020 1:15:00 AM 1.83 35.294 0.033 8.67 26.34 12.34
12/17/2020 1:30:00 AM 1.79 35.222 0.033 8.71 26.05 12.83
12/17/2020 1:45:00 AM 2.23 36.014 0.033 8.77 24.05 12.64
12/17/2020 2:00:00 AM 2.86 37.148 0.034 8.72 24.81 12.16
12/17/2020 2:15:00 AM 3.34 38.012 0.034 8.69 26.38 11.76
12/17/2020 2:30:00 AM 3.12 37.616 0.034 8.66 25.23 12.2
12/17/2020 2:45:00 AM 3.65 38.57 0.034 8.65 30.01 11.49
12/17/2020 3:00:00 AM 4.26 39.668 0.035 8.57 22.86 10.53
12/17/2020 3:15:00 AM 4.38 39.884 0.035 8.59 20.65 10.34
12/17/2020 3:30:00 AM 5.09 41.162 0.036 8.55 21.9 10.21
12/17/2020 3:45:00 AM 5.07 41.126 0.035 8.54 31.86 10.27
12/17/2020 4:00:00 AM 5.11 41.198 0.036 8.47 22.49 9.97
12/17/2020 4:15:00 AM 5.16 41.288 0.033 8.38 26.46 10.02
12/17/2020 4:30:00 AM 4.4 39.92 0.035 8.41 21.86 10.79
12/17/2020 4:45:00 AM 3.58 38.444 0.034 8.4 26.02 11.46
12/17/2020 5:00:00 AM 3.33 37.994 0.034 8.28 22.23 11.41
12/17/2020 5:15:00 AM 2.99 37.382 0.034 8.23 24.79 11.7
12/17/2020 5:30:00 AM 2.91 37.238 0.034 8.28 21.92 11.99
12/17/2020 5:45:00 AM 2.55 36.59 0.034 8.32 22.55 12.31
12/17/2020 6:00:00 AM 2.31 36.158 0.034 8.32 27.83 12.56
12/17/2020 6:15:00 AM 1.94 35.492 0.033 8.25 28.24 12.8
12/17/2020 6:30:00 AM 2.06 35.708 0.034 8.23 26.47 12.87
12/17/2020 6:45:00 AM 2.15 35.87 0.034 8.25 25.73 12.81
12/17/2020 7:00:00 AM 2.18 35.924 0.034 8.3 26.11 12.77
12/17/2020 7:15:00 AM 2.53 36.554 0.034 8.15 27.74 12.41
12/17/2020 7:30:00 AM 2.7 36.86 0.034 8.16 23.24 12.39
12/17/2020 7:45:00 AM 2.82 37.076 0.034 8.12 24.9 12.22
12/17/2020 8:00:00 AM 2.97 37.346 0.034 8.07 25.3 12.25
12/17/2020 8:15:00 AM 3.17 37.706 0.035 8.08 23.29 12.08
12/17/2020 8:30:00 AM 3.47 38.246 0.035 8.04 19.88 11.91
12/17/2020 8:45:00 AM 3.44 38.192 0.035 8.02 20.88 12.03
12/17/2020 9:00:00 AM 3.46 38.228 0.034 8.01 26.51 11.98
12/17/2020 9:15:00 AM 3.36 38.048 0.034 7.98 22.94 12.02
12/17/2020 9:30:00 AM 3.22 37.796 0.032 7.92 27.17 12.26
12/17/2020 9:45:00 AM 3.05 37.49 0.034 7.9 31.14 12.22
12/17/2020 10:00:00 AM 2.57 36.626 0.034 7.88 27.81 12.48
12/17/2020 10:15:00 AM 1.22 34.196 0.033 7.96 23.79 13.55
12/17/2020 10:30:00 AM 1.25 34.25 0.033 7.97 25.86 13.59
12/17/2020 10:45:00 AM 1.48 34.664 0.033 7.83 27.24 13.48
12/17/2020 11:00:00 AM 1.26 34.268 0.033 7.89 22.86 13.69
12/17/2020 11:15:00 AM 1.16 34.088 0.032 7.96 30.72 13.86
12/17/2020 11:30:00 AM 1.34 34.412 0.032 7.74 23.99 13.48
12/17/2020 11:45:00 AM 1.17 34.106 0.032 7.96 26.65 13.94
12/17/2020 12:00:00 PM 1.21 34.178 0.032 7.99 28.41 14.03
12/17/2020 12:15:00 PM 1.37 34.466 0.032 7.86 28.43 13.88
12/17/2020 12:30:00 PM 1.39 34.502 0.032 7.91 30.3 13.8
12/17/2020 12:45:00 PM 1.52 34.736 0.032 7.89 27.22 13.71
12/17/2020 1:00:00 PM 1.25 34.25 0.032 7.87 25.01 13.94
12/17/2020 1:15:00 PM 1.5 34.7 0.032 7.9 24.04 13.82
12/17/2020 1:30:00 PM 1.49 34.682 0.032 7.88 21.45 13.83
12/17/2020 1:45:00 PM 1.4 34.52 0.032 7.82 28.13 13.89
12/17/2020 2:00:00 PM 1.58 34.844 0.032 7.8 23.22 13.7
12/17/2020 2:15:00 PM 1.67 35.006 0.032 7.81 21.19 13.77
12/17/2020 2:30:00 PM 1.64 34.952 0.032 7.75 27.51 13.73
12/17/2020 2:45:00 PM 1.67 35.006 0.032 7.77 25.62 13.67
12/17/2020 3:00:00 PM 1.83 35.294 0.032 7.73 28.78 13.64
12/17/2020 3:15:00 PM 1.74 35.132 0.032 7.72 27.04 13.57
12/17/2020 3:30:00 PM 1.88 35.384 0.032 7.72 26.32 13.54
12/17/2020 3:45:00 PM 2.02 35.636 0.032 7.67 17.19 13.4
12/17/2020 4:00:00 PM 1.87 35.366 0.032 7.69 23.28 13.51
12/17/2020 4:15:00 PM 1.94 35.492 0.032 7.67 24.32 13.44
12/17/2020 4:30:00 PM 1.84 35.312 0.032 7.6 23.7 13.44
12/17/2020 4:45:00 PM 2.04 35.672 0.033 7.6 28.24 13.31
12/17/2020 5:00:00 PM 1.96 35.528 0.033 7.61 26.74 13.36
12/17/2020 5:15:00 PM 1.95 35.51 0.033 7.55 26.05 13.38
12/17/2020 5:30:00 PM 1.79 35.222 0.032 7.62 29.39 13.42
12/17/2020 5:45:00 PM 1.73 35.114 0.032 7.59 27.64 13.49
12/17/2020 6:00:00 PM 1.7 35.06 0.032 7.56 32.52 13.5
12/17/2020 6:15:00 PM 1.74 35.132 0.032 7.59 27.43 13.49
12/17/2020 6:30:00 PM 1.76 35.168 0.033 7.59 28.58 13.53
12/17/2020 6:45:00 PM 1.76 35.168 0.032 7.62 30.01 13.44
12/17/2020 7:00:00 PM 1.83 35.294 0.033 7.62 33.16 13.48
12/17/2020 7:15:00 PM 1.96 35.528 0.033 7.62 30.15 13.46
12/17/2020 7:30:00 PM 1.93 35.474 0.033 7.56 30.12 13.38
12/17/2020 7:45:00 PM 1.88 35.384 0.033 7.54 26.23 13.46
12/17/2020 8:00:00 PM 1.81 35.258 0.033 7.54 24.36 13.53
12/17/2020 8:15:00 PM 1.88 35.384 0.033 7.54 27.76 13.44
12/17/2020 8:30:00 PM 1.79 35.222 0.033 7.57 31.88 13.5
12/17/2020 8:45:00 PM 1.85 35.33 0.032 7.53 23.09 13.46
12/17/2020 9:00:00 PM 1.78 35.204 0.032 7.51 22.18 13.45
12/17/2020 9:15:00 PM 1.92 35.456 0.033 7.54 26.06 13.45
12/17/2020 9:30:00 PM 2.03 35.654 0.033 7.47 23.97 13.34
12/17/2020 9:45:00 PM 1.97 35.546 0.033 7.51 23.93 13.43
12/17/2020 10:00:00 PM 2.07 35.726 0.033 7.43 28.39 13.31
12/17/2020 10:15:00 PM 2.02 35.636 0.033 7.45 24.73 13.44
12/17/2020 10:30:00 PM 2.16 35.888 0.033 7.48 25.46 13.33
12/17/2020 10:45:00 PM 2.22 35.996 0.033 7.48 28.63 13.3
12/17/2020 11:00:00 PM 2.38 36.284 0.033 7.44 26.48 13.19
12/17/2020 11:15:00 PM 2.26 36.068 0.033 7.46 22.62 13.31
12/17/2020 11:30:00 PM 2.31 36.158 0.033 7.43 22.45 13.37
12/17/2020 11:45:00 PM 2.33 36.194 0.033 7.37 21.37 13.25
12/18/2020 12:00:00 AM 2.37 36.266 0.033 7.33 24.73 13.25
12/18/2020 12:15:00 AM 2.47 36.446 0.033 7.35 21.6 13.14
12/18/2020 12:30:00 AM 2.52 36.536 0.033 7.3 20.53 13.04
12/18/2020 12:45:00 AM 2.65 36.77 0.033 7.28 34.4 13.02
12/18/2020 1:00:00 AM 2.65 36.77 0.033 7.33 23.51 13
12/18/2020 1:15:00 AM 2.68 36.824 0.033 7.29 21.1 13.05
12/18/2020 1:30:00 AM 2.83 37.094 0.034 7.23 22.68 12.93
12/18/2020 1:45:00 AM 2.8 37.04 0.034 7.34 30.12 12.95
12/18/2020 2:00:00 AM 2.85 37.13 0.034 7.34 23.84 12.84
12/18/2020 2:15:00 AM 2.91 37.238 0.034 7.21 24.36 12.8
12/18/2020 2:30:00 AM 2.94 37.292 0.034 7.33 24.92 12.86
12/18/2020 2:45:00 AM 2.96 37.328 0.034 7.24 32.5 12.71
12/18/2020 3:00:00 AM 2.93 37.274 0.034 7.33 30.41 12.84
12/18/2020 3:15:00 AM 2.96 37.328 0.034 7.33 23.64 12.88
12/18/2020 3:30:00 AM 3.09 37.562 0.034 7.28 21 12.8
12/18/2020 3:45:00 AM 3.14 37.652 0.034 7.28 24.64 12.75
12/18/2020 4:00:00 AM 3.05 37.49 0.034 7.28 23.49 12.77
12/18/2020 4:15:00 AM 3.02 37.436 0.034 7.15 22.95 12.77
12/18/2020 4:30:00 AM 3.05 37.49 0.034 7.28 25.56 12.84
12/18/2020 4:45:00 AM 3.1 37.58 0.034 7.31 21.33 12.79
12/18/2020 5:00:00 AM 3.09 37.562 0.034 7.3 24.05 12.74
12/18/2020 5:15:00 AM 3.27 37.886 0.034 7.18 34.19 12.76
12/18/2020 5:30:00 AM 3.23 37.814 0.034 7.25 27.43 12.79
12/18/2020 5:45:00 AM 3.05 37.49 0.034 7.13 26.87 12.9
12/18/2020 6:00:00 AM 3.14 37.652 0.034 7.16 29.38 12.85
12/18/2020 6:15:00 AM 3.25 37.85 0.034 7.25 25.74 12.74
12/18/2020 6:30:00 AM 3.23 37.814 0.034 7.24 22.64 12.76
12/18/2020 6:45:00 AM 3.26 37.868 0.034 7.15 23.73 12.75
12/18/2020 7:00:00 AM 3.28 37.904 0.034 7.25 21.14 12.64
12/18/2020 7:15:00 AM 3.14 37.652 0.034 7.14 24.49 12.86
12/18/2020 7:30:00 AM 3.26 37.868 0.034 7.22 27.94 12.76
12/18/2020 7:45:00 AM 3.2 37.76 0.033 7.19 26.76 12.79
12/18/2020 8:00:00 AM 3.19 37.742 0.034 7.25 25.84 12.8
12/18/2020 8:15:00 AM 3.28 37.904 0.033 7.25 26.92 12.72
12/18/2020 8:30:00 AM 3.23 37.814 0.034 7.09 24.42 12.92
12/18/2020 8:45:00 AM 3.14 37.652 0.033 7.24 25.36 12.92
12/18/2020 9:00:00 AM 3.1 37.58 0.033 7.25 27.69 12.95
12/18/2020 9:15:00 AM 3.27 37.886 0.033 7.12 25.32 12.7
12/18/2020 9:30:00 AM 3.27 37.886 0.033 7.26 27.84 12.88
12/18/2020 9:45:00 AM 3.43 38.174 0.034 7.23 27.81 12.75
12/18/2020 10:00:00 AM 3.58 38.444 0.032 7.22 29.42 12.78
12/18/2020 10:15:00 AM 3.58 38.444 0.032 7.22 14.65 12.74
12/18/2020 10:30:00 AM 3.54 38.372 0.032 7.22 2.09 12.82
12/18/2020 10:45:00 AM 3.7 38.66 0.034 7.26 23.24 12.75
12/18/2020 11:00:00 AM 3.55 38.39 0.033 7.17 29.31 12.89
12/18/2020 11:15:00 AM 3.59 38.462 0.033 7.15 22.57 12.87
12/18/2020 11:30:00 AM 3.68 38.624 0.033 7.21 23.96 12.84
12/18/2020 11:45:00 AM 3.74 38.732 0.033 7.16 22.43 12.77
12/18/2020 12:00:00 PM 3.72 38.696 0.033 7.17 22.85 12.83
12/18/2020 12:15:00 PM 3.73 38.714 0.033 7.14 24.19 12.72
12/18/2020 12:30:00 PM 3.74 38.732 0.033 7.2 23.58 12.9
12/18/2020 12:45:00 PM 3.84 38.912 0.033 7.14 27.48 12.79
12/18/2020 1:00:00 PM 3.85 38.93 0.033 7.21 31.09 12.71
12/18/2020 1:15:00 PM 3.73 38.714 0.033 7.25 23.76 12.69
12/18/2020 1:30:00 PM 3.84 38.912 0.033 7.21 26.05 12.75
12/18/2020 1:45:00 PM 3.76 38.768 0.033 7.26 24.93 12.71
12/18/2020 2:00:00 PM 4.01 39.218 0.033 7.24 26.3 12.44
12/18/2020 2:15:00 PM 3.94 39.092 0.034 7.24 26.47 12.53
12/18/2020 2:30:00 PM 4.01 39.218 0.033 7.1 30.84 12.41
12/18/2020 2:45:00 PM 3.97 39.146 0.033 7.17 28.89 12.49
12/18/2020 3:00:00 PM 3.96 39.128 0.032 7.24 27.31 12.51
12/18/2020 3:15:00 PM 3.85 38.93 0.034 7.13 27.46 12.57
12/18/2020 3:30:00 PM 3.99 39.182 0.034 7.19 26.17 12.41
12/18/2020 3:45:00 PM 4.02 39.236 0.034 7.24 28.17 12.32
12/18/2020 4:00:00 PM 3.97 39.146 0.034 7.21 29.81 12.33
12/18/2020 4:15:00 PM 4.05 39.29 0.032 7.17 31.24 12.33
12/18/2020 4:30:00 PM 3.99 39.182 0.032 7.13 29.05 12.4
12/18/2020 4:45:00 PM 4.02 39.236 0.034 7.1 25.6 12.36
12/18/2020 5:00:00 PM 4.07 39.326 0.034 7.08 28.02 12.31
12/18/2020 5:15:00 PM 4.07 39.326 0.034 7.14 27.25 12.26
12/18/2020 5:30:00 PM 3.99 39.182 0.032 7.21 34.87 12.32
12/18/2020 5:45:00 PM 4.1 39.38 0.034 7.18 25.45 12.26
12/18/2020 6:00:00 PM 3.94 39.092 0.034 7.19 27.95 12.32
12/18/2020 6:15:00 PM 3.99 39.182 0.034 7.17 27.16 12.35
12/18/2020 6:30:00 PM 3.91 39.038 0.034 7.19 29.58 12.21
12/18/2020 6:45:00 PM 3.99 39.182 0.034 7.15 28.91 12.2
12/18/2020 7:00:00 PM 3.81 38.858 0.034 7.12 24.94 12.3
12/18/2020 7:15:00 PM 3.94 39.092 0.034 7.15 24.2 12.29
12/18/2020 7:30:00 PM 3.81 38.858 0.034 7.13 27 12.28
12/18/2020 7:45:00 PM 3.76 38.768 0.034 7.15 25 12.21
12/18/2020 8:00:00 PM 3.98 39.164 0.034 7.13 31.06 12.19
12/18/2020 8:15:00 PM 3.85 38.93 0.034 7.13 29.7 12.2
12/18/2020 8:30:00 PM 3.78 38.804 0.033 7.12 23.93 12.36
12/18/2020 8:45:00 PM 3.8 38.84 0.034 7.13 27.85 12.19
12/18/2020 9:00:00 PM 3.7 38.66 0.034 7.16 26.49 12.24
12/18/2020 9:15:00 PM 3.78 38.804 0.034 7.13 24.64 12.18
12/18/2020 9:30:00 PM 3.62 38.516 0.034 7.12 27.07 12.38
12/18/2020 9:45:00 PM 3.53 38.354 0.034 7.14 28.01 12.41
12/18/2020 10:00:00 PM 3.6 38.48 0.034 7.13 26.12 12.36
12/18/2020 10:15:00 PM 3.56 38.408 0.034 7.14 24.6 12.32
12/18/2020 10:30:00 PM 3.55 38.39 0.034 7.04 26.71 12.4
12/18/2020 10:45:00 PM 3.57 38.426 0.034 7.09 27.39 12.31
12/18/2020 11:00:00 PM 3.53 38.354 0.034 7.12 26.27 12.38
12/18/2020 11:15:00 PM 3.46 38.228 0.034 7.11 28.75 12.38
12/18/2020 11:30:00 PM 3.46 38.228 0.034 7.09 23.82 12.39
12/18/2020 11:45:00 PM 3.51 38.318 0.035 7.11 23.92 12.42
12/19/2020 12:00:00 AM 3.48 38.264 0.035 7.12 27.81 12.32
12/19/2020 12:15:00 AM 3.41 38.138 0.034 7.1 29.5 12.36
12/19/2020 12:30:00 AM 3.3 37.94 0.034 7.09 28.02 12.38
12/19/2020 12:45:00 AM 3.49 38.282 0.034 7.13 27 12.41
12/19/2020 1:00:00 AM 3.4 38.12 0.034 7 22.03 12.47
12/19/2020 1:15:00 AM 3.36 38.048 0.035 7.08 23.29 12.5
12/19/2020 1:30:00 AM 3.21 37.778 0.034 7.06 27.12 12.41
12/19/2020 1:45:00 AM 3.16 37.688 0.034 7.1 22.16 12.35
12/19/2020 2:00:00 AM 3.03 37.454 0.034 7.04 20.05 12.51
12/19/2020 2:15:00 AM 3.19 37.742 0.034 7 20.15 12.36
12/19/2020 2:30:00 AM 3.09 37.562 0.034 6.99 26.93 12.36
12/19/2020 2:45:00 AM 3.12 37.616 0.035 7.02 21.54 12.38
12/19/2020 3:00:00 AM 3.19 37.742 0.034 6.97 25.36 12.18
12/19/2020 3:15:00 AM 3.15 37.67 0.035 7.09 24.91 12.34
12/19/2020 3:30:00 AM 3.12 37.616 0.034 7.06 22.63 12.39
12/19/2020 3:45:00 AM 3.25 37.85 0.035 6.99 28.12 12.21
12/19/2020 4:00:00 AM 3.24 37.832 0.035 7.06 23.76 12.32
12/19/2020 4:15:00 AM 3.27 37.886 0.034 7.01 25.65 12.24
12/19/2020 4:30:00 AM 3.31 37.958 0.035 7.06 22.91 12.22
12/19/2020 4:45:00 AM 3.22 37.796 0.035 7.06 21.57 12.23
12/19/2020 5:00:00 AM 3.32 37.976 0.035 6.9 23.21 12.2
12/19/2020 5:15:00 AM 3.3 37.94 0.035 7.03 24.61 12.14
12/19/2020 5:30:00 AM 3.38 38.084 0.035 7.04 24.44 12.14
12/19/2020 5:45:00 AM 3.27 37.886 0.035 6.96 26.18 12.2
12/19/2020 6:00:00 AM 3.32 37.976 0.035 7.06 25.83 12.14
12/19/2020 6:15:00 AM 3.37 38.066 0.035 7.04 24.36 12.15
12/19/2020 6:30:00 AM 3.36 38.048 0.035 7.04 27.16 12.15
12/19/2020 6:45:00 AM 3.45 38.21 0.035 6.91 25.34 12.09
12/19/2020 7:00:00 AM 3.52 38.336 0.035 7.01 29.33 12.03
12/19/2020 7:15:00 AM 3.62 38.516 0.035 7.03 23.41 11.98
12/19/2020 7:30:00 AM 3.51 38.318 0.035 7.01 23.2 12
12/19/2020 7:45:00 AM 3.52 38.336 0.035 6.9 25.75 11.95
12/19/2020 8:00:00 AM 3.48 38.264 0.035 7 28.29 11.95
12/19/2020 8:15:00 AM 3.53 38.354 0.035 6.91 25.64 11.98
12/19/2020 8:30:00 AM 3.51 38.318 0.035 7.03 28.11 11.99
12/19/2020 8:45:00 AM 3.54 38.372 0.035 6.99 24.15 12.01
12/19/2020 9:00:00 AM 3.62 38.516 0.035 6.92 23.66 12.03
12/19/2020 9:15:00 AM 3.61 38.498 0.035 6.92 26.47 12.14
12/19/2020 9:30:00 AM 3.71 38.678 0.035 7.03 23.68 12.04
12/19/2020 9:45:00 AM 3.62 38.516 0.035 6.93 31.14 12.11
12/19/2020 10:00:00 AM 3.6 38.48 0.035 6.93 24.19 12.18
12/19/2020 10:15:00 AM 3.63 38.534 0.033 7 27.77 12.33
12/19/2020 10:30:00 AM 3.69 38.642 0.035 7.03 25.04 12.21
12/19/2020 10:45:00 AM 3.63 38.534 0.035 6.99 28.72 12.19
12/19/2020 11:00:00 AM 3.65 38.57 0.035 7.03 22.42 12.19
12/19/2020 11:15:00 AM 3.7 38.66 0.035 7.03 25.43 12.16
12/19/2020 11:30:00 AM 3.48 38.264 0.035 7.03 26.2 12.39
12/19/2020 11:45:00 AM 3.6 38.48 0.035 6.9 22.29 12.29
12/19/2020 12:00:00 PM 3.51 38.318 0.035 7.06 30.71 12.34
12/19/2020 12:15:00 PM 3.69 38.642 0.035 7.04 24.04 12.31
12/19/2020 12:30:00 PM 3.58 38.444 0.034 6.98 33.68 12.27
12/19/2020 12:45:00 PM 3.6 38.48 0.034 7.05 29.73 12.33
12/19/2020 1:00:00 PM 3.46 38.228 0.034 7.06 34.04 12.35
12/19/2020 1:15:00 PM 3.33 37.994 0.034 7.02 27.62 12.39
12/19/2020 1:30:00 PM 3.38 38.084 0.034 7.05 22.35 12.47
12/19/2020 1:45:00 PM 3.47 38.246 0.034 7.07 26.49 12.45
12/19/2020 2:00:00 PM 3.52 38.336 0.034 7.1 23.65 12.39
12/19/2020 2:15:00 PM 3.7 38.66 0.034 7.08 25.8 12.32
12/19/2020 2:30:00 PM 3.42 38.156 0.032 7.08 22.79 12.65
12/19/2020 2:45:00 PM 3.49 38.282 0.032 7.02 26.9 12.59
12/19/2020 3:00:00 PM 3.57 38.426 0.034 7.12 28.31 12.56
12/19/2020 3:15:00 PM 3.64 38.552 0.034 7.12 26.18 12.38
12/19/2020 3:30:00 PM 3.67 38.606 0.034 7.07 27.08 12.48
12/19/2020 3:45:00 PM 3.54 38.372 0.034 7.11 28.37 12.5
12/19/2020 4:00:00 PM 3.45 38.21 0.034 7.09 28.84 12.59
12/19/2020 4:15:00 PM 3.46 38.228 0.034 7.06 25.79 12.57
12/19/2020 4:30:00 PM 3.55 38.39 0.034 7.07 31.99 12.51
12/19/2020 4:45:00 PM 3.49 38.282 0.034 7.07 32.37 12.59
12/19/2020 5:00:00 PM 3.55 38.39 0.034 7.09 29.77 12.52
12/19/2020 5:15:00 PM 3.37 38.066 0.034 7.08 30.3 12.69
12/19/2020 5:30:00 PM 3.38 38.084 0.034 7.02 33.69 12.7
12/19/2020 5:45:00 PM 3.56 38.408 0.034 7.02 23.72 12.46
12/19/2020 6:00:00 PM 3.55 38.39 0.034 6.97 32.3 12.41
12/19/2020 6:15:00 PM 3.8 38.84 0.034 7.09 28.37 12.2
12/19/2020 6:30:00 PM 3.78 38.804 0.034 7 26.23 12.19
12/19/2020 6:45:00 PM 3.83 38.894 0.034 7.08 25.05 12.08
12/19/2020 7:00:00 PM 3.79 38.822 0.034 7.08 26.21 12.09
12/19/2020 7:15:00 PM 3.69 38.642 0.034 7.06 25.96 12.24
12/19/2020 7:30:00 PM 3.75 38.75 0.034 7.07 28.63 12.16
12/19/2020 7:45:00 PM 3.76 38.768 0.034 7.08 29.54 12.1
12/19/2020 8:00:00 PM 3.72 38.696 0.034 6.98 27.31 12.13
12/19/2020 8:15:00 PM 3.87 38.966 0.033 7.05 21.68 12.12
12/19/2020 8:30:00 PM 3.77 38.786 0.035 7.08 25.75 12.06
12/19/2020 8:45:00 PM 3.78 38.804 0.034 7.05 25.76 12.01
12/19/2020 9:00:00 PM 3.81 38.858 0.034 7.07 28.68 11.98
12/19/2020 9:15:00 PM 3.71 38.678 0.034 7.06 26.52 12.08
12/19/2020 9:30:00 PM 3.76 38.768 0.035 7.07 26.48 12.02
12/19/2020 9:45:00 PM 3.72 38.696 0.034 7.07 24.26 12.06
12/19/2020 10:00:00 PM 3.69 38.642 0.035 7.05 28.24 12.18
12/19/2020 10:15:00 PM 3.57 38.426 0.034 7.04 32.57 12.2
12/19/2020 10:30:00 PM 3.67 38.606 0.035 7.03 30.07 12.18
12/19/2020 10:45:00 PM 3.73 38.714 0.034 6.96 23.32 11.95
12/19/2020 11:00:00 PM 3.79 38.822 0.035 7.06 25.33 12.02
12/19/2020 11:15:00 PM 3.68 38.624 0.034 6.98 26.32 12.06
12/19/2020 11:30:00 PM 3.82 38.876 0.035 7.05 27.35 12.02
12/19/2020 11:45:00 PM 3.8 38.84 0.035 7.03 28.36 12
12/20/2020 12:00:00 AM 3.73 38.714 0.035 7.03 28.15 12.04
12/20/2020 12:15:00 AM 3.73 38.714 0.035 7 23.94 12.02
12/20/2020 12:30:00 AM 3.8 38.84 0.035 7.04 33.13 11.92
12/20/2020 12:45:00 AM 3.81 38.858 0.035 7.01 23.52 11.96
12/20/2020 1:00:00 AM 3.74 38.732 0.033 6.97 24.46 12.11
12/20/2020 1:15:00 AM 3.72 38.696 0.034 7.06 27.16 12.02
12/20/2020 1:30:00 AM 3.7 38.66 0.035 6.99 26.74 12.1
12/20/2020 1:45:00 AM 3.75 38.75 0.035 7.04 23.78 11.97
12/20/2020 2:00:00 AM 3.71 38.678 0.034 7.04 29.29 12.05
12/20/2020 2:15:00 AM 3.73 38.714 0.035 7.05 27.94 12
12/20/2020 2:30:00 AM 3.77 38.786 0.035 7.03 23.58 12.01
12/20/2020 2:45:00 AM 3.74 38.732 0.035 6.92 27.59 12
12/20/2020 3:00:00 AM 3.84 38.912 0.035 7.02 29.18 11.91
12/20/2020 3:15:00 AM 3.84 38.912 0.035 7.04 26.37 11.95
12/20/2020 3:30:00 AM 3.75 38.75 0.034 7.04 27.55 12.07
12/20/2020 3:45:00 AM 3.82 38.876 0.035 7.02 31.2 12.01
12/20/2020 4:00:00 AM 3.87 38.966 0.035 7.03 27.44 12.02
12/20/2020 4:15:00 AM 3.87 38.966 0.035 6.9 30.25 12.02
12/20/2020 4:30:00 AM 3.85 38.93 0.035 6.89 29.4 12.06
12/20/2020 4:45:00 AM 3.74 38.732 0.035 7.01 29.11 12.11
12/20/2020 5:00:00 AM 3.81 38.858 0.034 7.02 30.89 12.07
12/20/2020 5:15:00 AM 3.7 38.66 0.035 7.02 25.91 12.17
12/20/2020 5:30:00 AM 3.81 38.858 0.035 7.03 22.11 12.17
12/20/2020 5:45:00 AM 3.79 38.822 0.035 7.03 21.76 12.11
12/20/2020 6:00:00 AM 3.76 38.768 0.035 7 25.23 12.22
12/20/2020 6:15:00 AM 3.77 38.786 0.035 7.03 31 12.25
12/20/2020 6:30:00 AM 3.85 38.93 0.035 7.03 26.22 12.2
12/20/2020 6:45:00 AM 3.85 38.93 0.035 7.02 23.17 12.2
12/20/2020 7:00:00 AM 3.81 38.858 0.035 6.91 26.94 12.25
12/20/2020 7:15:00 AM 3.81 38.858 0.034 6.94 25.48 12.17
12/20/2020 7:30:00 AM 3.88 38.984 0.034 7.02 24.86 12.15
12/20/2020 7:45:00 AM 3.89 39.002 0.035 7.05 22.6 12.26
12/20/2020 8:00:00 AM 3.87 38.966 0.035 7.03 23.43 12.22
12/20/2020 8:15:00 AM 4.05 39.29 0.035 7.04 24.27 12.13
12/20/2020 8:30:00 AM 4.1 39.38 0.035 7.04 26.51 11.92
12/20/2020 8:45:00 AM 3.96 39.128 0.034 6.95 24.14 12.11
12/20/2020 9:00:00 AM 3.95 39.11 0.034 6.96 25.03 12.19
12/20/2020 9:15:00 AM 3.94 39.092 0.034 6.94 28.38 12.21
12/20/2020 9:30:00 AM 3.96 39.128 0.034 6.91 28.49 12.26
12/20/2020 9:45:00 AM 4.02 39.236 0.034 6.9 26.85 12.13
12/20/2020 10:00:00 AM 4.03 39.254 0.034 7.01 23.47 12.22
12/20/2020 10:15:00 AM 3.86 38.948 0.034 6.92 26.03 12.32
12/20/2020 10:30:00 AM 4 39.2 0.034 6.92 26.74 12.2
12/20/2020 10:45:00 AM 4.07 39.326 0.034 6.98 22.16 12.11
12/20/2020 11:00:00 AM 4.12 39.416 0.033 7 26.72 12.15
12/20/2020 11:15:00 AM 4.24 39.632 0.034 6.95 28.56 12
12/20/2020 11:30:00 AM 4.22 39.596 0.034 6.88 27.13 12.11
12/20/2020 11:45:00 AM 3.96 39.128 0.034 7.04 25.12 12.24
12/20/2020 12:00:00 PM 4.04 39.272 0.034 6.91 24.62 12.17
12/20/2020 12:15:00 PM 4.1 39.38 0.034 6.97 24.85 12.18
12/20/2020 12:30:00 PM 4.13 39.434 0.034 7.06 26.54 12.16
12/20/2020 12:45:00 PM 4.12 39.416 0.034 6.95 26.15 12.2
12/20/2020 1:00:00 PM 4.15 39.47 0.034 6.94 27.4 12.09
12/20/2020 1:15:00 PM 4.16 39.488 0.034 6.94 23.58 12.17
12/20/2020 1:30:00 PM 4.23 39.614 0.034 7.01 24.71 12.12
12/20/2020 1:45:00 PM 4.34 39.812 0.034 7.04 24.41 11.99
12/20/2020 2:00:00 PM 4.34 39.812 0.034 6.98 25.97 12.02
12/20/2020 2:15:00 PM 4.29 39.722 0.034 6.91 21.54 12.07
12/20/2020 2:30:00 PM 4.51 40.118 0.034 6.92 25.19 11.85
12/20/2020 2:45:00 PM 4.35 39.83 0.034 6.93 24.48 12.03
12/20/2020 3:00:00 PM 4.47 40.046 0.034 7 24.97 11.9
12/20/2020 3:15:00 PM 4.54 40.172 0.034 7.01 30.33 11.85
12/20/2020 3:30:00 PM 4.53 40.154 0.034 6.96 30.35 11.88
12/20/2020 3:45:00 PM 4.44 39.992 0.034 6.94 23.73 11.89
12/20/2020 4:00:00 PM 4.45 40.01 0.034 7.02 23.88 11.94
12/20/2020 4:15:00 PM 4.44 39.992 0.034 6.96 27.78 11.87
12/20/2020 4:30:00 PM 4.64 40.352 0.034 6.93 28.16 11.72
12/20/2020 4:45:00 PM 4.62 40.316 0.035 6.9 28.51 11.71
12/20/2020 5:00:00 PM 4.56 40.208 0.033 6.96 25.08 11.84
12/20/2020 5:15:00 PM 4.54 40.172 0.035 6.98 24.82 11.81
12/20/2020 5:30:00 PM 4.56 40.208 0.034 6.96 24.03 11.83
12/20/2020 5:45:00 PM 4.65 40.37 0.035 6.99 25.28 11.65
12/20/2020 6:00:00 PM 4.56 40.208 0.034 6.92 26.14 11.78
12/20/2020 6:15:00 PM 4.65 40.37 0.033 6.97 27.87 11.81
12/20/2020 6:30:00 PM 4.51 40.118 0.034 6.97 26.45 11.82
12/20/2020 6:45:00 PM 4.65 40.37 0.035 6.99 27.93 11.78
12/20/2020 7:00:00 PM 4.53 40.154 0.035 6.88 28.52 11.78
12/20/2020 7:15:00 PM 4.59 40.262 0.034 7.01 27.63 11.77
12/20/2020 7:30:00 PM 4.64 40.352 0.033 6.97 27.66 11.76
12/20/2020 7:45:00 PM 4.39 39.902 0.034 7.02 23.66 11.87
12/20/2020 8:00:00 PM 4.54 40.172 0.035 6.96 30.8 11.74
12/20/2020 8:15:00 PM 4.65 40.37 0.033 6.96 23.97 11.73
12/20/2020 8:30:00 PM 4.6 40.28 0.034 7 27.22 11.69
12/20/2020 8:45:00 PM 4.59 40.262 0.035 6.88 28.19 11.77
12/20/2020 9:00:00 PM 4.54 40.172 0.034 7 22.4 11.89
12/20/2020 9:15:00 PM 4.48 40.064 0.034 7.02 28.64 11.77
12/20/2020 9:30:00 PM 4.58 40.244 0.035 6.88 27.45 11.72
12/20/2020 9:45:00 PM 4.67 40.406 0.035 6.99 24.35 11.59
12/20/2020 10:00:00 PM 4.61 40.298 0.035 6.99 27.69 11.74
12/20/2020 10:15:00 PM 4.66 40.388 0.034 6.85 27.16 11.63
12/20/2020 10:30:00 PM 4.59 40.262 0.034 6.99 24.54 11.66
12/20/2020 10:45:00 PM 4.64 40.352 0.035 7.01 24.92 11.65
12/20/2020 11:00:00 PM 4.6 40.28 0.035 6.93 25.94 11.73
12/20/2020 11:15:00 PM 4.67 40.406 0.035 6.87 27.59 11.62
12/20/2020 11:30:00 PM 4.69 40.442 0.035 7 25.87 11.56
12/20/2020 11:45:00 PM 4.64 40.352 0.034 7.02 20.91 11.63
12/21/2020 12:00:00 AM 4.74 40.532 0.035 6.89 25.34 11.5
12/21/2020 12:15:00 AM 4.49 40.082 0.035 6.97 27.32 11.81
12/21/2020 12:30:00 AM 4.4 39.92 0.034 6.9 27.85 11.83
12/21/2020 12:45:00 AM 4.52 40.136 0.035 6.92 28.76 11.69
12/21/2020 1:00:00 AM 4.53 40.154 0.035 6.94 24.94 11.78
12/21/2020 1:15:00 AM 4.47 40.046 0.034 6.93 20.68 11.73
12/21/2020 1:30:00 AM 4.49 40.082 0.035 6.86 26.23 11.73
12/21/2020 1:45:00 AM 4.47 40.046 0.035 6.86 28 11.82
12/21/2020 2:00:00 AM 4.46 40.028 0.034 6.84 23.31 11.74
12/21/2020 2:15:00 AM 4.53 40.154 0.035 6.76 22.63 11.76
12/21/2020 2:30:00 AM 4.58 40.244 0.035 6.92 24 11.68
12/21/2020 2:45:00 AM 4.54 40.172 0.033 6.96 23.06 11.73
12/21/2020 3:00:00 AM 4.5 40.1 0.035 6.95 27 11.74
12/21/2020 3:15:00 AM 4.47 40.046 0.035 6.93 26.13 11.83
12/21/2020 3:30:00 AM 4.57 40.226 0.033 6.93 29.77 11.77
12/21/2020 3:45:00 AM 4.39 39.902 0.034 6.97 27.52 11.82
12/21/2020 4:00:00 AM 4.47 40.046 0.035 6.87 31.5 11.87
12/21/2020 4:15:00 AM 4.41 39.938 0.034 6.85 30.01 11.89
12/21/2020 4:30:00 AM 4.51 40.118 0.033 6.93 29.35 11.79
12/21/2020 4:45:00 AM 4.45 40.01 0.035 6.87 27.57 11.85
12/21/2020 5:00:00 AM 4.54 40.172 0.033 6.92 31.13 11.88
12/21/2020 5:15:00 AM 4.49 40.082 0.034 6.84 30.45 11.8
12/21/2020 5:30:00 AM 4.53 40.154 0.033 6.91 27.94 11.8
12/21/2020 5:45:00 AM 4.42 39.956 0.035 6.87 25.42 11.79
12/21/2020 6:00:00 AM 4.48 40.064 0.035 6.83 26.12 11.87
12/21/2020 6:15:00 AM 4.46 40.028 0.035 6.85 25.82 11.85
12/21/2020 6:30:00 AM 4.5 40.1 0.035 6.82 25.94 11.89
12/21/2020 6:45:00 AM 4.49 40.082 0.035 6.72 22.56 11.92
12/21/2020 7:00:00 AM 4.54 40.172 0.033 6.93 28.1 11.81
12/21/2020 7:15:00 AM 4.56 40.208 0.035 6.82 29.12 11.71
12/21/2020 7:30:00 AM 4.51 40.118 0.034 6.85 28.79 11.75
12/21/2020 7:45:00 AM 4.46 40.028 0.035 6.83 31.28 11.92
12/21/2020 8:00:00 AM 4.56 40.208 0.033 6.94 32.17 11.89
12/21/2020 8:15:00 AM 4.51 40.118 0.035 6.86 28.37 11.75
12/21/2020 8:30:00 AM 4.55 40.19 0.033 6.91 24.13 11.96
12/21/2020 8:45:00 AM 4.53 40.154 0.034 6.82 25.79 11.88
12/21/2020 9:00:00 AM 4.62 40.316 0.033 6.92 25.4 11.99
12/21/2020 9:15:00 AM 4.61 40.298 0.033 6.96 3.4 12
12/21/2020 9:30:00 AM 4.65 40.37 0.032 6.94 3.48 12.04
12/21/2020 9:45:00 AM 4.63 40.334 0.032 6.97 26.91 12.12
12/21/2020 10:00:00 AM 4.67 40.406 0.034 6.88 31.49 12.17
12/21/2020 10:15:00 AM 4.54 40.172 0.034 7.01 23.51 12.25
12/21/2020 10:30:00 AM 4.51 40.118 0.034 6.91 23.43 12.32
12/21/2020 10:45:00 AM 4.65 40.37 0.034 6.99 29.23 12.17
12/21/2020 11:00:00 AM 4.69 40.442 0.034 6.9 24.84 12.19
12/21/2020 11:15:00 AM 4.74 40.532 0.034 6.91 22.73 12.1
12/21/2020 11:30:00 AM 4.82 40.676 0.034 6.91 26.85 12.08
12/21/2020 11:45:00 AM 4.81 40.658 0.034 6.96 23.37 12.07
12/21/2020 12:00:00 PM 4.83 40.694 0.034 6.81 26.66 11.95
12/21/2020 12:15:00 PM 4.8 40.64 0.034 6.99 23.74 12.1
12/21/2020 12:30:00 PM 4.92 40.856 0.032 6.97 30.55 11.97
12/21/2020 12:45:00 PM 4.95 40.91 0.032 6.98 25.08 11.95
12/21/2020 1:00:00 PM 4.89 40.802 0.034 6.89 31.09 11.93
12/21/2020 1:15:00 PM 4.95 40.91 0.034 7.01 32.02 12.05
12/21/2020 1:30:00 PM 4.99 40.982 0.032 6.97 29.5 11.9
12/21/2020 1:45:00 PM 5.05 41.09 0.032 6.95 34.57 11.86
12/21/2020 2:00:00 PM 5.06 41.108 0.035 6.9 28.93 11.96
12/21/2020 2:15:00 PM 5.02 41.036 0.034 6.96 27.12 11.92
12/21/2020 2:30:00 PM 5.01 41.018 0.034 6.87 22.84 11.84
12/21/2020 2:45:00 PM 5.02 41.036 0.034 7.03 21.47 11.86
12/21/2020 3:00:00 PM 5.14 41.252 0.032 6.97 27.2 11.79
12/21/2020 3:15:00 PM 5.12 41.216 0.032 6.97 33.11 11.74
12/21/2020 3:30:00 PM 5.09 41.162 0.034 6.99 29.3 11.94
12/21/2020 3:45:00 PM 4.97 40.946 0.034 6.89 28.24 11.87
12/21/2020 4:00:00 PM 5.07 41.126 0.035 6.99 28.39 11.73
12/21/2020 4:15:00 PM 5.06 41.108 0.032 6.97 24.57 11.73
12/21/2020 4:30:00 PM 5.1 41.18 0.032 6.98 24.18 11.64
12/21/2020 4:45:00 PM 5.03 41.054 0.033 7 25.52 11.73
12/21/2020 5:00:00 PM 5.05 41.09 0.033 6.97 13.72 11.65
12/21/2020 5:15:00 PM 5.04 41.072 0.035 6.91 24.33 11.7
12/21/2020 5:30:00 PM 4.91 40.838 0.034 6.98 30.25 11.73
12/21/2020 5:45:00 PM 5.04 41.072 0.033 6.96 23.74 11.65
12/21/2020 6:00:00 PM 4.95 40.91 0.035 6.97 28.9 11.73
12/21/2020 6:15:00 PM 4.9 40.82 0.034 6.98 18.64 11.8
12/21/2020 6:30:00 PM 4.96 40.928 0.033 6.93 21.16 11.78
12/21/2020 6:45:00 PM 4.86 40.748 0.034 6.87 20.91 11.84
12/21/2020 7:00:00 PM 4.93 40.874 0.033 6.95 26.1 11.73
12/21/2020 7:15:00 PM 4.96 40.928 0.033 6.96 25.74 11.72
12/21/2020 7:30:00 PM 4.9 40.82 0.035 6.88 25.62 11.88
12/21/2020 7:45:00 PM 4.88 40.784 0.035 6.88 26.27 11.77
12/21/2020 8:00:00 PM 4.91 40.838 0.033 6.96 28.18 11.75
12/21/2020 8:15:00 PM 4.93 40.874 0.033 6.96 29.08 11.63
12/21/2020 8:30:00 PM 4.96 40.928 0.033 6.99 11.67 11.62
12/21/2020 8:45:00 PM 4.84 40.712 0.035 6.99 33.02 11.72
12/21/2020 9:00:00 PM 4.89 40.802 0.035 6.98 31.14 11.76
12/21/2020 9:15:00 PM 4.83 40.694 0.035 6.97 27.14 11.76
12/21/2020 9:30:00 PM 4.87 40.766 0.035 6.86 33.42 11.8
12/21/2020 9:45:00 PM 4.88 40.784 0.035 6.88 27.6 11.75
12/21/2020 10:00:00 PM 4.9 40.82 0.035 6.88 29.04 11.82
12/21/2020 10:15:00 PM 4.95 40.91 0.035 6.89 25.41 11.74
12/21/2020 10:30:00 PM 4.9 40.82 0.035 6.88 27.58 11.77
12/21/2020 10:45:00 PM 4.92 40.856 0.035 6.95 27.34 11.68
12/21/2020 11:00:00 PM 4.94 40.892 0.033 6.93 32.06 11.71
12/21/2020 11:15:00 PM 4.84 40.712 0.035 6.86 24.96 11.8
12/21/2020 11:30:00 PM 4.98 40.964 0.033 6.9 23.19 11.71
12/21/2020 11:45:00 PM 4.91 40.838 0.033 6.94 25.96 11.68
12/22/2020 12:00:00 AM 4.94 40.892 0.033 6.91 8.66 11.61
12/22/2020 12:15:00 AM 4.84 40.712 0.035 6.94 24.22 11.77
12/22/2020 12:30:00 AM 4.9 40.82 0.033 6.93 31.69 11.62
12/22/2020 12:45:00 AM 4.98 40.964 0.033 6.91 25.25 11.54
12/22/2020 1:00:00 AM 5.03 41.054 0.033 6.92 2.52 11.24
12/22/2020 1:15:00 AM 4.91 40.838 0.033 6.89 23.06 11.55
12/22/2020 1:30:00 AM 4.83 40.694 0.035 6.9 33.93 11.67
12/22/2020 1:45:00 AM 4.93 40.874 0.033 6.85 24.34 11.64
12/22/2020 2:00:00 AM 4.89 40.802 0.033 6.9 6.06 11.69
12/22/2020 2:15:00 AM 4.93 40.874 0.035 6.93 26.65 11.61
12/22/2020 2:30:00 AM 4.85 40.73 0.033 6.91 28.16 11.73
12/22/2020 2:45:00 AM 4.92 40.856 0.033 6.91 4.55 11.65
12/22/2020 3:00:00 AM 4.79 40.622 0.035 6.96 25.49 11.67
12/22/2020 3:15:00 AM 4.86 40.748 0.033 6.91 24.98 11.65
12/22/2020 3:30:00 AM 4.82 40.676 0.033 6.91 21.24 11.65
12/22/2020 3:45:00 AM 4.86 40.748 0.035 6.84 28.62 11.65
12/22/2020 4:00:00 AM 4.84 40.712 0.033 6.89 26.68 11.64
12/22/2020 4:15:00 AM 4.81 40.658 0.035 6.83 23.25 11.73
12/22/2020 4:30:00 AM 4.76 40.568 0.035 6.91 25.94 11.77
12/22/2020 4:45:00 AM 4.76 40.568 0.035 6.92 25.46 11.72
12/22/2020 5:00:00 AM 4.81 40.658 0.035 6.91 25.54 11.74
12/22/2020 5:15:00 AM 4.75 40.55 0.035 6.91 27.87 11.77
12/22/2020 5:30:00 AM 4.73 40.514 0.035 6.93 24.85 11.81
12/22/2020 5:45:00 AM 4.75 40.55 0.035 6.84 22.82 11.79
12/22/2020 6:00:00 AM 4.71 40.478 0.035 6.92 27.46 11.84
12/22/2020 6:15:00 AM 4.75 40.55 0.035 6.86 24.85 11.84
12/22/2020 6:30:00 AM 4.71 40.478 0.034 6.87 27.36 11.83
12/22/2020 6:45:00 AM 4.69 40.442 0.034 6.83 26.72 11.81
12/22/2020 7:00:00 AM 4.77 40.586 0.035 6.85 28.23 11.91
12/22/2020 7:15:00 AM 4.74 40.532 0.035 6.83 28.35 11.9
12/22/2020 7:30:00 AM 4.79 40.622 0.035 6.82 29.65 11.8
12/22/2020 7:45:00 AM 4.72 40.496 0.034 6.93 29.28 11.85
12/22/2020 8:00:00 AM 4.77 40.586 0.034 6.84 28.37 11.79
12/22/2020 8:15:00 AM 4.75 40.55 0.034 6.95 23.93 11.89
12/22/2020 8:30:00 AM 4.9 40.82 0.035 6.92 25.48 11.78
12/22/2020 8:45:00 AM 4.82 40.676 0.035 6.94 27.6 11.87
12/22/2020 9:00:00 AM 4.9 40.82 0.035 6.87 33.94 11.79
12/22/2020 9:15:00 AM 4.86 40.748 0.035 6.91 36.61 11.82
12/22/2020 9:30:00 AM 4.9 40.82 0.035 6.84 34.04 11.9
12/22/2020 9:45:00 AM 4.9 40.82 0.035 6.81 25.24 11.81
12/22/2020 10:00:00 AM 4.88 40.784 0.035 6.84 28.27 11.92
12/22/2020 10:15:00 AM 4.93 40.874 0.035 6.8 26.22 11.84
12/22/2020 10:30:00 AM 4.93 40.874 0.034 6.93 28.23 11.98
12/22/2020 10:45:00 AM 5 41 0.033 6.87 30.01 11.99
12/22/2020 11:00:00 AM 5 41 0.034 6.9 29.82 11.92
12/22/2020 11:15:00 AM 5.01 41.018 0.034 6.77 29.52 11.95
12/22/2020 11:30:00 AM 5.18 41.324 0.032 6.91 24.96 11.84
12/22/2020 11:45:00 AM 5.14 41.252 0.034 6.79 30.46 11.86
12/22/2020 12:00:00 PM 5.18 41.324 0.035 6.74 25.84 11.88
12/22/2020 12:15:00 PM 5.22 41.396 0.033 6.89 17.94 11.92
12/22/2020 12:30:00 PM 5.17 41.306 0.034 6.81 27.84 11.94
12/22/2020 12:45:00 PM 5.23 41.414 0.034 6.76 30.1 11.86
12/22/2020 1:00:00 PM 5.31 41.558 0.035 6.77 25.35 11.89
12/22/2020 1:15:00 PM 5.31 41.558 0.034 6.8 31.12 11.87
12/22/2020 1:30:00 PM 5.28 41.504 0.034 6.82 25.22 11.85
12/22/2020 1:45:00 PM 5.36 41.648 0.034 6.8 28.52 11.81
12/22/2020 2:00:00 PM 5.33 41.594 0.034 6.81 30.86 11.7
12/22/2020 2:15:00 PM 5.35 41.63 0.032 6.9 25.72 11.79
12/22/2020 2:30:00 PM 5.28 41.504 0.032 6.91 29.69 11.85
12/22/2020 2:45:00 PM 5.37 41.666 0.034 6.83 25.67 11.73
12/22/2020 3:00:00 PM 5.31 41.558 0.034 6.87 24.94 11.83
12/22/2020 3:15:00 PM 5.37 41.666 0.034 6.9 24.93 11.75
12/22/2020 3:30:00 PM 5.38 41.684 0.034 6.86 23.18 11.68
12/22/2020 3:45:00 PM 5.38 41.684 0.034 6.91 23.42 11.63
12/22/2020 4:00:00 PM 5.34 41.612 0.032 6.86 28.14 11.69
12/22/2020 4:15:00 PM 5.33 41.594 0.034 6.84 22.98 11.61
12/22/2020 4:30:00 PM 5.2 41.36 0.034 6.73 28.64 11.68
12/22/2020 4:45:00 PM 5.35 41.63 0.033 6.25 29.97 11.65
12/22/2020 5:00:00 PM 5.25 41.45 0.035 6.3 24.27 11.63
12/22/2020 5:15:00 PM 5.34 41.612 0.035 6.29 24.23 11.59
12/22/2020 5:30:00 PM 5.27 41.486 0.035 6.21 23.99 11.6
12/22/2020 5:45:00 PM 5.29 41.522 0.035 6.29 24.69 11.61
12/22/2020 6:00:00 PM 5.21 41.378 0.035 6.24 26.21 11.68
12/22/2020 6:15:00 PM 5.27 41.486 0.035 6.31 25.07 11.59
12/22/2020 6:30:00 PM 5.27 41.486 0.033 6.27 26.26 11.73
12/22/2020 6:45:00 PM 5.24 41.432 0.035 6.33 32.75 11.64
12/22/2020 7:00:00 PM 5.31 41.558 0.035 6.24 29.76 11.6
12/22/2020 7:15:00 PM 5.2 41.36 0.035 6.31 27.88 11.66
12/22/2020 7:30:00 PM 5.29 41.522 0.035 6.29 23.93 11.62
12/22/2020 7:45:00 PM 5.19 41.342 0.035 6.31 28.72 11.66
12/22/2020 8:00:00 PM 5.22 41.396 0.035 6.3 30.87 11.62
12/22/2020 8:15:00 PM 5.22 41.396 0.035 6.22 30.12 11.72
12/22/2020 8:30:00 PM 5.2 41.36 0.035 6.3 35.75 11.69
12/22/2020 8:45:00 PM 5.2 41.36 0.035 6.28 31.54 11.68
12/22/2020 9:00:00 PM 5.3 41.54 0.035 6.3 29.45 11.71
12/22/2020 9:15:00 PM 5.16 41.288 0.035 6.22 27.89 11.73
12/22/2020 9:30:00 PM 5.23 41.414 0.035 6.33 30.12 11.67
12/22/2020 9:45:00 PM 5.17 41.306 0.035 6.3 29.16 11.63
12/22/2020 10:00:00 PM 5.15 41.27 0.035 6.32 28.35 11.72
12/22/2020 10:15:00 PM 5.2 41.36 0.033 6.25 30.17 11.65
12/22/2020 10:30:00 PM 5.14 41.252 0.033 6.31 5.3 11.73
12/22/2020 10:45:00 PM 5.13 41.234 0.035 6.36 28.78 11.69
12/22/2020 11:00:00 PM 5.15 41.27 0.035 6.37 23.88 11.61
12/22/2020 11:15:00 PM 5.17 41.306 0.033 6.41 25.87 11.7
12/22/2020 11:30:00 PM 5.1 41.18 0.033 6.4 29.13 11.69
12/22/2020 11:45:00 PM 5.08 41.144 0.035 6.4 34.53 11.76
12/23/2020 12:00:00 AM 5.15 41.27 0.033 6.28 26.23 11.77
12/23/2020 12:15:00 AM 5.14 41.252 0.033 6.28 19.78 11.59
12/23/2020 12:30:00 AM 5.13 41.234 0.033 6.29 6.39 11.68
12/23/2020 12:45:00 AM 5.07 41.126 0.033 6.31 18.17 11.62
12/23/2020 1:00:00 AM 5.05 41.09 0.035 6.42 26.86 11.66
12/23/2020 1:15:00 AM 4.94 40.892 0.035 6.45 26.68 11.8
12/23/2020 1:30:00 AM 4.9 40.82 0.035 6.37 34.12 11.87
12/23/2020 1:45:00 AM 4.96 40.928 0.035 6.3 28.67 11.71
12/23/2020 2:00:00 AM 4.94 40.892 0.033 6.35 24.6 11.8
12/23/2020 2:15:00 AM 4.9 40.82 0.035 6.35 27.26 11.73
12/23/2020 2:30:00 AM 4.85 40.73 0.035 6.32 24.31 11.69
12/23/2020 2:45:00 AM 4.87 40.766 0.035 6.39 22.04 11.74
12/23/2020 3:00:00 AM 4.83 40.694 0.035 6.36 22.74 11.69
12/23/2020 3:15:00 AM 4.78 40.604 0.035 6.38 29.18 11.74
12/23/2020 3:30:00 AM 4.81 40.658 0.035 6.34 23.81 11.73
12/23/2020 3:45:00 AM 4.81 40.658 0.035 6.37 24.15 11.75
12/23/2020 4:00:00 AM 4.77 40.586 0.035 6.4 27.81 11.91
12/23/2020 4:15:00 AM 4.81 40.658 0.035 6.36 29.43 11.79
12/23/2020 4:30:00 AM 4.81 40.658 0.035 6.38 25.12 11.75
12/23/2020 4:45:00 AM 4.84 40.712 0.033 6.33 26.52 11.8
12/23/2020 5:00:00 AM 4.74 40.532 0.035 6.34 25.19 11.82
12/23/2020 5:15:00 AM 4.83 40.694 0.035 6.32 28.48 11.73
12/23/2020 5:30:00 AM 4.81 40.658 0.035 6.35 27.08 11.81
12/23/2020 5:45:00 AM 4.76 40.568 0.033 6.34 27.26 11.82
12/23/2020 6:00:00 AM 4.67 40.406 0.035 6.32 25.64 11.87
12/23/2020 6:15:00 AM 4.63 40.334 0.035 6.33 28.69 11.84
12/23/2020 6:30:00 AM 4.71 40.478 0.035 6.34 28.48 11.69
12/23/2020 6:45:00 AM 4.75 40.55 0.035 6.37 25.1 11.76
12/23/2020 7:00:00 AM 4.69 40.442 0.035 6.36 24.99 11.7
12/23/2020 7:15:00 AM 4.59 40.262 0.035 6.39 26.29 11.87
12/23/2020 7:30:00 AM 4.61 40.298 0.033 6.35 26.43 11.87
12/23/2020 7:45:00 AM 4.57 40.226 0.033 6.36 26.76 11.86
12/23/2020 8:00:00 AM 4.59 40.262 0.033 6.32 13.06 11.8
12/23/2020 8:15:00 AM 4.61 40.298 0.035 6.34 23.76 11.96
12/23/2020 8:30:00 AM 4.58 40.244 0.035 6.36 26.71 11.95
12/23/2020 8:45:00 AM 4.49 40.082 0.035 6.36 28.73 12.02
12/23/2020 9:00:00 AM 4.53 40.154 0.035 6.36 27.07 12.03
12/23/2020 9:15:00 AM 4.47 40.046 0.035 6.36 23.08 12.1
12/23/2020 9:30:00 AM 4.49 40.082 0.035 6.36 28.96 12.1
12/23/2020 9:45:00 AM 4.57 40.226 0.035 6.34 29.34 12.03
12/23/2020 10:00:00 AM 4.67 40.406 0.033 6.34 29.53 12.13
12/23/2020 10:15:00 AM 4.68 40.424 0.033 6.34 4.59 12.07
12/23/2020 10:30:00 AM 4.76 40.568 0.035 6.33 24.88 12.06
12/23/2020 10:45:00 AM 4.77 40.586 0.033 6.31 27.16 12.17
12/23/2020 11:00:00 AM 4.83 40.694 0.035 6.36 26.76 11.98
12/23/2020 11:15:00 AM 4.88 40.784 0.033 6.33 24.86 12.09
12/23/2020 11:30:00 AM 4.97 40.946 0.033 6.34 24.2 12.02
12/23/2020 11:45:00 AM 5.01 41.018 0.033 6.31 11.03 11.98
12/23/2020 12:00:00 PM 5.07 41.126 0.035 6.34 22.19 11.9
12/23/2020 12:15:00 PM 5.11 41.198 0.033 6.31 24.06 11.94
12/23/2020 12:30:00 PM 5.15 41.27 0.035 6.35 23.98 11.93
12/23/2020 12:45:00 PM 5.18 41.324 0.033 6.34 20.68 11.99
12/23/2020 1:00:00 PM 5.2 41.36 0.034 6.32 24.69 11.91
12/23/2020 1:15:00 PM 5.2 41.36 0.035 6.38 25.25 11.97
12/23/2020 1:30:00 PM 5.25 41.45 0.034 6.39 21.84 11.91
12/23/2020 1:45:00 PM 5.31 41.558 0.035 6.33 23.84 11.82
12/23/2020 2:00:00 PM 5.3 41.54 0.035 6.37 24.98 11.87
12/23/2020 2:15:00 PM 5.31 41.558 0.033 6.35 26.52 11.89
12/23/2020 2:30:00 PM 5.33 41.594 0.033 6.35 26.62 11.81
12/23/2020 2:45:00 PM 5.35 41.63 0.035 6.35 20.94 11.83
12/23/2020 3:00:00 PM 5.36 41.648 0.033 6.3 26.09 11.83
12/23/2020 3:15:00 PM 5.33 41.594 0.035 6.34 24.87 11.79
12/23/2020 3:30:00 PM 5.33 41.594 0.035 6.35 27.52 11.77
12/23/2020 3:45:00 PM 5.33 41.594 0.035 6.38 23.92 11.73
12/23/2020 4:00:00 PM 5.3 41.54 0.034 6.32 26.99 11.72
12/23/2020 4:15:00 PM 5.29 41.522 0.035 6.36 27.74 11.68
12/23/2020 4:30:00 PM 5.3 41.54 0.035 6.37 30.73 11.56
12/23/2020 4:45:00 PM 5.24 41.432 0.035 6.38 23 11.64
12/23/2020 5:00:00 PM 5.23 41.414 0.035 6.38 30.25 11.6
12/23/2020 5:15:00 PM 5.31 41.558 0.035 6.36 28.08 11.51
12/23/2020 5:30:00 PM 5.24 41.432 0.035 6.36 30.3 11.56
12/23/2020 5:45:00 PM 5.23 41.414 0.035 6.36 25.91 11.58
12/23/2020 6:00:00 PM 5.2 41.36 0.035 6.36 26.44 11.66
12/23/2020 6:15:00 PM 5.16 41.288 0.035 6.36 24.58 11.63
12/23/2020 6:30:00 PM 5.16 41.288 0.035 6.38 25.43 11.58
12/23/2020 6:45:00 PM 5.19 41.342 0.035 6.36 23.25 11.59
12/23/2020 7:00:00 PM 5.13 41.234 0.035 6.36 25.93 11.69
12/23/2020 7:15:00 PM 5.16 41.288 0.035 6.38 21.98 11.68
12/23/2020 7:30:00 PM 5.11 41.198 0.035 6.38 24.28 11.7
12/23/2020 7:45:00 PM 5.16 41.288 0.035 6.32 24.81 11.63
12/23/2020 8:00:00 PM 5.1 41.18 0.035 6.36 23.76 11.66
12/23/2020 8:15:00 PM 5.13 41.234 0.035 6.31 26.18 11.61
12/23/2020 8:30:00 PM 5.11 41.198 0.033 6.34 17.47 11.61
12/23/2020 8:45:00 PM 5.06 41.108 0.035 6.38 25.85 11.64
12/23/2020 9:00:00 PM 5.1 41.18 0.033 6.31 30.86 11.59
12/23/2020 9:15:00 PM 5.06 41.108 0.035 6.36 25.34 11.56
12/23/2020 9:30:00 PM 5.02 41.036 0.035 6.36 27.48 11.66
12/23/2020 9:45:00 PM 5.04 41.072 0.033 6.36 28.86 11.61
12/23/2020 10:00:00 PM 5.02 41.036 0.033 6.33 9.96 11.7
12/23/2020 10:15:00 PM 4.99 40.982 0.035 6.37 26.37 11.65
12/23/2020 10:30:00 PM 4.99 40.982 0.035 6.36 24.03 11.69
12/23/2020 10:45:00 PM 4.98 40.964 0.035 6.38 28.31 11.58
12/23/2020 11:00:00 PM 5 41 0.035 6.32 29.1 11.61
12/23/2020 11:15:00 PM 5.02 41.036 0.035 6.37 25.23 11.65
12/23/2020 11:30:00 PM 5.01 41.018 0.033 6.34 26.01 11.63
12/23/2020 11:45:00 PM 5.02 41.036 0.035 6.35 26.05 11.71
12/24/2020 12:00:00 AM 4.88 40.784 0.035 6.3 22.37 11.69
12/24/2020 12:15:00 AM 5.03 41.054 0.033 6.34 24.36 11.62
12/24/2020 12:30:00 AM 5 41 0.035 6.35 26.97 11.62
12/24/2020 12:45:00 AM 5.02 41.036 0.033 6.33 22.62 11.6
12/24/2020 1:00:00 AM 5.03 41.054 0.033 6.33 25.66 11.59
12/24/2020 1:15:00 AM 5 41 0.033 6.34 24.02 11.62
12/24/2020 1:30:00 AM 4.95 40.91 0.035 6.35 30.44 11.7
12/24/2020 1:45:00 AM 4.95 40.91 0.035 6.22 26.57 11.67
12/24/2020 2:00:00 AM 5.01 41.018 0.035 6.34 21.34 11.71
12/24/2020 2:15:00 AM 4.97 40.946 0.035 6.35 23.46 11.75
12/24/2020 2:30:00 AM 4.95 40.91 0.035 6.39 29.01 11.66
12/24/2020 2:45:00 AM 4.95 40.91 0.035 6.32 23.47 11.68
12/24/2020 3:00:00 AM 5.03 41.054 0.033 6.36 25.68 11.68
12/24/2020 3:15:00 AM 5.02 41.036 0.033 6.33 26.03 11.59
12/24/2020 3:30:00 AM 5 41 0.035 6.37 26.32 11.72
12/24/2020 3:45:00 AM 4.95 40.91 0.035 6.32 26.57 11.67
12/24/2020 4:00:00 AM 4.99 40.982 0.035 6.33 27.44 11.64
12/24/2020 4:15:00 AM 5.03 41.054 0.035 6.29 28.76 11.62
12/24/2020 4:30:00 AM 5.1 41.18 0.033 6.34 25.27 11.59
12/24/2020 4:45:00 AM 5.08 41.144 0.035 6.31 29.12 11.67
12/24/2020 5:00:00 AM 5.11 41.198 0.035 6.34 29.13 11.68
12/24/2020 5:15:00 AM 5.08 41.144 0.035 6.27 30.69 11.69
12/24/2020 5:30:00 AM 5.12 41.216 0.035 6.34 33.01 11.59
12/24/2020 5:45:00 AM 5.12 41.216 0.035 6.35 28.84 11.69
12/24/2020 6:00:00 AM 5.11 41.198 0.035 6.32 23.85 11.64
12/24/2020 6:15:00 AM 5.07 41.126 0.035 6.31 25.06 11.7
12/24/2020 6:30:00 AM 5.16 41.288 0.035 6.26 30.99 11.77
12/24/2020 6:45:00 AM 5.15 41.27 0.035 6.31 27.16 11.74
12/24/2020 7:00:00 AM 5.1 41.18 0.035 6.34 28.83 11.73
12/24/2020 7:15:00 AM 5.08 41.144 0.035 6.35 21.03 11.73
12/24/2020 7:30:00 AM 5.05 41.09 0.035 6.3 32.68 11.71
12/24/2020 7:45:00 AM 5.11 41.198 0.035 6.28 28.31 11.67
12/24/2020 8:00:00 AM 5.12 41.216 0.033 6.31 29.23 11.65
12/24/2020 8:15:00 AM 5.07 41.126 0.035 6.31 27.79 11.67
12/24/2020 8:30:00 AM 5.06 41.108 0.035 6.3 24.95 11.58
12/24/2020 8:45:00 AM 4.98 40.964 0.034 6.28 30.22 11.79
12/24/2020 9:00:00 AM 5.01 41.018 0.034 6.29 26.68 11.82
12/24/2020 9:15:00 AM 4.9 40.82 0.034 6.37 26.14 12.01
12/24/2020 9:30:00 AM 4.97 40.946 0.034 6.34 22.02 12.08
12/24/2020 9:45:00 AM 4.85 40.73 0.033 6.39 24.13 12.09
12/24/2020 10:00:00 AM 4.76 40.568 0.033 6.45 26.48 12.31
12/24/2020 10:15:00 AM 4.66 40.388 0.033 6.47 25.9 12.49
12/24/2020 10:30:00 AM 4.61 40.298 0.031 6.55 25.66 12.64
12/24/2020 10:45:00 AM 4.41 39.938 0.031 6.56 31.02 12.78
12/24/2020 11:00:00 AM 4.37 39.866 0.032 6.62 29.52 12.8
12/24/2020 11:15:00 AM 4.26 39.668 0.03 6.63 27.15 12.87
12/24/2020 11:30:00 AM 4.14 39.452 0.032 6.61 27.31 12.92
12/24/2020 11:45:00 AM 3.84 38.912 0.032 6.76 30.57 13.17
12/24/2020 12:00:00 PM 3.74 38.732 0.03 6.62 34.45 12.99
12/24/2020 12:15:00 PM 3.3 37.94 0.032 6.63 37.71 13.27
12/24/2020 12:30:00 PM 2.69 36.842 0.032 6.73 42.66 13.65
12/24/2020 12:45:00 PM 2.12 35.816 0.031 6.67 96.03 13.9
12/24/2020 1:00:00 PM 1.88 35.384 0.026 6.7 78.71 13.96
12/24/2020 1:15:00 PM 1.64 34.952 0.019 6.78 95.33 14.07
12/24/2020 1:30:00 PM 1.46 34.628 0.02 6.75 169.95 14.14
12/24/2020 1:45:00 PM 1.48 34.664 0.019 6.53 124.35 13.91
12/24/2020 2:00:00 PM 1.55 34.79 0.018 6.46 132.38 14
12/24/2020 2:15:00 PM 1.74 35.132 0.02 6.61 121.16 13.93
12/24/2020 2:30:00 PM 1.94 35.492 0.018 6.51 3480.79 13.73
12/24/2020 2:45:00 PM 1.89 35.402 0.02 6.63 4601.08 13.97
12/24/2020 3:00:00 PM 2.07 35.726 0.02 6.63 5192.21 13.87
12/24/2020 3:15:00 PM 2.12 35.816 0.019 6.64 4892.49 13.87
12/24/2020 3:30:00 PM 2.13 35.834 0.019 6.71 5187.12 13.92
12/24/2020 3:45:00 PM 2.09 35.762 0.019 6.54 727.87 13.91
12/24/2020 4:00:00 PM 2.12 35.816 0.019 6.65 99.03 13.93
12/24/2020 4:15:00 PM 2.09 35.762 0.019 6.6 162.07 13.95
12/24/2020 4:30:00 PM 2.11 35.798 0.019 6.65 370.53 13.93
12/24/2020 4:45:00 PM 2.12 35.816 0.019 6.68 337.73 13.92
12/24/2020 5:00:00 PM 2.1 35.78 0.019 6.69 306.43 13.91
12/24/2020 5:15:00 PM 2.03 35.654 0.019 6.6 341.94 13.96
12/24/2020 5:30:00 PM 2.11 35.798 0.018 6.38 2119.25 13.91
12/24/2020 5:45:00 PM 2.11 35.798 0.018 6.57 4414.4 13.92
12/24/2020 6:00:00 PM 2.07 35.726 0.018 6.6 607.68 13.95
12/24/2020 6:15:00 PM 2.08 35.744 0.017 6.64 1641.92 13.97
12/24/2020 6:30:00 PM 2.1 35.78 0.018 6.7 3369.29 13.97
12/24/2020 6:45:00 PM 2.14 35.852 0.018 6.7 8262.67 13.97
12/24/2020 7:00:00 PM 2.22 35.996 0.018 6.6 11205.96 13.92
12/24/2020 7:15:00 PM 2.33 36.194 0.018 6.61 3165.07 13.88
12/24/2020 7:30:00 PM 2.43 36.374 0.021 6.53 99.24 13.85
12/24/2020 7:45:00 PM 2.55 36.59 0.019 6.57 17238.57 13.81
12/24/2020 8:00:00 PM 2.64 36.752 0.018 6.63 1528.73 13.77
12/24/2020 8:15:00 PM 2.73 36.914 0.018 6.53 5933.98 13.73
12/24/2020 8:30:00 PM 2.82 37.076 0.016 6.58 5762.83 13.7
12/24/2020 8:45:00 PM 2.9 37.22 0.016 6.42 5324.67 13.66
12/24/2020 9:00:00 PM 2.96 37.328 0.016 6.45 4264.76 13.64
12/24/2020 9:15:00 PM 3.03 37.454 0.015 6.44 3297.45 13.6
12/24/2020 9:30:00 PM 3.12 37.616 0.015 6.41 2858.12 13.57
12/24/2020 9:45:00 PM 3.19 37.742 0.015 6.44 2908.96 13.54
12/24/2020 10:00:00 PM 3.25 37.85 0.014 6.45 2845.85 13.5
12/24/2020 10:15:00 PM 3.33 37.994 0.013 6.43 2618.66 13.46
12/24/2020 10:30:00 PM 3.42 38.156 0.012 6.37 2517.53 13.44
12/24/2020 10:45:00 PM 3.48 38.264 0.012 6.45 3836.63 13.42
12/24/2020 11:00:00 PM 3.54 38.372 0.012 6.44 1501.14 13.4
12/24/2020 11:15:00 PM 3.58 38.444 0.012 6.45 6073.95 13.37
12/24/2020 11:30:00 PM 3.63 38.534 0.011 6.41 1372.33 13.33
12/24/2020 11:45:00 PM 3.67 38.606 0.023 6.49 2483.79 13.31
12/25/2020 12:00:00 AM 3.68 38.624 0.023 6.55 5171.35 13.3
12/25/2020 12:15:00 AM 3.75 38.75 0.023 6.48 1383.78 13.27
12/25/2020 12:30:00 AM 3.76 38.768 0.023 6.51 6896.27 13.26
12/25/2020 12:45:00 AM 3.74 38.732 0.023 6.58 185.9 13.27
12/25/2020 1:00:00 AM 3.68 38.624 0.023 6.5 389.9 13.29
12/25/2020 1:15:00 AM 3.6 38.48 0.023 6.43 2371.33 13.29
12/25/2020 1:30:00 AM 3.49 38.282 0.023 6.41 553.44 13.32
12/25/2020 1:45:00 AM 3.29 37.922 0.023 6.35 1475.8 13.37
12/25/2020 2:00:00 AM 3.3 37.94 0.023 6.36 969.92 13.39
12/25/2020 2:15:00 AM 3.28 37.904 0.022 6.32 9398.39 13.41
12/25/2020 2:30:00 AM 3.27 37.886 0.013 6.29 5273.32 13.4
12/25/2020 2:45:00 AM 3.29 37.922 0.012 6.33 2302.99 13.39
12/25/2020 3:00:00 AM 3.34 38.012 0.012 6.4 958.24 13.37
12/25/2020 3:15:00 AM 3.37 38.066 0.012 6.43 1431.03 13.34
12/25/2020 3:30:00 AM 3.51 38.318 0.012 6.42 2138.3 13.31
12/25/2020 3:45:00 AM 3.62 38.516 0.011 6.48 1272.92 13.34
12/25/2020 4:00:00 AM 3.68 38.624 0.01 6.54 615.1 13.31
12/25/2020 4:15:00 AM 3.73 38.714 0.01 6.53 2138.98 13.32
12/25/2020 4:30:00 AM 3.78 38.804 0.021 6.46 1242.41 13.3
12/25/2020 4:45:00 AM 3.82 38.876 0.011 6.5 1661.6 13.27
12/25/2020 5:00:00 AM 3.85 38.93 0.01 6.47 1344.15 13.28
12/25/2020 5:15:00 AM 3.87 38.966 0.015 6.49 1330.2 13.28
12/25/2020 5:30:00 AM 3.89 39.002 0.008 6.49 1098.29 13.27
12/25/2020 5:45:00 AM 3.91 39.038 0.008 6.47 2248.92 13.26
12/25/2020 6:00:00 AM 3.9 39.02 0.008 6.38 471.53 13.23
12/25/2020 6:15:00 AM 3.92 39.056 0.008 6.36 379.18 13.08
12/25/2020 6:30:00 AM 3.95 39.11 0.008 6.5 364.9 13.07
12/25/2020 6:45:00 AM 3.97 39.146 0.008 6.37 340.29 13.19
12/25/2020 7:00:00 AM 3.97 39.146 0.008 6.48 345.4 12.9
12/25/2020 7:15:00 AM 3.98 39.164 0.008 6.5 344.31 13.1
12/25/2020 7:30:00 AM 3.99 39.182 0.008 6.49 333.84 12.95
12/25/2020 7:45:00 AM 4 39.2 0.008 6.51 325.82 12.94
12/25/2020 8:00:00 AM 4.01 39.218 0.008 6.51 325.38 13
12/25/2020 8:15:00 AM 4.02 39.236 0.009 6.48 319.27 12.89
12/25/2020 8:30:00 AM 4.03 39.254 0.009 6.43 315.79 12.87
12/25/2020 8:45:00 AM 4.04 39.272 0.008 6.44 314.47 12.96
12/25/2020 9:00:00 AM 4.05 39.29 0.009 6.55 309.05 12.97
12/25/2020 9:15:00 AM 4.06 39.308 0.009 6.37 304.63 12.92
12/25/2020 9:30:00 AM 4.07 39.326 0.009 6.57 304.36 12.84
12/25/2020 9:45:00 AM 4.09 39.362 0.009 6.53 301.84 12.96
12/25/2020 10:00:00 AM 4.11 39.398 0.009 6.38 298.42 12.93
12/25/2020 10:15:00 AM 4.12 39.416 0.009 6.43 293.36 12.78
12/25/2020 10:30:00 AM 4.15 39.47 0.008 6.5 294.28 13.02
12/25/2020 10:45:00 AM 4.16 39.488 0.009 6.43 296.07 12.89
12/25/2020 11:00:00 AM 4.18 39.524 0.008 6.45 291.61 13.07
12/25/2020 11:15:00 AM 4.19 39.542 0.008 6.46 289.5 12.91
12/25/2020 11:30:00 AM 4.2 39.56 0.008 6.47 288.25 12.92
12/25/2020 11:45:00 AM 4.21 39.578 0.008 6.49 286.3 12.86
12/25/2020 12:00:00 PM 4.22 39.596 0.008 6.54 287.98 12.88
12/25/2020 12:15:00 PM 4.23 39.614 0.008 6.44 284.89 12.83
12/25/2020 12:30:00 PM 4.24 39.632 0.008 6.48 285.44 12.9
12/25/2020 12:45:00 PM 4.25 39.65 0.008 6.48 283.28 12.82
12/25/2020 1:00:00 PM 4.26 39.668 0.008 6.55 283.56 12.96
12/25/2020 1:15:00 PM 4.27 39.686 0.008 6.65 278.97 12.91
12/25/2020 1:30:00 PM 4.28 39.704 0.008 6.54 284.14 12.81
12/25/2020 1:45:00 PM 4.28 39.704 0.009 6.5 276.81 12.78
12/25/2020 2:00:00 PM 4.28 39.704 0.009 6.53 276.56 12.8
12/25/2020 2:15:00 PM 4.29 39.722 0.009 6.49 287.31 12.82
12/25/2020 2:30:00 PM 4.29 39.722 0.009 6.39 291.92 12.83
12/25/2020 2:45:00 PM 4.29 39.722 0.008 6.45 290.17 12.85
12/25/2020 3:00:00 PM 4.29 39.722 0.008 6.44 287.56 12.79
12/25/2020 3:15:00 PM 4.3 39.74 0.008 6.43 281.06 12.86
12/25/2020 3:30:00 PM 4.3 39.74 0.008 6.41 279.36 12.81
12/25/2020 3:45:00 PM 4.3 39.74 0.008 6.44 281.84 12.81
12/25/2020 4:00:00 PM 4.3 39.74 0.008 6.44 281.37 12.74
12/25/2020 4:15:00 PM 4.3 39.74 0.008 6.43 277.24 12.7
12/25/2020 4:30:00 PM 4.3 39.74 0.008 6.44 278.26 12.69
12/25/2020 4:45:00 PM 4.29 39.722 0.008 6.45 280.58 12.69
12/25/2020 5:00:00 PM 4.28 39.704 0.009 6.46 269.41 12.7
12/25/2020 5:15:00 PM 4.27 39.686 0.009 6.43 268.92 12.7
12/25/2020 5:30:00 PM 4.26 39.668 0.009 6.4 266.88 12.64
12/25/2020 5:45:00 PM 4.25 39.65 0.009 6.43 266.74 12.68
12/25/2020 6:00:00 PM 4.24 39.632 0.009 6.45 278.21 12.75
12/25/2020 6:15:00 PM 4.22 39.596 0.009 6.44 278.23 12.74
12/25/2020 6:30:00 PM 4.2 39.56 0.009 6.42 276.59 12.79
12/25/2020 6:45:00 PM 4.19 39.542 0.009 6.42 278.02 12.77
12/25/2020 7:00:00 PM 4.17 39.506 0.009 6.42 278.37 12.76
12/25/2020 7:15:00 PM 4.15 39.47 0.009 6.42 278.03 12.75
12/25/2020 7:30:00 PM 4.13 39.434 0.009 6.29 281.27 12.76
12/25/2020 7:45:00 PM 4.11 39.398 0.009 6.42 282.73 12.77
12/25/2020 8:00:00 PM 4.09 39.362 0.009 6.43 280.62 12.83
12/25/2020 8:15:00 PM 4.06 39.308 0.009 6.43 279.87 12.82
12/25/2020 8:30:00 PM 4.04 39.272 0.009 6.43 279.92 12.86
12/25/2020 8:45:00 PM 4.02 39.236 0.009 6.4 277.4 12.84
12/25/2020 9:00:00 PM 3.99 39.182 0.009 6.42 275.6 12.85
12/25/2020 9:15:00 PM 3.97 39.146 0.009 6.42 275.13 12.86
12/25/2020 9:30:00 PM 3.95 39.11 0.009 6.42 275.65 12.86
12/25/2020 9:45:00 PM 3.93 39.074 0.009 6.42 272.13 12.85
12/25/2020 10:00:00 PM 3.91 39.038 0.009 6.36 275.41 12.76
12/25/2020 10:15:00 PM 3.88 38.984 0.009 6.41 271.72 12.76
12/25/2020 10:30:00 PM 3.86 38.948 0.009 6.43 271.08 12.72
12/25/2020 10:45:00 PM 3.84 38.912 0.009 6.43 270.27 12.72
12/25/2020 11:00:00 PM 3.83 38.894 0.009 6.43 272.3 12.74
12/25/2020 11:15:00 PM 3.81 38.858 0.009 6.42 268.18 12.72
12/25/2020 11:30:00 PM 3.79 38.822 0.009 6.29 266.54 12.78
12/25/2020 11:45:00 PM 3.76 38.768 0.009 6.3 264.88 12.81
12/26/2020 12:00:00 AM 3.74 38.732 0.009 6.41 262.9 12.82
12/26/2020 12:15:00 AM 3.72 38.696 0.009 6.27 264.67 12.85
12/26/2020 12:30:00 AM 3.7 38.66 0.009 6.34 261.85 12.84
12/26/2020 12:45:00 AM 3.68 38.624 0.009 6.34 261.52 12.86
12/26/2020 1:00:00 AM 3.66 38.588 0.009 6.34 261.38 12.86
12/26/2020 1:15:00 AM 3.64 38.552 0.009 6.34 263.69 12.86
12/26/2020 1:30:00 AM 3.62 38.516 0.009 6.33 264.06 12.86
12/26/2020 1:45:00 AM 3.61 38.498 0.009 6.36 264.92 12.9
12/26/2020 2:00:00 AM 3.59 38.462 0.009 6.34 266.44 12.9
12/26/2020 2:15:00 AM 3.57 38.426 0.009 6.35 267.9 12.88
12/26/2020 2:30:00 AM 3.56 38.408 0.01 6.35 268.95 12.87
12/26/2020 2:45:00 AM 3.55 38.39 0.01 6.33 269.91 12.88
12/26/2020 3:00:00 AM 3.53 38.354 0.01 6.38 266.58 12.9
12/26/2020 3:15:00 AM 3.52 38.336 0.01 6.37 268.17 12.93
12/26/2020 3:30:00 AM 3.51 38.318 0.01 6.35 270.07 12.92
12/26/2020 3:45:00 AM 3.51 38.318 0.01 6.34 272.01 12.92
12/26/2020 4:00:00 AM 3.49 38.282 0.01 6.35 271.89 12.93
12/26/2020 4:15:00 AM 3.48 38.264 0.01 6.37 273.36 12.96
12/26/2020 4:30:00 AM 3.47 38.246 0.01 6.4 275.18 12.96
12/26/2020 4:45:00 AM 3.45 38.21 0.01 6.41 275.4 12.97
12/26/2020 5:00:00 AM 3.44 38.192 0.01 6.42 276 13
12/26/2020 5:15:00 AM 3.43 38.174 0.01 6.42 280.01 12.99
12/26/2020 5:30:00 AM 3.41 38.138 0.01 6.42 281.74 13.01
12/26/2020 5:45:00 AM 3.4 38.12 0.01 6.4 284.79 13.02
12/26/2020 6:00:00 AM 3.39 38.102 0.01 6.41 281.6 12.99
12/26/2020 6:15:00 AM 3.38 38.084 0.01 6.41 280.07 13
12/26/2020 6:30:00 AM 3.37 38.066 0.01 6.41 282.36 12.99
12/26/2020 6:45:00 AM 3.36 38.048 0.01 6.41 282.24 12.99
12/26/2020 7:00:00 AM 3.36 38.048 0.01 6.41 280.83 13
12/26/2020 7:15:00 AM 3.35 38.03 0.01 6.41 279.25 13.01
12/26/2020 7:30:00 AM 3.34 38.012 0.01 6.41 278.57 13.02
12/26/2020 7:45:00 AM 3.33 37.994 0.01 6.4 282.45 13.03
12/26/2020 8:00:00 AM 3.32 37.976 0.01 6.4 285.17 13.04
12/26/2020 8:15:00 AM 3.31 37.958 0.01 6.39 290.69 13.04
12/26/2020 8:30:00 AM 3.3 37.94 0.01 6.39 289.15 13.05
12/26/2020 8:45:00 AM 3.3 37.94 0.01 6.4 290.3 13.08
12/26/2020 9:00:00 AM 3.3 37.94 0.01 6.38 287.82 13.08
12/26/2020 9:15:00 AM 3.29 37.922 0.01 6.37 286.39 13.1
12/26/2020 9:30:00 AM 3.29 37.922 0.01 6.39 285.1 13.1
12/26/2020 9:45:00 AM 3.29 37.922 0.01 6.35 286.34 13.05
12/26/2020 10:00:00 AM 3.29 37.922 0.01 6.39 285.77 13.09
12/26/2020 10:15:00 AM 3.3 37.94 0.01 6.39 284.65 13.03
12/26/2020 10:30:00 AM 3.3 37.94 0.01 6.39 285.53 13.02
12/26/2020 10:45:00 AM 3.31 37.958 0.01 6.39 285.7 13.04
12/26/2020 11:00:00 AM 3.32 37.976 0.01 6.39 285.32 13.04
12/26/2020 11:15:00 AM 3.33 37.994 0.01 6.39 285.66 13.04
12/26/2020 11:30:00 AM 3.35 38.03 0.01 6.38 287.01 13
12/26/2020 11:45:00 AM 3.36 38.048 0.01 6.39 287.89 12.95
12/26/2020 12:00:00 PM 3.38 38.084 0.01 6.39 289.69 12.91
12/26/2020 12:15:00 PM 3.4 38.12 0.01 6.38 289.7 12.95
12/26/2020 12:30:00 PM 3.41 38.138 0.01 6.39 288.31 12.95
12/26/2020 12:45:00 PM 3.43 38.174 0.01 6.39 287.43 12.9
12/26/2020 1:00:00 PM 3.46 38.228 0.01 6.39 291.41 12.86
12/26/2020 1:15:00 PM 3.48 38.264 0.01 6.4 289.94 12.86
12/26/2020 1:30:00 PM 3.5 38.3 0.01 6.26 291.33 12.84
12/26/2020 1:45:00 PM 3.52 38.336 0.01 6.38 288.34 12.77
12/26/2020 2:00:00 PM 3.54 38.372 0.01 6.26 286.3 12.77
12/26/2020 2:15:00 PM 3.57 38.426 0.01 6.37 284.84 12.73
12/26/2020 2:30:00 PM 3.59 38.462 0.01 6.38 286.16 12.73
12/26/2020 2:45:00 PM 3.61 38.498 0.01 6.38 288.02 12.73
12/26/2020 3:00:00 PM 3.62 38.516 0.01 6.37 287.36 12.74
12/26/2020 3:15:00 PM 3.64 38.552 0.01 6.38 288.12 12.73
12/26/2020 3:30:00 PM 3.65 38.57 0.01 6.38 288.93 12.71
12/26/2020 3:45:00 PM 3.67 38.606 0.01 6.37 289.36 12.7
12/26/2020 4:00:00 PM 3.68 38.624 0.011 6.38 290.5 12.69
12/26/2020 4:15:00 PM 3.69 38.642 0.011 6.38 286.45 12.68
12/26/2020 4:30:00 PM 3.7 38.66 0.011 6.37 287.2 12.67
12/26/2020 4:45:00 PM 3.7 38.66 0.011 6.36 285.72 12.67
12/26/2020 5:00:00 PM 3.71 38.678 0.011 6.36 286.44 12.67
12/26/2020 5:15:00 PM 3.71 38.678 0.011 6.25 287.03 12.68
12/26/2020 5:30:00 PM 3.71 38.678 0.011 6.32 287.92 12.7
12/26/2020 5:45:00 PM 3.71 38.678 0.011 6.34 289.69 12.7
12/26/2020 6:00:00 PM 3.71 38.678 0.011 6.34 288.09 12.69
12/26/2020 6:15:00 PM 3.7 38.66 0.011 6.31 288.9 12.73
12/26/2020 6:30:00 PM 3.7 38.66 0.011 6.28 290.26 12.74
12/26/2020 6:45:00 PM 3.69 38.642 0.011 6.34 289.81 12.7
12/26/2020 7:00:00 PM 3.68 38.624 0.011 6.29 290.32 12.75
12/26/2020 7:15:00 PM 3.67 38.606 0.011 6.28 289.76 12.75
12/26/2020 7:30:00 PM 3.66 38.588 0.011 6.31 289.6 12.79
12/26/2020 7:45:00 PM 3.65 38.57 0.011 6.28 291.94 12.81
12/26/2020 8:00:00 PM 3.65 38.57 0.011 6.32 292.53 12.83
12/26/2020 8:15:00 PM 3.64 38.552 0.011 6.33 291.94 12.83
12/26/2020 8:30:00 PM 3.63 38.534 0.011 6.31 292.77 12.83
12/26/2020 8:45:00 PM 3.63 38.534 0.011 6.27 292.56 12.82
12/26/2020 9:00:00 PM 3.63 38.534 0.01 6.29 292.01 12.81
12/26/2020 9:15:00 PM 3.62 38.516 0.01 6.32 291.16 12.84
12/26/2020 9:30:00 PM 3.62 38.516 0.01 6.32 290.51 12.84
12/26/2020 9:45:00 PM 3.62 38.516 0.01 6.32 294.21 12.82
12/26/2020 10:00:00 PM 3.61 38.498 0.01 6.28 291.56 12.84
12/26/2020 10:15:00 PM 3.61 38.498 0.01 6.33 292.45 12.85
12/26/2020 10:30:00 PM 3.61 38.498 0.01 6.32 293.62 12.82
12/26/2020 10:45:00 PM 3.61 38.498 0.01 6.33 295.44 12.83
12/26/2020 11:00:00 PM 3.61 38.498 0.01 6.33 294.79 12.85
12/26/2020 11:15:00 PM 3.61 38.498 0.011 6.32 296.21 12.85
12/26/2020 11:30:00 PM 3.61 38.498 0.011 6.32 293.65 12.85
12/26/2020 11:45:00 PM 3.61 38.498 0.011 6.32 295.8 12.84
12/27/2020 12:00:00 AM 3.61 38.498 0.011 6.32 294.62 12.83
12/27/2020 12:15:00 AM 3.61 38.498 0.011 6.31 294.58 12.85
12/27/2020 12:30:00 AM 3.61 38.498 0.011 6.32 292.11 12.83
12/27/2020 12:45:00 AM 3.62 38.516 0.011 6.32 290.89 12.84
12/27/2020 1:00:00 AM 3.62 38.516 0.011 6.33 292.81 12.84
12/27/2020 1:15:00 AM 3.63 38.534 0.011 6.31 291.63 12.81
12/27/2020 1:30:00 AM 3.63 38.534 0.011 6.31 288.23 12.82
12/27/2020 1:45:00 AM 3.64 38.552 0.011 6.32 288.77 12.8
12/27/2020 2:00:00 AM 3.65 38.57 0.011 6.32 288.45 12.8
12/27/2020 2:15:00 AM 3.66 38.588 0.011 6.32 289.56 12.79
12/27/2020 2:30:00 AM 3.67 38.606 0.011 6.32 289.77 12.78
12/27/2020 2:45:00 AM 3.67 38.606 0.011 6.32 289.88 12.77
12/27/2020 3:00:00 AM 3.67 38.606 0.011 6.31 290.08 12.78
12/27/2020 3:15:00 AM 3.68 38.624 0.011 6.3 291.47 12.76
12/27/2020 3:30:00 AM 3.68 38.624 0.011 6.31 289.76 12.75
12/27/2020 3:45:00 AM 3.69 38.642 0.011 6.3 288.72 12.76
12/27/2020 4:00:00 AM 3.7 38.66 0.011 6.34 289.33 12.76
12/27/2020 4:15:00 AM 3.7 38.66 0.011 6.32 289.1 12.77
12/27/2020 4:30:00 AM 3.71 38.678 0.011 6.31 289.64 12.77
12/27/2020 4:45:00 AM 3.72 38.696 0.011 6.3 291.4 12.78
12/27/2020 5:00:00 AM 3.73 38.714 0.011 6.31 290.31 12.75
12/27/2020 5:15:00 AM 3.74 38.732 0.011 6.31 289.65 12.74
12/27/2020 5:30:00 AM 3.75 38.75 0.011 6.31 288.66 12.72
12/27/2020 5:45:00 AM 3.76 38.768 0.011 6.3 287.05 12.7
12/27/2020 6:00:00 AM 3.78 38.804 0.011 6.3 283.16 12.68
12/27/2020 6:15:00 AM 3.79 38.822 0.011 6.28 281.55 12.69
12/27/2020 6:30:00 AM 3.8 38.84 0.011 6.28 279.27 12.7
12/27/2020 6:45:00 AM 3.81 38.858 0.011 6.29 276.64 12.66
12/27/2020 7:00:00 AM 3.82 38.876 0.011 6.28 277.34 12.66
12/27/2020 7:15:00 AM 3.83 38.894 0.011 6.29 278.18 12.65
12/27/2020 7:30:00 AM 3.84 38.912 0.011 6.29 276.38 12.64
12/27/2020 7:45:00 AM 3.86 38.948 0.011 6.29 275.01 12.63
12/27/2020 8:00:00 AM 3.87 38.966 0.011 6.29 274.41 12.6
12/27/2020 8:15:00 AM 3.89 39.002 0.011 6.28 275.01 12.56
12/27/2020 8:30:00 AM 3.91 39.038 0.011 6.29 273.41 12.54
12/27/2020 8:45:00 AM 3.92 39.056 0.011 6.28 275.07 12.54
12/27/2020 9:00:00 AM 3.94 39.092 0.011 6.28 273.49 12.48
12/27/2020 9:15:00 AM 3.95 39.11 0.011 6.25 273.44 12.47
12/27/2020 9:30:00 AM 3.96 39.128 0.011 6.22 273.92 12.46
12/27/2020 9:45:00 AM 3.98 39.164 0.011 6.27 274.35 12.41
12/27/2020 10:00:00 AM 4.01 39.218 0.011 6.25 274.3 12.36
12/27/2020 10:15:00 AM 4.03 39.254 0.011 6.28 275.77 12.32
12/27/2020 10:30:00 AM 4.05 39.29 0.011 6.27 275.72 12.18
12/27/2020 10:45:00 AM 4.07 39.326 0.011 6.26 275.19 12.23
12/27/2020 11:00:00 AM 4.09 39.362 0.011 6.26 273.77 12.29
12/27/2020 11:15:00 AM 4.12 39.416 0.011 6.25 272.41 12.2
12/27/2020 11:30:00 AM 4.15 39.47 0.011 6.25 272.59 12.13
12/27/2020 11:45:00 AM 4.19 39.542 0.011 6.25 272.06 12.1
12/27/2020 12:00:00 PM 4.22 39.596 0.011 6.25 269.08 12.06
12/27/2020 12:15:00 PM 4.26 39.668 0.011 6.24 269.08 12.04
12/27/2020 12:30:00 PM 4.3 39.74 0.011 6.24 269.03 12.01
12/27/2020 12:45:00 PM 4.35 39.83 0.011 6.23 270.46 11.94
12/27/2020 1:00:00 PM 4.38 39.884 0.011 6.22 268.71 11.91
12/27/2020 1:15:00 PM 4.42 39.956 0.011 6.21 268.61 11.89
12/27/2020 1:30:00 PM 4.45 40.01 0.011 6.22 270.64 11.86
12/27/2020 1:45:00 PM 4.49 40.082 0.011 6.21 267.25 11.83
12/27/2020 2:00:00 PM 4.52 40.136 0.011 6.21 267.67 11.79
12/27/2020 2:15:00 PM 4.56 40.208 0.011 6.2 269.01 11.74
12/27/2020 2:30:00 PM 4.58 40.244 0.011 6.19 269.65 11.68
12/27/2020 2:45:00 PM 4.61 40.298 0.011 6.21 270.81 11.69
12/27/2020 3:00:00 PM 4.63 40.334 0.011 6.21 273.85 11.67
12/27/2020 3:15:00 PM 4.65 40.37 0.011 6.2 275.72 11.68
12/27/2020 3:30:00 PM 4.67 40.406 0.011 6.21 275.35 11.7
12/27/2020 3:45:00 PM 4.69 40.442 0.011 6.19 274.11 11.68
12/27/2020 4:00:00 PM 4.71 40.478 0.011 6.2 275 11.64
12/27/2020 4:15:00 PM 4.73 40.514 0.011 6.2 273.88 11.59
12/27/2020 4:30:00 PM 4.74 40.532 0.011 6.19 273.56 11.6
12/27/2020 4:45:00 PM 4.76 40.568 0.011 6.17 274.46 11.58
12/27/2020 5:00:00 PM 4.77 40.586 0.011 6.2 273.57 11.56
12/27/2020 5:15:00 PM 4.78 40.604 0.011 6.18 272.76 11.51
12/27/2020 5:30:00 PM 4.77 40.586 0.011 6.19 271.44 11.6
12/27/2020 5:45:00 PM 4.77 40.586 0.011 6.19 270.64 11.62
12/27/2020 6:00:00 PM 4.78 40.604 0.011 6.16 270.8 11.6
12/27/2020 6:15:00 PM 4.8 40.64 0.011 6.17 270.51 11.55
12/27/2020 6:30:00 PM 4.81 40.658 0.012 6.17 269.68 11.52
12/27/2020 6:45:00 PM 4.82 40.676 0.012 6.17 269.1 11.5
12/27/2020 7:00:00 PM 4.83 40.694 0.012 6.17 269.07 11.47
12/27/2020 7:15:00 PM 4.84 40.712 0.012 6.17 263.97 11.47
12/27/2020 7:30:00 PM 4.85 40.73 0.012 6.19 264.22 11.46
12/27/2020 7:45:00 PM 4.86 40.748 0.012 6.19 264.23 11.45
12/27/2020 8:00:00 PM 4.87 40.766 0.012 6.19 264.5 11.42
12/27/2020 8:15:00 PM 4.89 40.802 0.012 6.17 264.72 11.39
12/27/2020 8:30:00 PM 4.89 40.802 0.012 6.18 264.56 11.38
12/27/2020 8:45:00 PM 4.91 40.838 0.012 6.16 266.53 11.32
12/27/2020 9:00:00 PM 4.92 40.856 0.012 6.17 267.79 11.33
12/27/2020 9:15:00 PM 4.92 40.856 0.012 6.17 266.99 11.3
12/27/2020 9:30:00 PM 4.93 40.874 0.012 6.2 265.62 11.29
12/27/2020 9:45:00 PM 4.95 40.91 0.012 6.16 269.93 11.25
12/27/2020 10:00:00 PM 4.95 40.91 0.012 6.18 271.88 11.25
12/27/2020 10:15:00 PM 4.95 40.91 0.012 6.15 270.73 11.22
12/27/2020 10:30:00 PM 4.97 40.946 0.012 6.16 269.35 11.15
12/27/2020 10:45:00 PM 4.98 40.964 0.012 6.13 271.67 11.15
12/27/2020 11:00:00 PM 4.99 40.982 0.012 6.13 271.47 11.15
12/27/2020 11:15:00 PM 5.01 41.018 0.012 6.14 271.67 11.1
12/27/2020 11:30:00 PM 5.02 41.036 0.012 6.13 270.14 11.04
12/27/2020 11:45:00 PM 5.03 41.054 0.012 6.15 269.65 10.96
12/28/2020 12:00:00 AM 5.03 41.054 0.012 6.15 270.25 10.99
12/28/2020 12:15:00 AM 5.03 41.054 0.012 6.14 270.85 10.99
12/28/2020 12:30:00 AM 5.04 41.072 0.012 6.13 272.42 11.01
12/28/2020 12:45:00 AM 5.05 41.09 0.012 6.14 273.82 10.96
12/28/2020 1:00:00 AM 5.07 41.126 0.012 6.13 274.49 10.95
12/28/2020 1:15:00 AM 5.1 41.18 0.012 6.15 272.35 10.87
12/28/2020 1:30:00 AM 5.11 41.198 0.012 6.1 272.05 10.86
12/28/2020 1:45:00 AM 5.11 41.198 0.012 6.13 271.77 10.89
12/28/2020 2:00:00 AM 5.12 41.216 0.013 6.09 271.57 10.84
12/28/2020 2:15:00 AM 5.12 41.216 0.013 6.12 271.89 10.78
12/28/2020 2:30:00 AM 5.12 41.216 0.013 6.1 272.52 10.8
12/28/2020 2:45:00 AM 5.12 41.216 0.013 6.11 271.67 10.78
12/28/2020 3:00:00 AM 5.12 41.216 0.013 6.09 272.93 10.78
12/28/2020 3:15:00 AM 5.13 41.234 0.013 6.09 271.78 10.78
12/28/2020 3:30:00 AM 5.14 41.252 0.013 6.09 272.27 10.74
12/28/2020 3:45:00 AM 5.15 41.27 0.013 6.08 270.55 10.75
12/28/2020 4:00:00 AM 5.16 41.288 0.013 6.09 269.7 10.71
12/28/2020 4:15:00 AM 5.17 41.306 0.013 6.11 271.4 10.72
12/28/2020 4:30:00 AM 5.18 41.324 0.013 6.1 270.76 10.7
12/28/2020 4:45:00 AM 5.18 41.324 0.013 6.1 271.06 10.66
12/28/2020 5:00:00 AM 5.19 41.342 0.013 6.07 272.35 10.57
12/28/2020 5:15:00 AM 5.2 41.36 0.013 6.08 272.23 10.55
12/28/2020 5:30:00 AM 5.21 41.378 0.013 6.1 271.98 10.58
12/28/2020 5:45:00 AM 5.2 41.36 0.013 6.11 271.03 10.62
12/28/2020 6:00:00 AM 5.21 41.378 0.013 6.07 272.26 10.61
12/28/2020 6:15:00 AM 5.22 41.396 0.013 6.12 272.16 10.63
12/28/2020 6:30:00 AM 5.23 41.414 0.013 6.09 270.8 10.64
12/28/2020 6:45:00 AM 5.22 41.396 0.013 6.09 271.44 10.63
12/28/2020 7:00:00 AM 5.23 41.414 0.013 6.12 270.1 10.6
12/28/2020 7:15:00 AM 5.23 41.414 0.013 6.11 270.37 10.6
12/28/2020 7:30:00 AM 5.23 41.414 0.013 6.09 269.03 10.65
12/28/2020 7:45:00 AM 5.23 41.414 0.013 6.12 274.61 10.62